<?xml version="1.0" encoding="UTF-8" standalone="no" ?>
<gpx xmlns="http://www.topografix.com/GPX/1/1" xmlns:xsi="http://www.w3.org/2001/XMLSchema-instance" xsi:schemaLocation="http://www.topografix.com/GPX/1/1 http://www.topografix.com/GPX/1/1/gpx.xsd" version="1.1" creator="VisuGPX - https://www.visugpx.com">
  <metadata>
    <name>rando VTT trailleres 13.05.12</name>
    <desc><![CDATA[Ma trace pour la rando de treilleres]]></desc>
  </metadata>
  <trk>
    <name><![CDATA[2012-05-13 09:18]]></name>
    <desc><![CDATA[<h1>OruxMaps</h1><br /><hr align="center" width="480" style="height: 2px; width: 517px"/><h2>Nom: 2012-05-13 09:18</h2><br /><p>Temps de départ: 05/13/2012 09:18</p><p>Temps d'arrivée: 05/13/2012 12:18</p><p>Distance: 29,7 km (02:59)</p><p>Temps déplacement: 02:08</p><p>Vitesse moyenne: 9,9 km/h</p><p>Vitesse moyenne: 13,9 km/h</p><p>Vitess Max.: 45 km/h</p><p>Altitude minimale: 37 m</p><p>Altitude maximale: 120 m</p><p>Vitesse d'élévation: 288,1 m/h</p><p>Vitesse de descente: -371,7 m/h</p><p>Gain Altitude: 371 m</p><p>Perte Altitude: -394 m</p><p>Temps d'élévation: 01:17</p><p>Temps de descente: 01:03</p><hr align="center" width="480" style="height: 2px; width: 517px"/>]]></desc>
    <trkseg>
      <trkpt lat="47.32707" lon="-1.62156">
        <ele>120</ele>
        <time>2012-05-13T07:18:36Z</time>
      </trkpt>
      <trkpt lat="47.32703" lon="-1.62186">
        <ele>93.88426</ele>
        <time>2012-05-13T07:20:20Z</time>
      </trkpt>
      <trkpt lat="47.32714" lon="-1.62211">
        <ele>92.44714</ele>
        <time>2012-05-13T07:20:25Z</time>
      </trkpt>
      <trkpt lat="47.32732" lon="-1.62224">
        <ele>92.9016</ele>
        <time>2012-05-13T07:20:31Z</time>
      </trkpt>
      <trkpt lat="47.32751" lon="-1.62226">
        <ele>93.41415</ele>
        <time>2012-05-13T07:20:36Z</time>
      </trkpt>
      <trkpt lat="47.3277" lon="-1.62218">
        <ele>93.86098</ele>
        <time>2012-05-13T07:20:41Z</time>
      </trkpt>
      <trkpt lat="47.32787" lon="-1.62209">
        <ele>93.96701</ele>
        <time>2012-05-13T07:20:46Z</time>
      </trkpt>
      <trkpt lat="47.32803" lon="-1.62196">
        <ele>94.23956</ele>
        <time>2012-05-13T07:20:50Z</time>
      </trkpt>
      <trkpt lat="47.32822" lon="-1.62181">
        <ele>96.76876</ele>
        <time>2012-05-13T07:20:55Z</time>
      </trkpt>
      <trkpt lat="47.3284" lon="-1.62171">
        <ele>99.40411</ele>
        <time>2012-05-13T07:21:00Z</time>
      </trkpt>
      <trkpt lat="47.32858" lon="-1.62162">
        <ele>100.93255</ele>
        <time>2012-05-13T07:21:04Z</time>
      </trkpt>
      <trkpt lat="47.32877" lon="-1.62149">
        <ele>101.750694</ele>
        <time>2012-05-13T07:21:10Z</time>
      </trkpt>
      <trkpt lat="47.32895" lon="-1.62136">
        <ele>102.51896</ele>
        <time>2012-05-13T07:21:15Z</time>
      </trkpt>
      <trkpt lat="47.32914" lon="-1.62123">
        <ele>102.88585</ele>
        <time>2012-05-13T07:21:20Z</time>
      </trkpt>
      <trkpt lat="47.32931" lon="-1.62108">
        <ele>102.97291</ele>
        <time>2012-05-13T07:21:25Z</time>
      </trkpt>
      <trkpt lat="47.32949" lon="-1.62113">
        <ele>103.57169</ele>
        <time>2012-05-13T07:21:30Z</time>
      </trkpt>
      <trkpt lat="47.32961" lon="-1.62136">
        <ele>105.48918</ele>
        <time>2012-05-13T07:21:35Z</time>
      </trkpt>
      <trkpt lat="47.32972" lon="-1.62158">
        <ele>106.709465</ele>
        <time>2012-05-13T07:21:39Z</time>
      </trkpt>
      <trkpt lat="47.32982" lon="-1.62184">
        <ele>105.64245</ele>
        <time>2012-05-13T07:21:43Z</time>
      </trkpt>
      <trkpt lat="47.32993" lon="-1.62207">
        <ele>103.50406</ele>
        <time>2012-05-13T07:21:47Z</time>
      </trkpt>
      <trkpt lat="47.33002" lon="-1.62233">
        <ele>101.7923</ele>
        <time>2012-05-13T07:21:51Z</time>
      </trkpt>
      <trkpt lat="47.33012" lon="-1.62259">
        <ele>100.86006</ele>
        <time>2012-05-13T07:21:55Z</time>
      </trkpt>
      <trkpt lat="47.33021" lon="-1.62287">
        <ele>100.27213</ele>
        <time>2012-05-13T07:21:59Z</time>
      </trkpt>
      <trkpt lat="47.33028" lon="-1.62314">
        <ele>99.50798</ele>
        <time>2012-05-13T07:22:03Z</time>
      </trkpt>
      <trkpt lat="47.33035" lon="-1.62342">
        <ele>99.41073</ele>
        <time>2012-05-13T07:22:07Z</time>
      </trkpt>
      <trkpt lat="47.33042" lon="-1.6237">
        <ele>100.06355</ele>
        <time>2012-05-13T07:22:11Z</time>
      </trkpt>
      <trkpt lat="47.33049" lon="-1.62398">
        <ele>100.953705</ele>
        <time>2012-05-13T07:22:15Z</time>
      </trkpt>
      <trkpt lat="47.33059" lon="-1.6242">
        <ele>102.106445</ele>
        <time>2012-05-13T07:22:19Z</time>
      </trkpt>
      <trkpt lat="47.33078" lon="-1.62432">
        <ele>102.46727</ele>
        <time>2012-05-13T07:22:23Z</time>
      </trkpt>
      <trkpt lat="47.331" lon="-1.62439">
        <ele>101.71035</ele>
        <time>2012-05-13T07:22:27Z</time>
      </trkpt>
      <trkpt lat="47.33123" lon="-1.62441">
        <ele>99.71304</ele>
        <time>2012-05-13T07:22:31Z</time>
      </trkpt>
      <trkpt lat="47.33145" lon="-1.62439">
        <ele>98.542015</ele>
        <time>2012-05-13T07:22:35Z</time>
      </trkpt>
      <trkpt lat="47.33168" lon="-1.62435">
        <ele>97.73791</ele>
        <time>2012-05-13T07:22:39Z</time>
      </trkpt>
      <trkpt lat="47.3319" lon="-1.62432">
        <ele>97.47957</ele>
        <time>2012-05-13T07:22:43Z</time>
      </trkpt>
      <trkpt lat="47.33211" lon="-1.62428">
        <ele>97.15174</ele>
        <time>2012-05-13T07:22:47Z</time>
      </trkpt>
      <trkpt lat="47.33232" lon="-1.62426">
        <ele>97.04801</ele>
        <time>2012-05-13T07:22:51Z</time>
      </trkpt>
      <trkpt lat="47.33253" lon="-1.62424">
        <ele>96.76519</ele>
        <time>2012-05-13T07:22:55Z</time>
      </trkpt>
      <trkpt lat="47.33274" lon="-1.62426">
        <ele>96.24211</ele>
        <time>2012-05-13T07:22:59Z</time>
      </trkpt>
      <trkpt lat="47.33293" lon="-1.6243">
        <ele>96.65473</ele>
        <time>2012-05-13T07:23:03Z</time>
      </trkpt>
      <trkpt lat="47.3331" lon="-1.62439">
        <ele>97.328255</ele>
        <time>2012-05-13T07:23:07Z</time>
      </trkpt>
      <trkpt lat="47.3333" lon="-1.62447">
        <ele>98.27809</ele>
        <time>2012-05-13T07:23:12Z</time>
      </trkpt>
      <trkpt lat="47.33348" lon="-1.62454">
        <ele>98.82869</ele>
        <time>2012-05-13T07:23:17Z</time>
      </trkpt>
      <trkpt lat="47.33376" lon="-1.6246">
        <ele>99.20935</ele>
        <time>2012-05-13T07:23:23Z</time>
      </trkpt>
      <trkpt lat="47.33394" lon="-1.6246">
        <ele>100.93207</ele>
        <time>2012-05-13T07:23:26Z</time>
      </trkpt>
      <trkpt lat="47.33412" lon="-1.62458">
        <ele>103.39322</ele>
        <time>2012-05-13T07:23:29Z</time>
      </trkpt>
      <trkpt lat="47.33431" lon="-1.6246">
        <ele>104.65026</ele>
        <time>2012-05-13T07:23:32Z</time>
      </trkpt>
      <trkpt lat="47.33453" lon="-1.62471">
        <ele>103.377625</ele>
        <time>2012-05-13T07:23:36Z</time>
      </trkpt>
      <trkpt lat="47.33472" lon="-1.62486">
        <ele>101.607765</ele>
        <time>2012-05-13T07:23:40Z</time>
      </trkpt>
      <trkpt lat="47.33492" lon="-1.62499">
        <ele>99.93058</ele>
        <time>2012-05-13T07:23:44Z</time>
      </trkpt>
      <trkpt lat="47.33512" lon="-1.62508">
        <ele>99.54444</ele>
        <time>2012-05-13T07:23:48Z</time>
      </trkpt>
      <trkpt lat="47.33534" lon="-1.62514">
        <ele>99.85586</ele>
        <time>2012-05-13T07:23:52Z</time>
      </trkpt>
      <trkpt lat="47.33554" lon="-1.6252">
        <ele>99.95439</ele>
        <time>2012-05-13T07:23:56Z</time>
      </trkpt>
      <trkpt lat="47.33574" lon="-1.62527">
        <ele>99.40745</ele>
        <time>2012-05-13T07:24:00Z</time>
      </trkpt>
      <trkpt lat="47.33594" lon="-1.62525">
        <ele>98.69142</ele>
        <time>2012-05-13T07:24:04Z</time>
      </trkpt>
      <trkpt lat="47.33613" lon="-1.62525">
        <ele>98.218765</ele>
        <time>2012-05-13T07:24:08Z</time>
      </trkpt>
      <trkpt lat="47.33616" lon="-1.62557">
        <ele>98.73551</ele>
        <time>2012-05-13T07:24:13Z</time>
      </trkpt>
      <trkpt lat="47.33614" lon="-1.62585">
        <ele>98.66631</ele>
        <time>2012-05-13T07:24:17Z</time>
      </trkpt>
      <trkpt lat="47.33632" lon="-1.62591">
        <ele>98.15812</ele>
        <time>2012-05-13T07:24:22Z</time>
      </trkpt>
      <trkpt lat="47.33655" lon="-1.62583">
        <ele>97.47191</ele>
        <time>2012-05-13T07:24:26Z</time>
      </trkpt>
      <trkpt lat="47.33675" lon="-1.62574">
        <ele>97.149315</ele>
        <time>2012-05-13T07:24:30Z</time>
      </trkpt>
      <trkpt lat="47.33697" lon="-1.62568">
        <ele>95.835236</ele>
        <time>2012-05-13T07:24:35Z</time>
      </trkpt>
      <trkpt lat="47.33717" lon="-1.62561">
        <ele>94.002556</ele>
        <time>2012-05-13T07:24:39Z</time>
      </trkpt>
      <trkpt lat="47.33737" lon="-1.62555">
        <ele>93.754715</ele>
        <time>2012-05-13T07:24:43Z</time>
      </trkpt>
      <trkpt lat="47.33758" lon="-1.62548">
        <ele>93.34427</ele>
        <time>2012-05-13T07:24:47Z</time>
      </trkpt>
      <trkpt lat="47.33777" lon="-1.6255">
        <ele>93.519196</ele>
        <time>2012-05-13T07:24:52Z</time>
      </trkpt>
      <trkpt lat="47.33797" lon="-1.62561">
        <ele>95.0861</ele>
        <time>2012-05-13T07:24:57Z</time>
      </trkpt>
      <trkpt lat="47.33812" lon="-1.62585">
        <ele>95.78313</ele>
        <time>2012-05-13T07:25:02Z</time>
      </trkpt>
      <trkpt lat="47.33824" lon="-1.62611">
        <ele>95.51103</ele>
        <time>2012-05-13T07:25:07Z</time>
      </trkpt>
      <trkpt lat="47.33838" lon="-1.6263">
        <ele>95.1617</ele>
        <time>2012-05-13T07:25:11Z</time>
      </trkpt>
      <trkpt lat="47.3385" lon="-1.62651">
        <ele>94.61366</ele>
        <time>2012-05-13T07:25:15Z</time>
      </trkpt>
      <trkpt lat="47.33864" lon="-1.62675">
        <ele>92.01183</ele>
        <time>2012-05-13T07:25:20Z</time>
      </trkpt>
      <trkpt lat="47.33879" lon="-1.62701">
        <ele>90.47742</ele>
        <time>2012-05-13T07:25:25Z</time>
      </trkpt>
      <trkpt lat="47.33892" lon="-1.62724">
        <ele>90.87599</ele>
        <time>2012-05-13T07:25:30Z</time>
      </trkpt>
      <trkpt lat="47.33907" lon="-1.62741">
        <ele>92.65081</ele>
        <time>2012-05-13T07:25:33Z</time>
      </trkpt>
      <trkpt lat="47.33924" lon="-1.62761">
        <ele>95.27456</ele>
        <time>2012-05-13T07:25:36Z</time>
      </trkpt>
      <trkpt lat="47.33939" lon="-1.62776">
        <ele>97.86583</ele>
        <time>2012-05-13T07:25:39Z</time>
      </trkpt>
      <trkpt lat="47.33951" lon="-1.62797">
        <ele>99.92777</ele>
        <time>2012-05-13T07:25:42Z</time>
      </trkpt>
      <trkpt lat="47.33966" lon="-1.62821">
        <ele>101.59434</ele>
        <time>2012-05-13T07:25:46Z</time>
      </trkpt>
      <trkpt lat="47.3398" lon="-1.62844">
        <ele>102.55524</ele>
        <time>2012-05-13T07:25:50Z</time>
      </trkpt>
      <trkpt lat="47.33993" lon="-1.62864">
        <ele>103.296776</ele>
        <time>2012-05-13T07:25:54Z</time>
      </trkpt>
      <trkpt lat="47.34007" lon="-1.62887">
        <ele>104.27062</ele>
        <time>2012-05-13T07:25:59Z</time>
      </trkpt>
      <trkpt lat="47.3402" lon="-1.62911">
        <ele>104.82691</ele>
        <time>2012-05-13T07:26:04Z</time>
      </trkpt>
      <trkpt lat="47.34025" lon="-1.62937">
        <ele>104.96919</ele>
        <time>2012-05-13T07:26:10Z</time>
      </trkpt>
      <trkpt lat="47.3402" lon="-1.62965">
        <ele>104.99589</ele>
        <time>2012-05-13T07:26:17Z</time>
      </trkpt>
      <trkpt lat="47.34011" lon="-1.6299">
        <ele>105.82147</ele>
        <time>2012-05-13T07:26:24Z</time>
      </trkpt>
      <trkpt lat="47.34004" lon="-1.63016">
        <ele>105.982124</ele>
        <time>2012-05-13T07:26:32Z</time>
      </trkpt>
      <trkpt lat="47.34017" lon="-1.63035">
        <ele>105.99682</ele>
        <time>2012-05-13T07:26:38Z</time>
      </trkpt>
      <trkpt lat="47.34032" lon="-1.6305">
        <ele>105.999245</ele>
        <time>2012-05-13T07:26:43Z</time>
      </trkpt>
      <trkpt lat="47.34051" lon="-1.63065">
        <ele>105.99986</ele>
        <time>2012-05-13T07:26:49Z</time>
      </trkpt>
      <trkpt lat="47.3407" lon="-1.63076">
        <ele>105.99998</ele>
        <time>2012-05-13T07:26:55Z</time>
      </trkpt>
      <trkpt lat="47.34088" lon="-1.63087">
        <ele>105.56249</ele>
        <time>2012-05-13T07:27:00Z</time>
      </trkpt>
      <trkpt lat="47.34107" lon="-1.63102">
        <ele>104.55536</ele>
        <time>2012-05-13T07:27:05Z</time>
      </trkpt>
      <trkpt lat="47.34127" lon="-1.63117">
        <ele>104.13179</ele>
        <time>2012-05-13T07:27:10Z</time>
      </trkpt>
      <trkpt lat="47.34145" lon="-1.63123">
        <ele>104.0417</ele>
        <time>2012-05-13T07:27:14Z</time>
      </trkpt>
      <trkpt lat="47.34163" lon="-1.63128">
        <ele>104.01319</ele>
        <time>2012-05-13T07:27:18Z</time>
      </trkpt>
      <trkpt lat="47.34185" lon="-1.63132">
        <ele>104.58125</ele>
        <time>2012-05-13T07:27:23Z</time>
      </trkpt>
      <trkpt lat="47.34206" lon="-1.63136">
        <ele>104.71313</ele>
        <time>2012-05-13T07:27:28Z</time>
      </trkpt>
      <trkpt lat="47.34226" lon="-1.63141">
        <ele>104.33111</ele>
        <time>2012-05-13T07:27:32Z</time>
      </trkpt>
      <trkpt lat="47.34246" lon="-1.63145">
        <ele>103.42117</ele>
        <time>2012-05-13T07:27:36Z</time>
      </trkpt>
      <trkpt lat="47.34264" lon="-1.63153">
        <ele>103.13326</ele>
        <time>2012-05-13T07:27:40Z</time>
      </trkpt>
      <trkpt lat="47.34282" lon="-1.63168">
        <ele>103.469124</ele>
        <time>2012-05-13T07:27:45Z</time>
      </trkpt>
      <trkpt lat="47.343" lon="-1.63188">
        <ele>104.30762</ele>
        <time>2012-05-13T07:27:50Z</time>
      </trkpt>
      <trkpt lat="47.34318" lon="-1.63205">
        <ele>103.823</ele>
        <time>2012-05-13T07:27:55Z</time>
      </trkpt>
      <trkpt lat="47.34334" lon="-1.63218">
        <ele>102.8229</ele>
        <time>2012-05-13T07:27:59Z</time>
      </trkpt>
      <trkpt lat="47.34351" lon="-1.63233">
        <ele>102.19528</ele>
        <time>2012-05-13T07:28:04Z</time>
      </trkpt>
      <trkpt lat="47.34369" lon="-1.63248">
        <ele>101.033646</ele>
        <time>2012-05-13T07:28:09Z</time>
      </trkpt>
      <trkpt lat="47.34386" lon="-1.63263">
        <ele>100.245285</ele>
        <time>2012-05-13T07:28:14Z</time>
      </trkpt>
      <trkpt lat="47.34403" lon="-1.63276">
        <ele>99.640114</ele>
        <time>2012-05-13T07:28:18Z</time>
      </trkpt>
      <trkpt lat="47.3442" lon="-1.63289">
        <ele>99.20254</ele>
        <time>2012-05-13T07:28:22Z</time>
      </trkpt>
      <trkpt lat="47.34437" lon="-1.63299">
        <ele>99.06409</ele>
        <time>2012-05-13T07:28:26Z</time>
      </trkpt>
      <trkpt lat="47.34456" lon="-1.63312">
        <ele>99.848404</ele>
        <time>2012-05-13T07:28:30Z</time>
      </trkpt>
      <trkpt lat="47.34477" lon="-1.63325">
        <ele>101.46375</ele>
        <time>2012-05-13T07:28:34Z</time>
      </trkpt>
      <trkpt lat="47.34496" lon="-1.6334">
        <ele>103.34205</ele>
        <time>2012-05-13T07:28:38Z</time>
      </trkpt>
      <trkpt lat="47.34515" lon="-1.63355">
        <ele>104.72541</ele>
        <time>2012-05-13T07:28:42Z</time>
      </trkpt>
      <trkpt lat="47.34535" lon="-1.63357">
        <ele>105.34671</ele>
        <time>2012-05-13T07:28:46Z</time>
      </trkpt>
      <trkpt lat="47.34548" lon="-1.63334">
        <ele>100.78158</ele>
        <time>2012-05-13T07:28:50Z</time>
      </trkpt>
      <trkpt lat="47.34563" lon="-1.6331">
        <ele>99.31761</ele>
        <time>2012-05-13T07:28:54Z</time>
      </trkpt>
      <trkpt lat="47.34581" lon="-1.63286">
        <ele>100.61221</ele>
        <time>2012-05-13T07:28:58Z</time>
      </trkpt>
      <trkpt lat="47.34597" lon="-1.63263">
        <ele>103.26012</ele>
        <time>2012-05-13T07:29:02Z</time>
      </trkpt>
      <trkpt lat="47.34612" lon="-1.63239">
        <ele>105.13308</ele>
        <time>2012-05-13T07:29:06Z</time>
      </trkpt>
      <trkpt lat="47.34628" lon="-1.63218">
        <ele>106.659294</ele>
        <time>2012-05-13T07:29:10Z</time>
      </trkpt>
      <trkpt lat="47.34644" lon="-1.63198">
        <ele>107.57579</ele>
        <time>2012-05-13T07:29:14Z</time>
      </trkpt>
      <trkpt lat="47.34659" lon="-1.63179">
        <ele>107.615776</ele>
        <time>2012-05-13T07:29:18Z</time>
      </trkpt>
      <trkpt lat="47.3467" lon="-1.63158">
        <ele>106.75734</ele>
        <time>2012-05-13T07:29:22Z</time>
      </trkpt>
      <trkpt lat="47.34684" lon="-1.63136">
        <ele>106.17972</ele>
        <time>2012-05-13T07:29:27Z</time>
      </trkpt>
      <trkpt lat="47.34698" lon="-1.63117">
        <ele>104.921555</ele>
        <time>2012-05-13T07:29:32Z</time>
      </trkpt>
      <trkpt lat="47.34712" lon="-1.63093">
        <ele>104.65619</ele>
        <time>2012-05-13T07:29:37Z</time>
      </trkpt>
      <trkpt lat="47.34725" lon="-1.63072">
        <ele>104.91841</ele>
        <time>2012-05-13T07:29:42Z</time>
      </trkpt>
      <trkpt lat="47.34738" lon="-1.63053">
        <ele>104.98064</ele>
        <time>2012-05-13T07:29:47Z</time>
      </trkpt>
      <trkpt lat="47.34751" lon="-1.63031">
        <ele>104.99541</ele>
        <time>2012-05-13T07:29:52Z</time>
      </trkpt>
      <trkpt lat="47.34767" lon="-1.6301">
        <ele>104.56168</ele>
        <time>2012-05-13T07:29:58Z</time>
      </trkpt>
      <trkpt lat="47.34779" lon="-1.62988">
        <ele>104.13329</ele>
        <time>2012-05-13T07:30:03Z</time>
      </trkpt>
      <trkpt lat="47.34794" lon="-1.62967">
        <ele>104.03163</ele>
        <time>2012-05-13T07:30:08Z</time>
      </trkpt>
      <trkpt lat="47.34808" lon="-1.62947">
        <ele>104.01001</ele>
        <time>2012-05-13T07:30:12Z</time>
      </trkpt>
      <trkpt lat="47.34821" lon="-1.62928">
        <ele>103.75317</ele>
        <time>2012-05-13T07:30:16Z</time>
      </trkpt>
      <trkpt lat="47.34835" lon="-1.62905">
        <ele>103.238304</ele>
        <time>2012-05-13T07:30:20Z</time>
      </trkpt>
      <trkpt lat="47.34849" lon="-1.62879">
        <ele>103.0754</ele>
        <time>2012-05-13T07:30:24Z</time>
      </trkpt>
      <trkpt lat="47.34862" lon="-1.62859">
        <ele>102.59431</ele>
        <time>2012-05-13T07:30:27Z</time>
      </trkpt>
      <trkpt lat="47.34879" lon="-1.62836">
        <ele>101.06695</ele>
        <time>2012-05-13T07:30:31Z</time>
      </trkpt>
      <trkpt lat="47.34895" lon="-1.62814">
        <ele>98.9665</ele>
        <time>2012-05-13T07:30:35Z</time>
      </trkpt>
      <trkpt lat="47.3491" lon="-1.62795">
        <ele>96.25112</ele>
        <time>2012-05-13T07:30:39Z</time>
      </trkpt>
      <trkpt lat="47.34925" lon="-1.62776">
        <ele>93.88414</ele>
        <time>2012-05-13T07:30:43Z</time>
      </trkpt>
      <trkpt lat="47.3494" lon="-1.62756">
        <ele>91.22506</ele>
        <time>2012-05-13T07:30:47Z</time>
      </trkpt>
      <trkpt lat="47.34953" lon="-1.62735">
        <ele>89.1259</ele>
        <time>2012-05-13T07:30:51Z</time>
      </trkpt>
      <trkpt lat="47.3497" lon="-1.6272">
        <ele>88.35624</ele>
        <time>2012-05-13T07:30:55Z</time>
      </trkpt>
      <trkpt lat="47.34988" lon="-1.62718">
        <ele>88.72842</ele>
        <time>2012-05-13T07:30:58Z</time>
      </trkpt>
      <trkpt lat="47.35012" lon="-1.62726">
        <ele>89.35157</ele>
        <time>2012-05-13T07:31:02Z</time>
      </trkpt>
      <trkpt lat="47.35029" lon="-1.62735">
        <ele>89.72644</ele>
        <time>2012-05-13T07:31:05Z</time>
      </trkpt>
      <trkpt lat="47.35051" lon="-1.62746">
        <ele>89.913445</ele>
        <time>2012-05-13T07:31:09Z</time>
      </trkpt>
      <trkpt lat="47.35072" lon="-1.62759">
        <ele>89.72261</ele>
        <time>2012-05-13T07:31:13Z</time>
      </trkpt>
      <trkpt lat="47.3509" lon="-1.62754">
        <ele>89.22864</ele>
        <time>2012-05-13T07:31:17Z</time>
      </trkpt>
      <trkpt lat="47.35097" lon="-1.62726">
        <ele>89.05426</ele>
        <time>2012-05-13T07:31:22Z</time>
      </trkpt>
      <trkpt lat="47.35103" lon="-1.62701">
        <ele>88.579666</ele>
        <time>2012-05-13T07:31:26Z</time>
      </trkpt>
      <trkpt lat="47.35112" lon="-1.62671">
        <ele>87.37486</ele>
        <time>2012-05-13T07:31:31Z</time>
      </trkpt>
      <trkpt lat="47.35131" lon="-1.62664">
        <ele>86.2447</ele>
        <time>2012-05-13T07:31:37Z</time>
      </trkpt>
      <trkpt lat="47.35149" lon="-1.62675">
        <ele>85.21064</ele>
        <time>2012-05-13T07:31:44Z</time>
      </trkpt>
      <trkpt lat="47.35175" lon="-1.62681">
        <ele>84.18173</ele>
        <time>2012-05-13T07:31:58Z</time>
      </trkpt>
      <trkpt lat="47.35193" lon="-1.62692">
        <ele>83.82284</ele>
        <time>2012-05-13T07:32:10Z</time>
      </trkpt>
      <trkpt lat="47.35213" lon="-1.62696">
        <ele>84.40597</ele>
        <time>2012-05-13T07:32:16Z</time>
      </trkpt>
      <trkpt lat="47.35229" lon="-1.62683">
        <ele>84.94053</ele>
        <time>2012-05-13T07:32:24Z</time>
      </trkpt>
      <trkpt lat="47.35225" lon="-1.62656">
        <ele>84.02371</ele>
        <time>2012-05-13T07:32:49Z</time>
      </trkpt>
      <trkpt lat="47.35204" lon="-1.62643">
        <ele>84.82277</ele>
        <time>2012-05-13T07:33:01Z</time>
      </trkpt>
      <trkpt lat="47.352" lon="-1.62617">
        <ele>85.99923</ele>
        <time>2012-05-13T07:33:33Z</time>
      </trkpt>
      <trkpt lat="47.35211" lon="-1.62593">
        <ele>85.99998</ele>
        <time>2012-05-13T07:33:45Z</time>
      </trkpt>
      <trkpt lat="47.35227" lon="-1.62576">
        <ele>86</ele>
        <time>2012-05-13T07:33:59Z</time>
      </trkpt>
      <trkpt lat="47.35204" lon="-1.62561">
        <ele>85.00564</ele>
        <time>2012-05-13T07:34:20Z</time>
      </trkpt>
      <trkpt lat="47.35185" lon="-1.62561">
        <ele>86.52184</ele>
        <time>2012-05-13T07:34:38Z</time>
      </trkpt>
      <trkpt lat="47.35165" lon="-1.62563">
        <ele>88.16356</ele>
        <time>2012-05-13T07:34:51Z</time>
      </trkpt>
      <trkpt lat="47.3517" lon="-1.62538">
        <ele>91.089226</ele>
        <time>2012-05-13T07:35:10Z</time>
      </trkpt>
      <trkpt lat="47.35155" lon="-1.6252">
        <ele>92.84488</ele>
        <time>2012-05-13T07:35:23Z</time>
      </trkpt>
      <trkpt lat="47.35143" lon="-1.62499">
        <ele>95.21073</ele>
        <time>2012-05-13T07:35:34Z</time>
      </trkpt>
      <trkpt lat="47.35152" lon="-1.62475">
        <ele>97.40019</ele>
        <time>2012-05-13T07:35:44Z</time>
      </trkpt>
      <trkpt lat="47.3516" lon="-1.62445">
        <ele>98.60353</ele>
        <time>2012-05-13T07:35:51Z</time>
      </trkpt>
      <trkpt lat="47.35166" lon="-1.62417">
        <ele>99.7691</ele>
        <time>2012-05-13T07:35:58Z</time>
      </trkpt>
      <trkpt lat="47.35175" lon="-1.62392">
        <ele>100.73187</ele>
        <time>2012-05-13T07:36:05Z</time>
      </trkpt>
      <trkpt lat="47.35183" lon="-1.62366">
        <ele>100.95228</ele>
        <time>2012-05-13T07:36:11Z</time>
      </trkpt>
      <trkpt lat="47.35186" lon="-1.62334">
        <ele>101.42618</ele>
        <time>2012-05-13T07:36:16Z</time>
      </trkpt>
      <trkpt lat="47.35187" lon="-1.62299">
        <ele>102.39656</ele>
        <time>2012-05-13T07:36:20Z</time>
      </trkpt>
      <trkpt lat="47.35181" lon="-1.62265">
        <ele>103.18292</ele>
        <time>2012-05-13T07:36:23Z</time>
      </trkpt>
      <trkpt lat="47.35175" lon="-1.62233">
        <ele>103.74147</ele>
        <time>2012-05-13T07:36:27Z</time>
      </trkpt>
      <trkpt lat="47.3517" lon="-1.62205">
        <ele>104.3557</ele>
        <time>2012-05-13T07:36:31Z</time>
      </trkpt>
      <trkpt lat="47.35163" lon="-1.62177">
        <ele>104.79614</ele>
        <time>2012-05-13T07:36:35Z</time>
      </trkpt>
      <trkpt lat="47.35159" lon="-1.62151">
        <ele>105.61909</ele>
        <time>2012-05-13T07:36:39Z</time>
      </trkpt>
      <trkpt lat="47.35157" lon="-1.62119">
        <ele>105.47211</ele>
        <time>2012-05-13T07:36:44Z</time>
      </trkpt>
      <trkpt lat="47.35158" lon="-1.62089">
        <ele>104.283905</ele>
        <time>2012-05-13T07:36:49Z</time>
      </trkpt>
      <trkpt lat="47.3516" lon="-1.62057">
        <ele>101.030266</ele>
        <time>2012-05-13T07:36:54Z</time>
      </trkpt>
      <trkpt lat="47.35161" lon="-1.62025">
        <ele>97.457375</ele>
        <time>2012-05-13T07:36:59Z</time>
      </trkpt>
      <trkpt lat="47.35143" lon="-1.62031">
        <ele>94.99602</ele>
        <time>2012-05-13T07:37:07Z</time>
      </trkpt>
      <trkpt lat="47.35126" lon="-1.6205">
        <ele>93.92727</ele>
        <time>2012-05-13T07:37:13Z</time>
      </trkpt>
      <trkpt lat="47.35111" lon="-1.62068">
        <ele>93.47005</ele>
        <time>2012-05-13T07:37:18Z</time>
      </trkpt>
      <trkpt lat="47.35095" lon="-1.62085">
        <ele>94.99533</ele>
        <time>2012-05-13T07:37:23Z</time>
      </trkpt>
      <trkpt lat="47.3508" lon="-1.62104">
        <ele>96.88268</ele>
        <time>2012-05-13T07:37:28Z</time>
      </trkpt>
      <trkpt lat="47.35065" lon="-1.62121">
        <ele>97.734856</ele>
        <time>2012-05-13T07:37:33Z</time>
      </trkpt>
      <trkpt lat="47.35049" lon="-1.62136">
        <ele>98.515205</ele>
        <time>2012-05-13T07:37:38Z</time>
      </trkpt>
      <trkpt lat="47.35031" lon="-1.6213">
        <ele>98.88496</ele>
        <time>2012-05-13T07:37:43Z</time>
      </trkpt>
      <trkpt lat="47.35014" lon="-1.62121">
        <ele>99.2227</ele>
        <time>2012-05-13T07:37:48Z</time>
      </trkpt>
      <trkpt lat="47.34995" lon="-1.62115">
        <ele>100.253044</ele>
        <time>2012-05-13T07:37:53Z</time>
      </trkpt>
      <trkpt lat="47.34974" lon="-1.62111">
        <ele>101.75634</ele>
        <time>2012-05-13T07:37:58Z</time>
      </trkpt>
      <trkpt lat="47.34955" lon="-1.62104">
        <ele>102.95487</ele>
        <time>2012-05-13T07:38:03Z</time>
      </trkpt>
      <trkpt lat="47.34937" lon="-1.62093">
        <ele>104.00198</ele>
        <time>2012-05-13T07:38:08Z</time>
      </trkpt>
      <trkpt lat="47.34921" lon="-1.62081">
        <ele>104.68422</ele>
        <time>2012-05-13T07:38:12Z</time>
      </trkpt>
      <trkpt lat="47.34904" lon="-1.62066">
        <ele>104.650085</ele>
        <time>2012-05-13T07:38:16Z</time>
      </trkpt>
      <trkpt lat="47.34883" lon="-1.62048">
        <ele>103.76819</ele>
        <time>2012-05-13T07:38:20Z</time>
      </trkpt>
      <trkpt lat="47.34869" lon="-1.62031">
        <ele>102.80556</ele>
        <time>2012-05-13T07:38:24Z</time>
      </trkpt>
      <trkpt lat="47.34868" lon="-1.62001">
        <ele>102.14337</ele>
        <time>2012-05-13T07:38:30Z</time>
      </trkpt>
      <trkpt lat="47.34869" lon="-1.61971">
        <ele>101.19711</ele>
        <time>2012-05-13T07:38:37Z</time>
      </trkpt>
      <trkpt lat="47.34869" lon="-1.61941">
        <ele>100.456955</ele>
        <time>2012-05-13T07:38:43Z</time>
      </trkpt>
      <trkpt lat="47.34869" lon="-1.61909">
        <ele>99.64383</ele>
        <time>2012-05-13T07:38:49Z</time>
      </trkpt>
      <trkpt lat="47.34869" lon="-1.61879">
        <ele>98.43099</ele>
        <time>2012-05-13T07:38:55Z</time>
      </trkpt>
      <trkpt lat="47.34869" lon="-1.61849">
        <ele>96.50742</ele>
        <time>2012-05-13T07:39:02Z</time>
      </trkpt>
      <trkpt lat="47.34867" lon="-1.61817">
        <ele>95.406715</ele>
        <time>2012-05-13T07:39:08Z</time>
      </trkpt>
      <trkpt lat="47.34866" lon="-1.61784">
        <ele>95.07239</ele>
        <time>2012-05-13T07:39:14Z</time>
      </trkpt>
      <trkpt lat="47.34865" lon="-1.61757">
        <ele>95.012886</ele>
        <time>2012-05-13T07:39:20Z</time>
      </trkpt>
      <trkpt lat="47.34864" lon="-1.61726">
        <ele>95.0023</ele>
        <time>2012-05-13T07:39:26Z</time>
      </trkpt>
      <trkpt lat="47.34863" lon="-1.61699">
        <ele>94.750404</ele>
        <time>2012-05-13T07:39:32Z</time>
      </trkpt>
      <trkpt lat="47.34862" lon="-1.61666">
        <ele>94.17808</ele>
        <time>2012-05-13T07:39:37Z</time>
      </trkpt>
      <trkpt lat="47.3486" lon="-1.61636">
        <ele>93.464134</ele>
        <time>2012-05-13T07:39:42Z</time>
      </trkpt>
      <trkpt lat="47.3486" lon="-1.61604">
        <ele>92.6451</ele>
        <time>2012-05-13T07:39:48Z</time>
      </trkpt>
      <trkpt lat="47.34859" lon="-1.61576">
        <ele>92.20412</ele>
        <time>2012-05-13T07:39:52Z</time>
      </trkpt>
      <trkpt lat="47.34857" lon="-1.61548">
        <ele>92.06458</ele>
        <time>2012-05-13T07:39:56Z</time>
      </trkpt>
      <trkpt lat="47.34855" lon="-1.61518">
        <ele>92.01533</ele>
        <time>2012-05-13T07:40:01Z</time>
      </trkpt>
      <trkpt lat="47.34852" lon="-1.61488">
        <ele>92.766335</ele>
        <time>2012-05-13T07:40:06Z</time>
      </trkpt>
      <trkpt lat="47.34848" lon="-1.61458">
        <ele>92.94455</ele>
        <time>2012-05-13T07:40:11Z</time>
      </trkpt>
      <trkpt lat="47.34841" lon="-1.61428">
        <ele>92.98684</ele>
        <time>2012-05-13T07:40:16Z</time>
      </trkpt>
      <trkpt lat="47.34845" lon="-1.614">
        <ele>93.76035</ele>
        <time>2012-05-13T07:40:22Z</time>
      </trkpt>
      <trkpt lat="47.34849" lon="-1.61375">
        <ele>95.1898</ele>
        <time>2012-05-13T07:40:26Z</time>
      </trkpt>
      <trkpt lat="47.34853" lon="-1.61349">
        <ele>98.12646</ele>
        <time>2012-05-13T07:40:30Z</time>
      </trkpt>
      <trkpt lat="47.34859" lon="-1.61323">
        <ele>100.5283</ele>
        <time>2012-05-13T07:40:34Z</time>
      </trkpt>
      <trkpt lat="47.34867" lon="-1.61293">
        <ele>101.90076</ele>
        <time>2012-05-13T07:40:39Z</time>
      </trkpt>
      <trkpt lat="47.34878" lon="-1.61267">
        <ele>102.73914</ele>
        <time>2012-05-13T07:40:44Z</time>
      </trkpt>
      <trkpt lat="47.34886" lon="-1.61244">
        <ele>102.917465</ele>
        <time>2012-05-13T07:40:48Z</time>
      </trkpt>
      <trkpt lat="47.34896" lon="-1.61216">
        <ele>102.29682</ele>
        <time>2012-05-13T07:40:53Z</time>
      </trkpt>
      <trkpt lat="47.34906" lon="-1.61188">
        <ele>101.30774</ele>
        <time>2012-05-13T07:40:58Z</time>
      </trkpt>
      <trkpt lat="47.34915" lon="-1.61164">
        <ele>100.31033</ele>
        <time>2012-05-13T07:41:03Z</time>
      </trkpt>
      <trkpt lat="47.34925" lon="-1.61141">
        <ele>99.39005</ele>
        <time>2012-05-13T07:41:08Z</time>
      </trkpt>
      <trkpt lat="47.34936" lon="-1.61119">
        <ele>99.09256</ele>
        <time>2012-05-13T07:41:13Z</time>
      </trkpt>
      <trkpt lat="47.34944" lon="-1.61091">
        <ele>98.19445</ele>
        <time>2012-05-13T07:41:19Z</time>
      </trkpt>
      <trkpt lat="47.34931" lon="-1.6107">
        <ele>96.92114</ele>
        <time>2012-05-13T07:41:24Z</time>
      </trkpt>
      <trkpt lat="47.34916" lon="-1.61048">
        <ele>93.572105</ele>
        <time>2012-05-13T07:41:29Z</time>
      </trkpt>
      <trkpt lat="47.34899" lon="-1.61029">
        <ele>92.126976</ele>
        <time>2012-05-13T07:41:34Z</time>
      </trkpt>
      <trkpt lat="47.34884" lon="-1.61014">
        <ele>92.29018</ele>
        <time>2012-05-13T07:41:38Z</time>
      </trkpt>
      <trkpt lat="47.34868" lon="-1.60995">
        <ele>93.26906</ele>
        <time>2012-05-13T07:41:43Z</time>
      </trkpt>
      <trkpt lat="47.34851" lon="-1.60978">
        <ele>94.51014</ele>
        <time>2012-05-13T07:41:48Z</time>
      </trkpt>
      <trkpt lat="47.34834" lon="-1.6096">
        <ele>94.4075</ele>
        <time>2012-05-13T07:41:52Z</time>
      </trkpt>
      <trkpt lat="47.34819" lon="-1.60945">
        <ele>93.73441</ele>
        <time>2012-05-13T07:41:55Z</time>
      </trkpt>
      <trkpt lat="47.34801" lon="-1.6093">
        <ele>93.30983</ele>
        <time>2012-05-13T07:41:58Z</time>
      </trkpt>
      <trkpt lat="47.34781" lon="-1.6092">
        <ele>92.69321</ele>
        <time>2012-05-13T07:42:01Z</time>
      </trkpt>
      <trkpt lat="47.34761" lon="-1.60909">
        <ele>92.04245</ele>
        <time>2012-05-13T07:42:04Z</time>
      </trkpt>
      <trkpt lat="47.3474" lon="-1.60898">
        <ele>91.43978</ele>
        <time>2012-05-13T07:42:07Z</time>
      </trkpt>
      <trkpt lat="47.34718" lon="-1.60885">
        <ele>91.18553</ele>
        <time>2012-05-13T07:42:10Z</time>
      </trkpt>
      <trkpt lat="47.34697" lon="-1.60875">
        <ele>91.07827</ele>
        <time>2012-05-13T07:42:13Z</time>
      </trkpt>
      <trkpt lat="47.34675" lon="-1.60866">
        <ele>90.454895</ele>
        <time>2012-05-13T07:42:16Z</time>
      </trkpt>
      <trkpt lat="47.34653" lon="-1.60857">
        <ele>90.19191</ele>
        <time>2012-05-13T07:42:19Z</time>
      </trkpt>
      <trkpt lat="47.34629" lon="-1.60849">
        <ele>90.08096</ele>
        <time>2012-05-13T07:42:22Z</time>
      </trkpt>
      <trkpt lat="47.3461" lon="-1.6084">
        <ele>89.70603</ele>
        <time>2012-05-13T07:42:25Z</time>
      </trkpt>
      <trkpt lat="47.34616" lon="-1.60812">
        <ele>88.51057</ele>
        <time>2012-05-13T07:42:32Z</time>
      </trkpt>
      <trkpt lat="47.34632" lon="-1.60797">
        <ele>86.23737</ele>
        <time>2012-05-13T07:42:37Z</time>
      </trkpt>
      <trkpt lat="47.3465" lon="-1.60784">
        <ele>85.54363</ele>
        <time>2012-05-13T07:42:42Z</time>
      </trkpt>
      <trkpt lat="47.34669" lon="-1.60772">
        <ele>85.8917</ele>
        <time>2012-05-13T07:42:47Z</time>
      </trkpt>
      <trkpt lat="47.34686" lon="-1.60757">
        <ele>85.29071</ele>
        <time>2012-05-13T07:42:52Z</time>
      </trkpt>
      <trkpt lat="47.34703" lon="-1.60739">
        <ele>84.30629</ele>
        <time>2012-05-13T07:42:57Z</time>
      </trkpt>
      <trkpt lat="47.3472" lon="-1.60722">
        <ele>84.05451</ele>
        <time>2012-05-13T07:43:03Z</time>
      </trkpt>
      <trkpt lat="47.34736" lon="-1.60705">
        <ele>83.18768</ele>
        <time>2012-05-13T07:43:09Z</time>
      </trkpt>
      <trkpt lat="47.34753" lon="-1.60694">
        <ele>83.025055</ele>
        <time>2012-05-13T07:43:16Z</time>
      </trkpt>
      <trkpt lat="47.34772" lon="-1.60688">
        <ele>83.00334</ele>
        <time>2012-05-13T07:43:23Z</time>
      </trkpt>
      <trkpt lat="47.34779" lon="-1.60662">
        <ele>82.133736</ele>
        <time>2012-05-13T07:43:32Z</time>
      </trkpt>
      <trkpt lat="47.34771" lon="-1.60636">
        <ele>82.0238</ele>
        <time>2012-05-13T07:43:38Z</time>
      </trkpt>
      <trkpt lat="47.34779" lon="-1.60611">
        <ele>82.005646</ele>
        <time>2012-05-13T07:43:43Z</time>
      </trkpt>
      <trkpt lat="47.34794" lon="-1.60589">
        <ele>82.000755</ele>
        <time>2012-05-13T07:43:50Z</time>
      </trkpt>
      <trkpt lat="47.34808" lon="-1.6057">
        <ele>82.00008</ele>
        <time>2012-05-13T07:43:58Z</time>
      </trkpt>
      <trkpt lat="47.34817" lon="-1.60546">
        <ele>83.20777</ele>
        <time>2012-05-13T07:44:09Z</time>
      </trkpt>
      <trkpt lat="47.34837" lon="-1.6054">
        <ele>85.25</ele>
        <time>2012-05-13T07:45:13Z</time>
      </trkpt>
      <trkpt lat="47.34848" lon="-1.60516">
        <ele>85.237305</ele>
        <time>2012-05-13T07:46:01Z</time>
      </trkpt>
      <trkpt lat="47.34846" lon="-1.60488">
        <ele>85.001785</ele>
        <time>2012-05-13T07:46:18Z</time>
      </trkpt>
      <trkpt lat="47.34843" lon="-1.60458">
        <ele>84.04225</ele>
        <time>2012-05-13T07:46:34Z</time>
      </trkpt>
      <trkpt lat="47.34838" lon="-1.6043">
        <ele>84.00238</ele>
        <time>2012-05-13T07:46:44Z</time>
      </trkpt>
      <trkpt lat="47.34833" lon="-1.60405">
        <ele>84.68402</ele>
        <time>2012-05-13T07:46:50Z</time>
      </trkpt>
      <trkpt lat="47.3482" lon="-1.60385">
        <ele>85.395325</ele>
        <time>2012-05-13T07:46:57Z</time>
      </trkpt>
      <trkpt lat="47.34803" lon="-1.60377">
        <ele>85.91929</ele>
        <time>2012-05-13T07:47:04Z</time>
      </trkpt>
      <trkpt lat="47.34784" lon="-1.6037">
        <ele>85.03168</ele>
        <time>2012-05-13T07:47:40Z</time>
      </trkpt>
      <trkpt lat="47.34771" lon="-1.60351">
        <ele>84.00057</ele>
        <time>2012-05-13T07:48:09Z</time>
      </trkpt>
      <trkpt lat="47.34756" lon="-1.60366">
        <ele>81.44565</ele>
        <time>2012-05-13T07:48:52Z</time>
      </trkpt>
      <trkpt lat="47.34756" lon="-1.60336">
        <ele>80.07955</ele>
        <time>2012-05-13T07:49:08Z</time>
      </trkpt>
      <trkpt lat="47.34742" lon="-1.60317">
        <ele>78.85459</ele>
        <time>2012-05-13T07:49:18Z</time>
      </trkpt>
      <trkpt lat="47.34723" lon="-1.60312">
        <ele>77.144905</ele>
        <time>2012-05-13T07:49:33Z</time>
      </trkpt>
      <trkpt lat="47.34706" lon="-1.60304">
        <ele>75.59479</ele>
        <time>2012-05-13T07:49:52Z</time>
      </trkpt>
      <trkpt lat="47.3469" lon="-1.60319">
        <ele>74.56697</ele>
        <time>2012-05-13T07:50:09Z</time>
      </trkpt>
      <trkpt lat="47.34677" lon="-1.60338">
        <ele>73.11807</ele>
        <time>2012-05-13T07:50:21Z</time>
      </trkpt>
      <trkpt lat="47.34663" lon="-1.60355">
        <ele>72.01992</ele>
        <time>2012-05-13T07:50:35Z</time>
      </trkpt>
      <trkpt lat="47.34644" lon="-1.60353">
        <ele>72.9584</ele>
        <time>2012-05-13T07:50:47Z</time>
      </trkpt>
      <trkpt lat="47.34635" lon="-1.60379">
        <ele>72.235985</ele>
        <time>2012-05-13T07:50:59Z</time>
      </trkpt>
      <trkpt lat="47.34632" lon="-1.60409">
        <ele>72.017715</ele>
        <time>2012-05-13T07:51:08Z</time>
      </trkpt>
      <trkpt lat="47.34615" lon="-1.6042">
        <ele>72</ele>
        <time>2012-05-13T07:51:44Z</time>
      </trkpt>
      <trkpt lat="47.34614" lon="-1.60392">
        <ele>73.97607</ele>
        <time>2012-05-13T07:52:16Z</time>
      </trkpt>
      <trkpt lat="47.34622" lon="-1.60368">
        <ele>74.92449</ele>
        <time>2012-05-13T07:52:30Z</time>
      </trkpt>
      <trkpt lat="47.34628" lon="-1.60342">
        <ele>75.92312</ele>
        <time>2012-05-13T07:52:43Z</time>
      </trkpt>
      <trkpt lat="47.34633" lon="-1.60317">
        <ele>77.6728</ele>
        <time>2012-05-13T07:52:59Z</time>
      </trkpt>
      <trkpt lat="47.34629" lon="-1.60289">
        <ele>77.99896</ele>
        <time>2012-05-13T07:53:19Z</time>
      </trkpt>
      <trkpt lat="47.34611" lon="-1.60293">
        <ele>79.92487</ele>
        <time>2012-05-13T07:54:05Z</time>
      </trkpt>
      <trkpt lat="47.34604" lon="-1.60267">
        <ele>80.97446</ele>
        <time>2012-05-13T07:54:18Z</time>
      </trkpt>
      <trkpt lat="47.34603" lon="-1.60239">
        <ele>81.865074</ele>
        <time>2012-05-13T07:54:28Z</time>
      </trkpt>
      <trkpt lat="47.34597" lon="-1.60214">
        <ele>82.80852</ele>
        <time>2012-05-13T07:54:36Z</time>
      </trkpt>
      <trkpt lat="47.34601" lon="-1.60188">
        <ele>85.30908</ele>
        <time>2012-05-13T07:54:49Z</time>
      </trkpt>
      <trkpt lat="47.34587" lon="-1.60171">
        <ele>87.398895</ele>
        <time>2012-05-13T07:55:05Z</time>
      </trkpt>
      <trkpt lat="47.34586" lon="-1.60143">
        <ele>88.79663</ele>
        <time>2012-05-13T07:55:16Z</time>
      </trkpt>
      <trkpt lat="47.34592" lon="-1.60117">
        <ele>90.53106</ele>
        <time>2012-05-13T07:55:29Z</time>
      </trkpt>
      <trkpt lat="47.34611" lon="-1.60126">
        <ele>91.88875</ele>
        <time>2012-05-13T07:55:42Z</time>
      </trkpt>
      <trkpt lat="47.3463" lon="-1.60121">
        <ele>91.31377</ele>
        <time>2012-05-13T07:55:55Z</time>
      </trkpt>
      <trkpt lat="47.34647" lon="-1.6013">
        <ele>89.28513</ele>
        <time>2012-05-13T07:56:09Z</time>
      </trkpt>
      <trkpt lat="47.34666" lon="-1.60121">
        <ele>87.92155</ele>
        <time>2012-05-13T07:56:16Z</time>
      </trkpt>
      <trkpt lat="47.34681" lon="-1.60106">
        <ele>86.08432</ele>
        <time>2012-05-13T07:56:32Z</time>
      </trkpt>
      <trkpt lat="47.34672" lon="-1.6013">
        <ele>84.141205</ele>
        <time>2012-05-13T07:56:53Z</time>
      </trkpt>
      <trkpt lat="47.34656" lon="-1.60143">
        <ele>84.25045</ele>
        <time>2012-05-13T07:57:13Z</time>
      </trkpt>
      <trkpt lat="47.34642" lon="-1.60162">
        <ele>85.921745</ele>
        <time>2012-05-13T07:57:32Z</time>
      </trkpt>
      <trkpt lat="47.34644" lon="-1.6019">
        <ele>85.994125</ele>
        <time>2012-05-13T07:57:41Z</time>
      </trkpt>
      <trkpt lat="47.3464" lon="-1.60216">
        <ele>85.99999</ele>
        <time>2012-05-13T07:58:06Z</time>
      </trkpt>
      <trkpt lat="47.34627" lon="-1.60237">
        <ele>88.5143</ele>
        <time>2012-05-13T07:59:04Z</time>
      </trkpt>
      <trkpt lat="47.34613" lon="-1.60254">
        <ele>89.999214</ele>
        <time>2012-05-13T07:59:37Z</time>
      </trkpt>
      <trkpt lat="47.34621" lon="-1.60278">
        <ele>88.31774</ele>
        <time>2012-05-13T08:00:09Z</time>
      </trkpt>
      <trkpt lat="47.3464" lon="-1.60278">
        <ele>85.31717</ele>
        <time>2012-05-13T08:00:58Z</time>
      </trkpt>
      <trkpt lat="47.34651" lon="-1.60257">
        <ele>82.49059</ele>
        <time>2012-05-13T08:01:15Z</time>
      </trkpt>
      <trkpt lat="47.34662" lon="-1.60233">
        <ele>81.11177</ele>
        <time>2012-05-13T08:01:28Z</time>
      </trkpt>
      <trkpt lat="47.34674" lon="-1.60212">
        <ele>79.94787</ele>
        <time>2012-05-13T08:01:34Z</time>
      </trkpt>
      <trkpt lat="47.34685" lon="-1.6019">
        <ele>78.590576</ele>
        <time>2012-05-13T08:01:40Z</time>
      </trkpt>
      <trkpt lat="47.3469" lon="-1.60164">
        <ele>77.22232</ele>
        <time>2012-05-13T08:01:49Z</time>
      </trkpt>
      <trkpt lat="47.34698" lon="-1.60139">
        <ele>75.61413</ele>
        <time>2012-05-13T08:02:00Z</time>
      </trkpt>
      <trkpt lat="47.34706" lon="-1.60115">
        <ele>75.034584</ele>
        <time>2012-05-13T08:02:10Z</time>
      </trkpt>
      <trkpt lat="47.34715" lon="-1.60091">
        <ele>74.01788</ele>
        <time>2012-05-13T08:02:32Z</time>
      </trkpt>
      <trkpt lat="47.34719" lon="-1.60066">
        <ele>74</ele>
        <time>2012-05-13T08:03:07Z</time>
      </trkpt>
      <trkpt lat="47.34723" lon="-1.6004">
        <ele>74</ele>
        <time>2012-05-13T08:03:25Z</time>
      </trkpt>
      <trkpt lat="47.3473" lon="-1.60014">
        <ele>74</ele>
        <time>2012-05-13T08:03:41Z</time>
      </trkpt>
      <trkpt lat="47.34736" lon="-1.59988">
        <ele>75.999985</ele>
        <time>2012-05-13T08:04:46Z</time>
      </trkpt>
      <trkpt lat="47.34732" lon="-1.60014">
        <ele>76.999435</ele>
        <time>2012-05-13T08:05:58Z</time>
      </trkpt>
      <trkpt lat="47.34731" lon="-1.60042">
        <ele>77</ele>
        <time>2012-05-13T08:06:23Z</time>
      </trkpt>
      <trkpt lat="47.34744" lon="-1.60023">
        <ele>76.421875</ele>
        <time>2012-05-13T08:06:57Z</time>
      </trkpt>
      <trkpt lat="47.34748" lon="-1.59997">
        <ele>76.03168</ele>
        <time>2012-05-13T08:07:06Z</time>
      </trkpt>
      <trkpt lat="47.34756" lon="-1.59969">
        <ele>75.13666</ele>
        <time>2012-05-13T08:07:14Z</time>
      </trkpt>
      <trkpt lat="47.34768" lon="-1.59948">
        <ele>75.01368</ele>
        <time>2012-05-13T08:07:22Z</time>
      </trkpt>
      <trkpt lat="47.34782" lon="-1.5993">
        <ele>74.422905</ele>
        <time>2012-05-13T08:07:31Z</time>
      </trkpt>
      <trkpt lat="47.34798" lon="-1.59915">
        <ele>74.042336</ele>
        <time>2012-05-13T08:07:39Z</time>
      </trkpt>
      <trkpt lat="47.3481" lon="-1.59892">
        <ele>74.00424</ele>
        <time>2012-05-13T08:07:47Z</time>
      </trkpt>
      <trkpt lat="47.34824" lon="-1.59875">
        <ele>74.000175</ele>
        <time>2012-05-13T08:07:58Z</time>
      </trkpt>
      <trkpt lat="47.34838" lon="-1.59855">
        <ele>74.000015</ele>
        <time>2012-05-13T08:08:06Z</time>
      </trkpt>
      <trkpt lat="47.34849" lon="-1.59834">
        <ele>73.17798</ele>
        <time>2012-05-13T08:08:15Z</time>
      </trkpt>
      <trkpt lat="47.34863" lon="-1.59815">
        <ele>73.01337</ele>
        <time>2012-05-13T08:08:24Z</time>
      </trkpt>
      <trkpt lat="47.34874" lon="-1.59793">
        <ele>72.750565</ele>
        <time>2012-05-13T08:08:35Z</time>
      </trkpt>
      <trkpt lat="47.34889" lon="-1.59778">
        <ele>72</ele>
        <time>2012-05-13T08:09:19Z</time>
      </trkpt>
      <trkpt lat="47.34907" lon="-1.5978">
        <ele>72.99436</ele>
        <time>2012-05-13T08:09:39Z</time>
      </trkpt>
      <trkpt lat="47.34915" lon="-1.59755">
        <ele>72.99986</ele>
        <time>2012-05-13T08:09:52Z</time>
      </trkpt>
      <trkpt lat="47.34901" lon="-1.59731">
        <ele>73.24997</ele>
        <time>2012-05-13T08:09:57Z</time>
      </trkpt>
      <trkpt lat="47.34885" lon="-1.59718">
        <ele>73.03336</ele>
        <time>2012-05-13T08:10:04Z</time>
      </trkpt>
      <trkpt lat="47.34895" lon="-1.59694">
        <ele>73.0025</ele>
        <time>2012-05-13T08:10:13Z</time>
      </trkpt>
      <trkpt lat="47.34911" lon="-1.59682">
        <ele>73.000046</ele>
        <time>2012-05-13T08:10:27Z</time>
      </trkpt>
      <trkpt lat="47.34927" lon="-1.59667">
        <ele>72.10011</ele>
        <time>2012-05-13T08:10:55Z</time>
      </trkpt>
      <trkpt lat="47.34938" lon="-1.59645">
        <ele>70.60712</ele>
        <time>2012-05-13T08:11:08Z</time>
      </trkpt>
      <trkpt lat="47.34952" lon="-1.59626">
        <ele>70.03419</ele>
        <time>2012-05-13T08:11:18Z</time>
      </trkpt>
      <trkpt lat="47.34969" lon="-1.59606">
        <ele>70.003426</ele>
        <time>2012-05-13T08:11:26Z</time>
      </trkpt>
      <trkpt lat="47.34982" lon="-1.59583">
        <ele>70.00081</ele>
        <time>2012-05-13T08:11:31Z</time>
      </trkpt>
      <trkpt lat="47.34996" lon="-1.59564">
        <ele>70.00011</ele>
        <time>2012-05-13T08:11:38Z</time>
      </trkpt>
      <trkpt lat="47.35011" lon="-1.59542">
        <ele>70.437515</ele>
        <time>2012-05-13T08:11:45Z</time>
      </trkpt>
      <trkpt lat="47.35015" lon="-1.59514">
        <ele>71.36242</ele>
        <time>2012-05-13T08:11:52Z</time>
      </trkpt>
      <trkpt lat="47.35001" lon="-1.59497">
        <ele>71.88652</ele>
        <time>2012-05-13T08:11:58Z</time>
      </trkpt>
      <trkpt lat="47.34996" lon="-1.59471">
        <ele>72.57173</ele>
        <time>2012-05-13T08:12:08Z</time>
      </trkpt>
      <trkpt lat="47.35011" lon="-1.59486">
        <ele>72.97588</ele>
        <time>2012-05-13T08:12:18Z</time>
      </trkpt>
      <trkpt lat="47.35022" lon="-1.59508">
        <ele>72.13272</ele>
        <time>2012-05-13T08:12:30Z</time>
      </trkpt>
      <trkpt lat="47.35033" lon="-1.59486">
        <ele>69.48645</ele>
        <time>2012-05-13T08:12:48Z</time>
      </trkpt>
      <trkpt lat="47.35023" lon="-1.59465">
        <ele>67.3278</ele>
        <time>2012-05-13T08:13:00Z</time>
      </trkpt>
      <trkpt lat="47.35007" lon="-1.59452">
        <ele>65.091736</ele>
        <time>2012-05-13T08:13:16Z</time>
      </trkpt>
      <trkpt lat="47.35004" lon="-1.59424">
        <ele>64.07726</ele>
        <time>2012-05-13T08:13:29Z</time>
      </trkpt>
      <trkpt lat="47.35015" lon="-1.594">
        <ele>64.010315</ele>
        <time>2012-05-13T08:13:36Z</time>
      </trkpt>
      <trkpt lat="47.35032" lon="-1.59385">
        <ele>64.90092</ele>
        <time>2012-05-13T08:13:44Z</time>
      </trkpt>
      <trkpt lat="47.35048" lon="-1.59398">
        <ele>65.99506</ele>
        <time>2012-05-13T08:13:50Z</time>
      </trkpt>
      <trkpt lat="47.35062" lon="-1.59415">
        <ele>68.385155</ele>
        <time>2012-05-13T08:13:54Z</time>
      </trkpt>
      <trkpt lat="47.35078" lon="-1.594">
        <ele>71.60474</ele>
        <time>2012-05-13T08:14:02Z</time>
      </trkpt>
      <trkpt lat="47.3508" lon="-1.59373">
        <ele>71.906204</ele>
        <time>2012-05-13T08:14:08Z</time>
      </trkpt>
      <trkpt lat="47.3508" lon="-1.59343">
        <ele>71.98331</ele>
        <time>2012-05-13T08:14:14Z</time>
      </trkpt>
      <trkpt lat="47.3508" lon="-1.59312">
        <ele>71.55854</ele>
        <time>2012-05-13T08:14:19Z</time>
      </trkpt>
      <trkpt lat="47.35078" lon="-1.59282">
        <ele>69.87083</ele>
        <time>2012-05-13T08:14:24Z</time>
      </trkpt>
      <trkpt lat="47.35076" lon="-1.59255">
        <ele>69.20665</ele>
        <time>2012-05-13T08:14:29Z</time>
      </trkpt>
      <trkpt lat="47.35069" lon="-1.59225">
        <ele>69.02069</ele>
        <time>2012-05-13T08:14:37Z</time>
      </trkpt>
      <trkpt lat="47.35047" lon="-1.59207">
        <ele>69.000656</ele>
        <time>2012-05-13T08:14:49Z</time>
      </trkpt>
      <trkpt lat="47.35029" lon="-1.59203">
        <ele>69.76274</ele>
        <time>2012-05-13T08:14:58Z</time>
      </trkpt>
      <trkpt lat="47.3501" lon="-1.5919">
        <ele>71.214096</ele>
        <time>2012-05-13T08:15:12Z</time>
      </trkpt>
      <trkpt lat="47.34997" lon="-1.59171">
        <ele>74.11489</ele>
        <time>2012-05-13T08:15:31Z</time>
      </trkpt>
      <trkpt lat="47.35013" lon="-1.59156">
        <ele>77.22112</ele>
        <time>2012-05-13T08:15:55Z</time>
      </trkpt>
      <trkpt lat="47.35022" lon="-1.59179">
        <ele>78.97623</ele>
        <time>2012-05-13T08:16:10Z</time>
      </trkpt>
      <trkpt lat="47.3504" lon="-1.59184">
        <ele>78.99957</ele>
        <time>2012-05-13T08:16:24Z</time>
      </trkpt>
      <trkpt lat="47.35053" lon="-1.59164">
        <ele>78.10008</ele>
        <time>2012-05-13T08:16:33Z</time>
      </trkpt>
      <trkpt lat="47.35062" lon="-1.59141">
        <ele>78.25</ele>
        <time>2012-05-13T08:17:23Z</time>
      </trkpt>
      <trkpt lat="47.35049" lon="-1.59119">
        <ele>79.00271</ele>
        <time>2012-05-13T08:17:54Z</time>
      </trkpt>
      <trkpt lat="47.35039" lon="-1.59098">
        <ele>79.07501</ele>
        <time>2012-05-13T08:18:30Z</time>
      </trkpt>
      <trkpt lat="47.35049" lon="-1.59076">
        <ele>78.90316</ele>
        <time>2012-05-13T08:18:53Z</time>
      </trkpt>
      <trkpt lat="47.35067" lon="-1.59087">
        <ele>78.994545</ele>
        <time>2012-05-13T08:19:03Z</time>
      </trkpt>
      <trkpt lat="47.35082" lon="-1.59072">
        <ele>77.82504</ele>
        <time>2012-05-13T08:19:20Z</time>
      </trkpt>
      <trkpt lat="47.35077" lon="-1.59046">
        <ele>76.67263</ele>
        <time>2012-05-13T08:19:27Z</time>
      </trkpt>
      <trkpt lat="47.35074" lon="-1.59016">
        <ele>76.05051</ele>
        <time>2012-05-13T08:19:36Z</time>
      </trkpt>
      <trkpt lat="47.35072" lon="-1.58986">
        <ele>75.8666</ele>
        <time>2012-05-13T08:19:45Z</time>
      </trkpt>
      <trkpt lat="47.35069" lon="-1.58958">
        <ele>75.98665</ele>
        <time>2012-05-13T08:19:53Z</time>
      </trkpt>
      <trkpt lat="47.35062" lon="-1.58931">
        <ele>76.435715</ele>
        <time>2012-05-13T08:20:00Z</time>
      </trkpt>
      <trkpt lat="47.35057" lon="-1.58905">
        <ele>76.957634</ele>
        <time>2012-05-13T08:20:09Z</time>
      </trkpt>
      <trkpt lat="47.35052" lon="-1.58879">
        <ele>77.81884</ele>
        <time>2012-05-13T08:20:18Z</time>
      </trkpt>
      <trkpt lat="47.35044" lon="-1.58851">
        <ele>77.9898</ele>
        <time>2012-05-13T08:20:28Z</time>
      </trkpt>
      <trkpt lat="47.35039" lon="-1.58825">
        <ele>77.99898</ele>
        <time>2012-05-13T08:20:36Z</time>
      </trkpt>
      <trkpt lat="47.35032" lon="-1.588">
        <ele>78.683495</ele>
        <time>2012-05-13T08:20:44Z</time>
      </trkpt>
      <trkpt lat="47.35025" lon="-1.58772">
        <ele>79.64134</ele>
        <time>2012-05-13T08:20:51Z</time>
      </trkpt>
      <trkpt lat="47.35013" lon="-1.5875">
        <ele>80.41489</ele>
        <time>2012-05-13T08:20:56Z</time>
      </trkpt>
      <trkpt lat="47.34998" lon="-1.58727">
        <ele>83.44768</ele>
        <time>2012-05-13T08:21:00Z</time>
      </trkpt>
      <trkpt lat="47.34985" lon="-1.58707">
        <ele>85.36074</ele>
        <time>2012-05-13T08:21:03Z</time>
      </trkpt>
      <trkpt lat="47.34969" lon="-1.58686">
        <ele>86.48133</ele>
        <time>2012-05-13T08:21:07Z</time>
      </trkpt>
      <trkpt lat="47.34953" lon="-1.58664">
        <ele>86.83589</ele>
        <time>2012-05-13T08:21:11Z</time>
      </trkpt>
      <trkpt lat="47.34939" lon="-1.58643">
        <ele>86.948074</ele>
        <time>2012-05-13T08:21:15Z</time>
      </trkpt>
      <trkpt lat="47.34923" lon="-1.58617">
        <ele>87.233574</ele>
        <time>2012-05-13T08:21:19Z</time>
      </trkpt>
      <trkpt lat="47.34907" lon="-1.58594">
        <ele>88.585625</ele>
        <time>2012-05-13T08:21:23Z</time>
      </trkpt>
      <trkpt lat="47.34892" lon="-1.5857">
        <ele>89.55248</ele>
        <time>2012-05-13T08:21:27Z</time>
      </trkpt>
      <trkpt lat="47.34879" lon="-1.58549">
        <ele>90.542</ele>
        <time>2012-05-13T08:21:31Z</time>
      </trkpt>
      <trkpt lat="47.34867" lon="-1.58527">
        <ele>90.27696</ele>
        <time>2012-05-13T08:21:35Z</time>
      </trkpt>
      <trkpt lat="47.34853" lon="-1.58508">
        <ele>89.40013</ele>
        <time>2012-05-13T08:21:39Z</time>
      </trkpt>
      <trkpt lat="47.34838" lon="-1.58493">
        <ele>86.74379</ele>
        <time>2012-05-13T08:21:43Z</time>
      </trkpt>
      <trkpt lat="47.34822" lon="-1.58476">
        <ele>85.16381</ele>
        <time>2012-05-13T08:21:48Z</time>
      </trkpt>
      <trkpt lat="47.34809" lon="-1.58456">
        <ele>83.38511</ele>
        <time>2012-05-13T08:21:54Z</time>
      </trkpt>
      <trkpt lat="47.34794" lon="-1.58437">
        <ele>83.05141</ele>
        <time>2012-05-13T08:22:01Z</time>
      </trkpt>
      <trkpt lat="47.34786" lon="-1.58409">
        <ele>82.86543</ele>
        <time>2012-05-13T08:22:10Z</time>
      </trkpt>
      <trkpt lat="47.34777" lon="-1.58383">
        <ele>82.98653</ele>
        <time>2012-05-13T08:22:18Z</time>
      </trkpt>
      <trkpt lat="47.34771" lon="-1.58358">
        <ele>82.998985</ele>
        <time>2012-05-13T08:22:27Z</time>
      </trkpt>
      <trkpt lat="47.34761" lon="-1.58334">
        <ele>82.4218</ele>
        <time>2012-05-13T08:22:36Z</time>
      </trkpt>
      <trkpt lat="47.34752" lon="-1.58308">
        <ele>82.07507</ele>
        <time>2012-05-13T08:22:42Z</time>
      </trkpt>
      <trkpt lat="47.34744" lon="-1.58283">
        <ele>82.257515</ele>
        <time>2012-05-13T08:22:50Z</time>
      </trkpt>
      <trkpt lat="47.34735" lon="-1.58257">
        <ele>82.92567</ele>
        <time>2012-05-13T08:22:58Z</time>
      </trkpt>
      <trkpt lat="47.34727" lon="-1.58231">
        <ele>82.990074</ele>
        <time>2012-05-13T08:23:05Z</time>
      </trkpt>
      <trkpt lat="47.34718" lon="-1.58207">
        <ele>83.57636</ele>
        <time>2012-05-13T08:23:11Z</time>
      </trkpt>
      <trkpt lat="47.34713" lon="-1.5818">
        <ele>83.9246</ele>
        <time>2012-05-13T08:23:17Z</time>
      </trkpt>
      <trkpt lat="47.34706" lon="-1.58154">
        <ele>84.23211</ele>
        <time>2012-05-13T08:23:22Z</time>
      </trkpt>
      <trkpt lat="47.34688" lon="-1.58147">
        <ele>85.06777</ele>
        <time>2012-05-13T08:23:27Z</time>
      </trkpt>
      <trkpt lat="47.3467" lon="-1.58141">
        <ele>86.02878</ele>
        <time>2012-05-13T08:23:32Z</time>
      </trkpt>
      <trkpt lat="47.34651" lon="-1.58137">
        <ele>86.82714</ele>
        <time>2012-05-13T08:23:38Z</time>
      </trkpt>
      <trkpt lat="47.34632" lon="-1.58132">
        <ele>86.95898</ele>
        <time>2012-05-13T08:23:43Z</time>
      </trkpt>
      <trkpt lat="47.34614" lon="-1.58126">
        <ele>87.75296</ele>
        <time>2012-05-13T08:23:48Z</time>
      </trkpt>
      <trkpt lat="47.34597" lon="-1.58137">
        <ele>88.85608</ele>
        <time>2012-05-13T08:23:59Z</time>
      </trkpt>
      <trkpt lat="47.34605" lon="-1.58113">
        <ele>92.82197</ele>
        <time>2012-05-13T08:32:37Z</time>
      </trkpt>
      <trkpt lat="47.34614" lon="-1.58087">
        <ele>92.98663</ele>
        <time>2012-05-13T08:32:46Z</time>
      </trkpt>
      <trkpt lat="47.34624" lon="-1.58062">
        <ele>92.99762</ele>
        <time>2012-05-13T08:32:52Z</time>
      </trkpt>
      <trkpt lat="47.34633" lon="-1.58036">
        <ele>92.99957</ele>
        <time>2012-05-13T08:32:58Z</time>
      </trkpt>
      <trkpt lat="47.34642" lon="-1.58012">
        <ele>92.99992</ele>
        <time>2012-05-13T08:33:04Z</time>
      </trkpt>
      <trkpt lat="47.34624" lon="-1.58021">
        <ele>94</ele>
        <time>2012-05-13T08:34:14Z</time>
      </trkpt>
      <trkpt lat="47.3461" lon="-1.58038">
        <ele>94</ele>
        <time>2012-05-13T08:34:21Z</time>
      </trkpt>
      <trkpt lat="47.34595" lon="-1.58057">
        <ele>94</ele>
        <time>2012-05-13T08:34:27Z</time>
      </trkpt>
      <trkpt lat="47.3458" lon="-1.58079">
        <ele>94</ele>
        <time>2012-05-13T08:34:33Z</time>
      </trkpt>
      <trkpt lat="47.34566" lon="-1.581">
        <ele>94</ele>
        <time>2012-05-13T08:34:38Z</time>
      </trkpt>
      <trkpt lat="47.34553" lon="-1.58122">
        <ele>94.24609</ele>
        <time>2012-05-13T08:34:43Z</time>
      </trkpt>
      <trkpt lat="47.34537" lon="-1.58145">
        <ele>92.9373</ele>
        <time>2012-05-13T08:34:48Z</time>
      </trkpt>
      <trkpt lat="47.34524" lon="-1.58167">
        <ele>91.175476</ele>
        <time>2012-05-13T08:34:52Z</time>
      </trkpt>
      <trkpt lat="47.34509" lon="-1.58188">
        <ele>90.278946</ele>
        <time>2012-05-13T08:34:57Z</time>
      </trkpt>
      <trkpt lat="47.34494" lon="-1.5821">
        <ele>90.06619</ele>
        <time>2012-05-13T08:35:02Z</time>
      </trkpt>
      <trkpt lat="47.34479" lon="-1.58227">
        <ele>88.81551</ele>
        <time>2012-05-13T08:35:07Z</time>
      </trkpt>
      <trkpt lat="47.34464" lon="-1.58244">
        <ele>87.43083</ele>
        <time>2012-05-13T08:35:12Z</time>
      </trkpt>
      <trkpt lat="47.34451" lon="-1.58263">
        <ele>89.33553</ele>
        <time>2012-05-13T08:35:16Z</time>
      </trkpt>
      <trkpt lat="47.34437" lon="-1.58287">
        <ele>92.814</ele>
        <time>2012-05-13T08:35:21Z</time>
      </trkpt>
      <trkpt lat="47.34422" lon="-1.58308">
        <ele>94.296684</ele>
        <time>2012-05-13T08:35:26Z</time>
      </trkpt>
      <trkpt lat="47.34408" lon="-1.58328">
        <ele>96.27939</ele>
        <time>2012-05-13T08:35:31Z</time>
      </trkpt>
      <trkpt lat="47.34394" lon="-1.58351">
        <ele>97.76259</ele>
        <time>2012-05-13T08:35:36Z</time>
      </trkpt>
      <trkpt lat="47.3438" lon="-1.58375">
        <ele>98.26886</ele>
        <time>2012-05-13T08:35:41Z</time>
      </trkpt>
      <trkpt lat="47.34367" lon="-1.58396">
        <ele>97.48568</ele>
        <time>2012-05-13T08:35:46Z</time>
      </trkpt>
      <trkpt lat="47.34352" lon="-1.58418">
        <ele>97.943375</ele>
        <time>2012-05-13T08:35:51Z</time>
      </trkpt>
      <trkpt lat="47.34338" lon="-1.58435">
        <ele>99.243805</ele>
        <time>2012-05-13T08:35:55Z</time>
      </trkpt>
      <trkpt lat="47.34323" lon="-1.58454">
        <ele>99.82055</ele>
        <time>2012-05-13T08:36:00Z</time>
      </trkpt>
      <trkpt lat="47.34309" lon="-1.58478">
        <ele>100.39101</ele>
        <time>2012-05-13T08:36:05Z</time>
      </trkpt>
      <trkpt lat="47.34298" lon="-1.58499">
        <ele>100.56122</ele>
        <time>2012-05-13T08:36:09Z</time>
      </trkpt>
      <trkpt lat="47.34285" lon="-1.58519">
        <ele>100.895874</ele>
        <time>2012-05-13T08:36:14Z</time>
      </trkpt>
      <trkpt lat="47.34269" lon="-1.58538">
        <ele>100.53779</ele>
        <time>2012-05-13T08:36:19Z</time>
      </trkpt>
      <trkpt lat="47.34256" lon="-1.58557">
        <ele>100.12762</ele>
        <time>2012-05-13T08:36:24Z</time>
      </trkpt>
      <trkpt lat="47.34243" lon="-1.58576">
        <ele>100.04038</ele>
        <time>2012-05-13T08:36:28Z</time>
      </trkpt>
      <trkpt lat="47.34227" lon="-1.58598">
        <ele>100.33478</ele>
        <time>2012-05-13T08:36:33Z</time>
      </trkpt>
      <trkpt lat="47.34212" lon="-1.58619">
        <ele>99.50132</ele>
        <time>2012-05-13T08:36:38Z</time>
      </trkpt>
      <trkpt lat="47.34197" lon="-1.58643">
        <ele>99.118965</ele>
        <time>2012-05-13T08:36:43Z</time>
      </trkpt>
      <trkpt lat="47.34182" lon="-1.58667">
        <ele>99.35635</ele>
        <time>2012-05-13T08:36:48Z</time>
      </trkpt>
      <trkpt lat="47.34167" lon="-1.58688">
        <ele>98.50644</ele>
        <time>2012-05-13T08:36:53Z</time>
      </trkpt>
      <trkpt lat="47.34151" lon="-1.58707">
        <ele>96.91998</ele>
        <time>2012-05-13T08:36:58Z</time>
      </trkpt>
      <trkpt lat="47.34139" lon="-1.58727">
        <ele>95.71297</ele>
        <time>2012-05-13T08:37:02Z</time>
      </trkpt>
      <trkpt lat="47.34126" lon="-1.58746">
        <ele>95.12012</ele>
        <time>2012-05-13T08:37:06Z</time>
      </trkpt>
      <trkpt lat="47.34112" lon="-1.5877">
        <ele>95.03801</ele>
        <time>2012-05-13T08:37:10Z</time>
      </trkpt>
      <trkpt lat="47.34098" lon="-1.58791">
        <ele>95.012024</ele>
        <time>2012-05-13T08:37:14Z</time>
      </trkpt>
      <trkpt lat="47.34086" lon="-1.58813">
        <ele>95.25381</ele>
        <time>2012-05-13T08:37:18Z</time>
      </trkpt>
      <trkpt lat="47.34072" lon="-1.58832">
        <ele>95.7639</ele>
        <time>2012-05-13T08:37:22Z</time>
      </trkpt>
      <trkpt lat="47.34057" lon="-1.58853">
        <ele>94.743774</ele>
        <time>2012-05-13T08:37:27Z</time>
      </trkpt>
      <trkpt lat="47.34043" lon="-1.58873">
        <ele>95.16893</ele>
        <time>2012-05-13T08:37:31Z</time>
      </trkpt>
      <trkpt lat="47.34028" lon="-1.58896">
        <ele>95.80278</ele>
        <time>2012-05-13T08:37:36Z</time>
      </trkpt>
      <trkpt lat="47.34013" lon="-1.5892">
        <ele>95.26961</ele>
        <time>2012-05-13T08:37:41Z</time>
      </trkpt>
      <trkpt lat="47.33998" lon="-1.58941">
        <ele>94.38039</ele>
        <time>2012-05-13T08:37:46Z</time>
      </trkpt>
      <trkpt lat="47.33983" lon="-1.58963">
        <ele>94.85296</ele>
        <time>2012-05-13T08:37:51Z</time>
      </trkpt>
      <trkpt lat="47.33969" lon="-1.58984">
        <ele>94.96511</ele>
        <time>2012-05-13T08:37:56Z</time>
      </trkpt>
      <trkpt lat="47.33955" lon="-1.59003">
        <ele>94.99172</ele>
        <time>2012-05-13T08:38:01Z</time>
      </trkpt>
      <trkpt lat="47.33941" lon="-1.59023">
        <ele>94.99803</ele>
        <time>2012-05-13T08:38:06Z</time>
      </trkpt>
      <trkpt lat="47.33927" lon="-1.59044">
        <ele>94.999535</ele>
        <time>2012-05-13T08:38:11Z</time>
      </trkpt>
      <trkpt lat="47.33913" lon="-1.59066">
        <ele>95.68348</ele>
        <time>2012-05-13T08:38:16Z</time>
      </trkpt>
      <trkpt lat="47.33898" lon="-1.59085">
        <ele>95.92489</ele>
        <time>2012-05-13T08:38:21Z</time>
      </trkpt>
      <trkpt lat="47.33884" lon="-1.59106">
        <ele>95.98218</ele>
        <time>2012-05-13T08:38:26Z</time>
      </trkpt>
      <trkpt lat="47.33871" lon="-1.59126">
        <ele>95.55686</ele>
        <time>2012-05-13T08:38:30Z</time>
      </trkpt>
      <trkpt lat="47.33856" lon="-1.59147">
        <ele>94.448555</ele>
        <time>2012-05-13T08:38:35Z</time>
      </trkpt>
      <trkpt lat="47.33844" lon="-1.59167">
        <ele>94.106445</ele>
        <time>2012-05-13T08:38:40Z</time>
      </trkpt>
      <trkpt lat="47.33829" lon="-1.59188">
        <ele>94.01894</ele>
        <time>2012-05-13T08:38:46Z</time>
      </trkpt>
      <trkpt lat="47.33815" lon="-1.59209">
        <ele>94.68809</ele>
        <time>2012-05-13T08:38:51Z</time>
      </trkpt>
      <trkpt lat="47.33803" lon="-1.59235">
        <ele>95.504105</ele>
        <time>2012-05-13T08:38:56Z</time>
      </trkpt>
      <trkpt lat="47.33789" lon="-1.59257">
        <ele>95.882324</ele>
        <time>2012-05-13T08:39:01Z</time>
      </trkpt>
      <trkpt lat="47.33776" lon="-1.59278">
        <ele>96.5502</ele>
        <time>2012-05-13T08:39:06Z</time>
      </trkpt>
      <trkpt lat="47.33763" lon="-1.593">
        <ele>97.65595</ele>
        <time>2012-05-13T08:39:11Z</time>
      </trkpt>
      <trkpt lat="47.3375" lon="-1.59321">
        <ele>98.60195</ele>
        <time>2012-05-13T08:39:16Z</time>
      </trkpt>
      <trkpt lat="47.33736" lon="-1.5934">
        <ele>99.15554</ele>
        <time>2012-05-13T08:39:21Z</time>
      </trkpt>
      <trkpt lat="47.33722" lon="-1.59358">
        <ele>99.79961</ele>
        <time>2012-05-13T08:39:26Z</time>
      </trkpt>
      <trkpt lat="47.33709" lon="-1.59379">
        <ele>99.97325</ele>
        <time>2012-05-13T08:39:33Z</time>
      </trkpt>
      <trkpt lat="47.33689" lon="-1.59403">
        <ele>99.74915</ele>
        <time>2012-05-13T08:39:45Z</time>
      </trkpt>
      <trkpt lat="47.3367" lon="-1.59424">
        <ele>99.94208</ele>
        <time>2012-05-13T08:39:55Z</time>
      </trkpt>
      <trkpt lat="47.33665" lon="-1.59456">
        <ele>99.544174</ele>
        <time>2012-05-13T08:39:59Z</time>
      </trkpt>
      <trkpt lat="47.33663" lon="-1.59488">
        <ele>99.17218</ele>
        <time>2012-05-13T08:40:03Z</time>
      </trkpt>
      <trkpt lat="47.3366" lon="-1.59523">
        <ele>98.790855</ele>
        <time>2012-05-13T08:40:08Z</time>
      </trkpt>
      <trkpt lat="47.33656" lon="-1.59549">
        <ele>97.81274</ele>
        <time>2012-05-13T08:40:12Z</time>
      </trkpt>
      <trkpt lat="47.3365" lon="-1.59579">
        <ele>97.25716</ele>
        <time>2012-05-13T08:40:16Z</time>
      </trkpt>
      <trkpt lat="47.33644" lon="-1.59604">
        <ele>97.33137</ele>
        <time>2012-05-13T08:40:20Z</time>
      </trkpt>
      <trkpt lat="47.33633" lon="-1.59632">
        <ele>98.61656</ele>
        <time>2012-05-13T08:40:24Z</time>
      </trkpt>
      <trkpt lat="47.3362" lon="-1.59656">
        <ele>99.99977</ele>
        <time>2012-05-13T08:40:28Z</time>
      </trkpt>
      <trkpt lat="47.33605" lon="-1.59679">
        <ele>101.36712</ele>
        <time>2012-05-13T08:40:32Z</time>
      </trkpt>
      <trkpt lat="47.3359" lon="-1.59699">
        <ele>102.37788</ele>
        <time>2012-05-13T08:40:36Z</time>
      </trkpt>
      <trkpt lat="47.33575" lon="-1.59718">
        <ele>103.240654</ele>
        <time>2012-05-13T08:40:40Z</time>
      </trkpt>
      <trkpt lat="47.3356" lon="-1.59737">
        <ele>104.197235</ele>
        <time>2012-05-13T08:40:44Z</time>
      </trkpt>
      <trkpt lat="47.33546" lon="-1.59757">
        <ele>105.32413</ele>
        <time>2012-05-13T08:40:48Z</time>
      </trkpt>
      <trkpt lat="47.33531" lon="-1.59776">
        <ele>105.78615</ele>
        <time>2012-05-13T08:40:52Z</time>
      </trkpt>
      <trkpt lat="47.33518" lon="-1.59795">
        <ele>105.90978</ele>
        <time>2012-05-13T08:40:55Z</time>
      </trkpt>
      <trkpt lat="47.33505" lon="-1.59821">
        <ele>105.97145</ele>
        <time>2012-05-13T08:40:59Z</time>
      </trkpt>
      <trkpt lat="47.33494" lon="-1.59851">
        <ele>105.99097</ele>
        <time>2012-05-13T08:41:03Z</time>
      </trkpt>
      <trkpt lat="47.33482" lon="-1.59879">
        <ele>105.55964</ele>
        <time>2012-05-13T08:41:07Z</time>
      </trkpt>
      <trkpt lat="47.33473" lon="-1.59903">
        <ele>105.2361</ele>
        <time>2012-05-13T08:41:10Z</time>
      </trkpt>
      <trkpt lat="47.33461" lon="-1.5993">
        <ele>104.49658</ele>
        <time>2012-05-13T08:41:14Z</time>
      </trkpt>
      <trkpt lat="47.33447" lon="-1.59958">
        <ele>104.15712</ele>
        <time>2012-05-13T08:41:18Z</time>
      </trkpt>
      <trkpt lat="47.33436" lon="-1.5998">
        <ele>104.066284</ele>
        <time>2012-05-13T08:41:21Z</time>
      </trkpt>
      <trkpt lat="47.33422" lon="-1.60006">
        <ele>104.02097</ele>
        <time>2012-05-13T08:41:25Z</time>
      </trkpt>
      <trkpt lat="47.33411" lon="-1.60027">
        <ele>104.00885</ele>
        <time>2012-05-13T08:41:28Z</time>
      </trkpt>
      <trkpt lat="47.33396" lon="-1.60055">
        <ele>104.0028</ele>
        <time>2012-05-13T08:41:32Z</time>
      </trkpt>
      <trkpt lat="47.33384" lon="-1.60079">
        <ele>104.43868</ele>
        <time>2012-05-13T08:41:35Z</time>
      </trkpt>
      <trkpt lat="47.3337" lon="-1.60098">
        <ele>104.76319</ele>
        <time>2012-05-13T08:41:38Z</time>
      </trkpt>
      <trkpt lat="47.33353" lon="-1.60106">
        <ele>104.9001</ele>
        <time>2012-05-13T08:41:41Z</time>
      </trkpt>
      <trkpt lat="47.3333" lon="-1.60109">
        <ele>104.96839</ele>
        <time>2012-05-13T08:41:45Z</time>
      </trkpt>
      <trkpt lat="47.33307" lon="-1.60111">
        <ele>104.99</ele>
        <time>2012-05-13T08:41:49Z</time>
      </trkpt>
      <trkpt lat="47.33285" lon="-1.60115">
        <ele>104.99683</ele>
        <time>2012-05-13T08:41:53Z</time>
      </trkpt>
      <trkpt lat="47.33263" lon="-1.60119">
        <ele>104.999</ele>
        <time>2012-05-13T08:41:57Z</time>
      </trkpt>
      <trkpt lat="47.33242" lon="-1.60124">
        <ele>104.74968</ele>
        <time>2012-05-13T08:42:01Z</time>
      </trkpt>
      <trkpt lat="47.3322" lon="-1.60128">
        <ele>104.81533</ele>
        <time>2012-05-13T08:42:05Z</time>
      </trkpt>
      <trkpt lat="47.33199" lon="-1.6013">
        <ele>104.50407</ele>
        <time>2012-05-13T08:42:09Z</time>
      </trkpt>
      <trkpt lat="47.33177" lon="-1.60132">
        <ele>103.72199</ele>
        <time>2012-05-13T08:42:13Z</time>
      </trkpt>
      <trkpt lat="47.33157" lon="-1.60136">
        <ele>103.22844</ele>
        <time>2012-05-13T08:42:17Z</time>
      </trkpt>
      <trkpt lat="47.33137" lon="-1.60139">
        <ele>103.07228</ele>
        <time>2012-05-13T08:42:21Z</time>
      </trkpt>
      <trkpt lat="47.33117" lon="-1.60141">
        <ele>103.02287</ele>
        <time>2012-05-13T08:42:25Z</time>
      </trkpt>
      <trkpt lat="47.33098" lon="-1.60145">
        <ele>103.69083</ele>
        <time>2012-05-13T08:42:29Z</time>
      </trkpt>
      <trkpt lat="47.33079" lon="-1.60147">
        <ele>104.4803</ele>
        <time>2012-05-13T08:42:33Z</time>
      </trkpt>
      <trkpt lat="47.33059" lon="-1.60151">
        <ele>105.27306</ele>
        <time>2012-05-13T08:42:37Z</time>
      </trkpt>
      <trkpt lat="47.33039" lon="-1.60156">
        <ele>105.77</ele>
        <time>2012-05-13T08:42:41Z</time>
      </trkpt>
      <trkpt lat="47.3302" lon="-1.60158">
        <ele>105.92722</ele>
        <time>2012-05-13T08:42:45Z</time>
      </trkpt>
      <trkpt lat="47.33" lon="-1.60162">
        <ele>105.976974</ele>
        <time>2012-05-13T08:42:49Z</time>
      </trkpt>
      <trkpt lat="47.32982" lon="-1.60164">
        <ele>105.30912</ele>
        <time>2012-05-13T08:42:53Z</time>
      </trkpt>
      <trkpt lat="47.32963" lon="-1.60169">
        <ele>104.13106</ele>
        <time>2012-05-13T08:43:01Z</time>
      </trkpt>
      <trkpt lat="47.32943" lon="-1.60171">
        <ele>104.27332</ele>
        <time>2012-05-13T08:43:07Z</time>
      </trkpt>
      <trkpt lat="47.32924" lon="-1.60173">
        <ele>104.82756</ele>
        <time>2012-05-13T08:43:12Z</time>
      </trkpt>
      <trkpt lat="47.32905" lon="-1.60173">
        <ele>105.72177</ele>
        <time>2012-05-13T08:43:17Z</time>
      </trkpt>
      <trkpt lat="47.32883" lon="-1.60177">
        <ele>104.996475</ele>
        <time>2012-05-13T08:43:22Z</time>
      </trkpt>
      <trkpt lat="47.32862" lon="-1.60182">
        <ele>102.79018</ele>
        <time>2012-05-13T08:43:27Z</time>
      </trkpt>
      <trkpt lat="47.32841" lon="-1.60186">
        <ele>102.250015</ele>
        <time>2012-05-13T08:43:31Z</time>
      </trkpt>
      <trkpt lat="47.3282" lon="-1.60188">
        <ele>101.395515</ele>
        <time>2012-05-13T08:43:35Z</time>
      </trkpt>
      <trkpt lat="47.32801" lon="-1.6019">
        <ele>101.80874</ele>
        <time>2012-05-13T08:43:39Z</time>
      </trkpt>
      <trkpt lat="47.32782" lon="-1.60192">
        <ele>101.93948</ele>
        <time>2012-05-13T08:43:43Z</time>
      </trkpt>
      <trkpt lat="47.32763" lon="-1.60197">
        <ele>101.29726</ele>
        <time>2012-05-13T08:43:47Z</time>
      </trkpt>
      <trkpt lat="47.32743" lon="-1.60201">
        <ele>100.844055</ele>
        <time>2012-05-13T08:43:51Z</time>
      </trkpt>
      <trkpt lat="47.32726" lon="-1.60182">
        <ele>100.200294</ele>
        <time>2012-05-13T08:43:56Z</time>
      </trkpt>
      <trkpt lat="47.32721" lon="-1.60154">
        <ele>99.79753</ele>
        <time>2012-05-13T08:44:01Z</time>
      </trkpt>
      <trkpt lat="47.32716" lon="-1.60126">
        <ele>98.61113</ele>
        <time>2012-05-13T08:44:06Z</time>
      </trkpt>
      <trkpt lat="47.32714" lon="-1.60096">
        <ele>98.14503</ele>
        <time>2012-05-13T08:44:11Z</time>
      </trkpt>
      <trkpt lat="47.32703" lon="-1.60072">
        <ele>98.44363</ele>
        <time>2012-05-13T08:44:22Z</time>
      </trkpt>
      <trkpt lat="47.32687" lon="-1.60051">
        <ele>100.1666</ele>
        <time>2012-05-13T08:44:28Z</time>
      </trkpt>
      <trkpt lat="47.32678" lon="-1.60021">
        <ele>102.436386</ele>
        <time>2012-05-13T08:44:34Z</time>
      </trkpt>
      <trkpt lat="47.32674" lon="-1.59995">
        <ele>104.12797</ele>
        <time>2012-05-13T08:44:39Z</time>
      </trkpt>
      <trkpt lat="47.3267" lon="-1.59967">
        <ele>104.844795</ele>
        <time>2012-05-13T08:44:45Z</time>
      </trkpt>
      <trkpt lat="47.32664" lon="-1.59939">
        <ele>104.97929</ele>
        <time>2012-05-13T08:44:52Z</time>
      </trkpt>
      <trkpt lat="47.32659" lon="-1.59913">
        <ele>104.99345</ele>
        <time>2012-05-13T08:44:56Z</time>
      </trkpt>
      <trkpt lat="47.32654" lon="-1.59885">
        <ele>104.42032</ele>
        <time>2012-05-13T08:45:01Z</time>
      </trkpt>
      <trkpt lat="47.32648" lon="-1.5986">
        <ele>104.09975</ele>
        <time>2012-05-13T08:45:06Z</time>
      </trkpt>
      <trkpt lat="47.32643" lon="-1.59832">
        <ele>103.77367</ele>
        <time>2012-05-13T08:45:11Z</time>
      </trkpt>
      <trkpt lat="47.32638" lon="-1.59802">
        <ele>103.18359</ele>
        <time>2012-05-13T08:45:16Z</time>
      </trkpt>
      <trkpt lat="47.3263" lon="-1.59776">
        <ele>101.26818</ele>
        <time>2012-05-13T08:45:21Z</time>
      </trkpt>
      <trkpt lat="47.32625" lon="-1.5975">
        <ele>98.85465</ele>
        <time>2012-05-13T08:45:26Z</time>
      </trkpt>
      <trkpt lat="47.32618" lon="-1.59724">
        <ele>97.25479</ele>
        <time>2012-05-13T08:45:30Z</time>
      </trkpt>
      <trkpt lat="47.32614" lon="-1.59699">
        <ele>96.397026</ele>
        <time>2012-05-13T08:45:34Z</time>
      </trkpt>
      <trkpt lat="47.32609" lon="-1.59671">
        <ele>96.094215</ele>
        <time>2012-05-13T08:45:39Z</time>
      </trkpt>
      <trkpt lat="47.32604" lon="-1.59645">
        <ele>96.022354</ele>
        <time>2012-05-13T08:45:44Z</time>
      </trkpt>
      <trkpt lat="47.326" lon="-1.59617">
        <ele>96.0053</ele>
        <time>2012-05-13T08:45:49Z</time>
      </trkpt>
      <trkpt lat="47.32595" lon="-1.59589">
        <ele>96.000946</ele>
        <time>2012-05-13T08:45:55Z</time>
      </trkpt>
      <trkpt lat="47.32586" lon="-1.59559">
        <ele>96.82829</ele>
        <time>2012-05-13T08:46:01Z</time>
      </trkpt>
      <trkpt lat="47.32569" lon="-1.59549">
        <ele>98.52131</ele>
        <time>2012-05-13T08:46:04Z</time>
      </trkpt>
      <trkpt lat="47.32549" lon="-1.5954">
        <ele>99.9543</ele>
        <time>2012-05-13T08:46:07Z</time>
      </trkpt>
      <trkpt lat="47.32527" lon="-1.59531">
        <ele>99.98072</ele>
        <time>2012-05-13T08:46:10Z</time>
      </trkpt>
      <trkpt lat="47.32505" lon="-1.59523">
        <ele>99.55437</ele>
        <time>2012-05-13T08:46:13Z</time>
      </trkpt>
      <trkpt lat="47.32484" lon="-1.59514">
        <ele>98.79637</ele>
        <time>2012-05-13T08:46:16Z</time>
      </trkpt>
      <trkpt lat="47.32465" lon="-1.5951">
        <ele>98.08597</ele>
        <time>2012-05-13T08:46:19Z</time>
      </trkpt>
      <trkpt lat="47.32447" lon="-1.59503">
        <ele>97.458145</ele>
        <time>2012-05-13T08:46:22Z</time>
      </trkpt>
      <trkpt lat="47.32423" lon="-1.59495">
        <ele>96.898865</ele>
        <time>2012-05-13T08:46:26Z</time>
      </trkpt>
      <trkpt lat="47.32399" lon="-1.59486">
        <ele>97.901596</ele>
        <time>2012-05-13T08:46:30Z</time>
      </trkpt>
      <trkpt lat="47.32377" lon="-1.5948">
        <ele>100.49621</ele>
        <time>2012-05-13T08:46:34Z</time>
      </trkpt>
      <trkpt lat="47.32354" lon="-1.59473">
        <ele>103.907005</ele>
        <time>2012-05-13T08:46:38Z</time>
      </trkpt>
      <trkpt lat="47.32336" lon="-1.59467">
        <ele>104.42952</ele>
        <time>2012-05-13T08:46:41Z</time>
      </trkpt>
      <trkpt lat="47.32313" lon="-1.59461">
        <ele>101.74918</ele>
        <time>2012-05-13T08:46:45Z</time>
      </trkpt>
      <trkpt lat="47.32298" lon="-1.59446">
        <ele>98.89419</ele>
        <time>2012-05-13T08:46:48Z</time>
      </trkpt>
      <trkpt lat="47.32284" lon="-1.5942">
        <ele>96.39286</ele>
        <time>2012-05-13T08:46:51Z</time>
      </trkpt>
      <trkpt lat="47.32272" lon="-1.5939">
        <ele>94.57199</ele>
        <time>2012-05-13T08:46:54Z</time>
      </trkpt>
      <trkpt lat="47.3226" lon="-1.5936">
        <ele>93.663185</ele>
        <time>2012-05-13T08:46:57Z</time>
      </trkpt>
      <trkpt lat="47.32248" lon="-1.59338">
        <ele>92.84228</ele>
        <time>2012-05-13T08:47:00Z</time>
      </trkpt>
      <trkpt lat="47.32229" lon="-1.5933">
        <ele>91.527214</ele>
        <time>2012-05-13T08:47:03Z</time>
      </trkpt>
      <trkpt lat="47.3221" lon="-1.5933">
        <ele>89.81617</ele>
        <time>2012-05-13T08:47:06Z</time>
      </trkpt>
      <trkpt lat="47.3219" lon="-1.59343">
        <ele>87.99652</ele>
        <time>2012-05-13T08:47:10Z</time>
      </trkpt>
      <trkpt lat="47.32174" lon="-1.59355">
        <ele>87.31531</ele>
        <time>2012-05-13T08:47:14Z</time>
      </trkpt>
      <trkpt lat="47.32166" lon="-1.5933">
        <ele>86.99819</ele>
        <time>2012-05-13T08:47:22Z</time>
      </trkpt>
      <trkpt lat="47.32165" lon="-1.59302">
        <ele>87.93302</ele>
        <time>2012-05-13T08:47:26Z</time>
      </trkpt>
      <trkpt lat="47.32163" lon="-1.59267">
        <ele>88.6624</ele>
        <time>2012-05-13T08:47:30Z</time>
      </trkpt>
      <trkpt lat="47.32162" lon="-1.59233">
        <ele>88.89318</ele>
        <time>2012-05-13T08:47:34Z</time>
      </trkpt>
      <trkpt lat="47.32157" lon="-1.59199">
        <ele>89.4037</ele>
        <time>2012-05-13T08:47:38Z</time>
      </trkpt>
      <trkpt lat="47.32139" lon="-1.59182">
        <ele>89.811325</ele>
        <time>2012-05-13T08:47:42Z</time>
      </trkpt>
      <trkpt lat="47.32117" lon="-1.59173">
        <ele>89.9403</ele>
        <time>2012-05-13T08:47:46Z</time>
      </trkpt>
      <trkpt lat="47.32095" lon="-1.59162">
        <ele>89.98111</ele>
        <time>2012-05-13T08:47:50Z</time>
      </trkpt>
      <trkpt lat="47.32077" lon="-1.59154">
        <ele>90.429535</ele>
        <time>2012-05-13T08:47:53Z</time>
      </trkpt>
      <trkpt lat="47.32058" lon="-1.59145">
        <ele>91.337456</ele>
        <time>2012-05-13T08:47:56Z</time>
      </trkpt>
      <trkpt lat="47.3204" lon="-1.59139">
        <ele>91.142365</ele>
        <time>2012-05-13T08:47:59Z</time>
      </trkpt>
      <trkpt lat="47.32022" lon="-1.59132">
        <ele>90.81006</ele>
        <time>2012-05-13T08:48:02Z</time>
      </trkpt>
      <trkpt lat="47.32005" lon="-1.59124">
        <ele>89.76362</ele>
        <time>2012-05-13T08:48:05Z</time>
      </trkpt>
      <trkpt lat="47.31982" lon="-1.59115">
        <ele>88.30802</ele>
        <time>2012-05-13T08:48:09Z</time>
      </trkpt>
      <trkpt lat="47.31965" lon="-1.59106">
        <ele>88.129944</ele>
        <time>2012-05-13T08:48:12Z</time>
      </trkpt>
      <trkpt lat="47.31948" lon="-1.59098">
        <ele>88.05482</ele>
        <time>2012-05-13T08:48:15Z</time>
      </trkpt>
      <trkpt lat="47.31925" lon="-1.59087">
        <ele>88.95094</ele>
        <time>2012-05-13T08:48:19Z</time>
      </trkpt>
      <trkpt lat="47.31904" lon="-1.59079">
        <ele>89.23057</ele>
        <time>2012-05-13T08:48:23Z</time>
      </trkpt>
      <trkpt lat="47.31883" lon="-1.59068">
        <ele>90.194046</ele>
        <time>2012-05-13T08:48:27Z</time>
      </trkpt>
      <trkpt lat="47.31864" lon="-1.59059">
        <ele>91.182495</ele>
        <time>2012-05-13T08:48:31Z</time>
      </trkpt>
      <trkpt lat="47.31846" lon="-1.59055">
        <ele>91.65511</ele>
        <time>2012-05-13T08:48:34Z</time>
      </trkpt>
      <trkpt lat="47.31825" lon="-1.59049">
        <ele>91.8545</ele>
        <time>2012-05-13T08:48:37Z</time>
      </trkpt>
      <trkpt lat="47.31803" lon="-1.59044">
        <ele>91.36049</ele>
        <time>2012-05-13T08:48:40Z</time>
      </trkpt>
      <trkpt lat="47.3178" lon="-1.5904">
        <ele>90.464584</ele>
        <time>2012-05-13T08:48:43Z</time>
      </trkpt>
      <trkpt lat="47.31758" lon="-1.59038">
        <ele>87.774124</ele>
        <time>2012-05-13T08:48:46Z</time>
      </trkpt>
      <trkpt lat="47.31737" lon="-1.59036">
        <ele>84.90471</ele>
        <time>2012-05-13T08:48:49Z</time>
      </trkpt>
      <trkpt lat="47.31716" lon="-1.59034">
        <ele>82.787926</ele>
        <time>2012-05-13T08:48:52Z</time>
      </trkpt>
      <trkpt lat="47.31691" lon="-1.59038">
        <ele>81.75428</ele>
        <time>2012-05-13T08:48:55Z</time>
      </trkpt>
      <trkpt lat="47.31668" lon="-1.5904">
        <ele>81.068214</ele>
        <time>2012-05-13T08:48:58Z</time>
      </trkpt>
      <trkpt lat="47.31644" lon="-1.59031">
        <ele>80.20065</ele>
        <time>2012-05-13T08:49:01Z</time>
      </trkpt>
      <trkpt lat="47.31627" lon="-1.59023">
        <ele>79.67537</ele>
        <time>2012-05-13T08:49:03Z</time>
      </trkpt>
      <trkpt lat="47.31603" lon="-1.59008">
        <ele>78.706795</ele>
        <time>2012-05-13T08:49:06Z</time>
      </trkpt>
      <trkpt lat="47.31581" lon="-1.58991">
        <ele>78.29818</ele>
        <time>2012-05-13T08:49:09Z</time>
      </trkpt>
      <trkpt lat="47.31558" lon="-1.58976">
        <ele>77.43829</ele>
        <time>2012-05-13T08:49:12Z</time>
      </trkpt>
      <trkpt lat="47.31539" lon="-1.58971">
        <ele>75.91928</ele>
        <time>2012-05-13T08:49:15Z</time>
      </trkpt>
      <trkpt lat="47.31526" lon="-1.58993">
        <ele>74.029144</ele>
        <time>2012-05-13T08:49:19Z</time>
      </trkpt>
      <trkpt lat="47.31523" lon="-1.59025">
        <ele>72.64204</ele>
        <time>2012-05-13T08:49:23Z</time>
      </trkpt>
      <trkpt lat="47.31519" lon="-1.59059">
        <ele>71.95314</ele>
        <time>2012-05-13T08:49:27Z</time>
      </trkpt>
      <trkpt lat="47.31515" lon="-1.59089">
        <ele>70.38648</ele>
        <time>2012-05-13T08:49:30Z</time>
      </trkpt>
      <trkpt lat="47.31512" lon="-1.59119">
        <ele>68.5693</ele>
        <time>2012-05-13T08:49:33Z</time>
      </trkpt>
      <trkpt lat="47.31512" lon="-1.59147">
        <ele>67.08392</ele>
        <time>2012-05-13T08:49:36Z</time>
      </trkpt>
      <trkpt lat="47.31516" lon="-1.59175">
        <ele>66.45728</ele>
        <time>2012-05-13T08:49:39Z</time>
      </trkpt>
      <trkpt lat="47.31522" lon="-1.59207">
        <ele>65.894684</ele>
        <time>2012-05-13T08:49:43Z</time>
      </trkpt>
      <trkpt lat="47.31527" lon="-1.5924">
        <ele>65.28308</ele>
        <time>2012-05-13T08:49:47Z</time>
      </trkpt>
      <trkpt lat="47.3153" lon="-1.59272">
        <ele>64.65207</ele>
        <time>2012-05-13T08:49:51Z</time>
      </trkpt>
      <trkpt lat="47.31536" lon="-1.59302">
        <ele>64.20632</ele>
        <time>2012-05-13T08:49:55Z</time>
      </trkpt>
      <trkpt lat="47.31541" lon="-1.59332">
        <ele>63.487156</ele>
        <time>2012-05-13T08:49:59Z</time>
      </trkpt>
      <trkpt lat="47.31543" lon="-1.5936">
        <ele>62.033047</ele>
        <time>2012-05-13T08:50:03Z</time>
      </trkpt>
      <trkpt lat="47.31538" lon="-1.59385">
        <ele>60.889362</ele>
        <time>2012-05-13T08:50:07Z</time>
      </trkpt>
      <trkpt lat="47.31529" lon="-1.59409">
        <ele>59.703274</ele>
        <time>2012-05-13T08:50:11Z</time>
      </trkpt>
      <trkpt lat="47.31519" lon="-1.59431">
        <ele>58.644394</ele>
        <time>2012-05-13T08:50:15Z</time>
      </trkpt>
      <trkpt lat="47.31508" lon="-1.59454">
        <ele>57.375767</ele>
        <time>2012-05-13T08:50:19Z</time>
      </trkpt>
      <trkpt lat="47.31501" lon="-1.59484">
        <ele>55.748352</ele>
        <time>2012-05-13T08:50:24Z</time>
      </trkpt>
      <trkpt lat="47.31497" lon="-1.59514">
        <ele>55.13319</ele>
        <time>2012-05-13T08:50:30Z</time>
      </trkpt>
      <trkpt lat="47.31495" lon="-1.59546">
        <ele>53.25329</ele>
        <time>2012-05-13T08:50:35Z</time>
      </trkpt>
      <trkpt lat="47.31493" lon="-1.59576">
        <ele>52.14655</ele>
        <time>2012-05-13T08:50:39Z</time>
      </trkpt>
      <trkpt lat="47.31492" lon="-1.59606">
        <ele>51.362774</ele>
        <time>2012-05-13T08:50:43Z</time>
      </trkpt>
      <trkpt lat="47.31489" lon="-1.59634">
        <ele>49.84916</ele>
        <time>2012-05-13T08:50:47Z</time>
      </trkpt>
      <trkpt lat="47.31485" lon="-1.59664">
        <ele>46.823368</ele>
        <time>2012-05-13T08:50:51Z</time>
      </trkpt>
      <trkpt lat="47.3148" lon="-1.59692">
        <ele>41.682392</ele>
        <time>2012-05-13T08:50:55Z</time>
      </trkpt>
      <trkpt lat="47.31475" lon="-1.59718">
        <ele>38.044037</ele>
        <time>2012-05-13T08:50:59Z</time>
      </trkpt>
      <trkpt lat="47.3147" lon="-1.59744">
        <ele>37.33034</ele>
        <time>2012-05-13T08:51:03Z</time>
      </trkpt>
      <trkpt lat="47.31466" lon="-1.59778">
        <ele>37.222923</ele>
        <time>2012-05-13T08:51:08Z</time>
      </trkpt>
      <trkpt lat="47.31463" lon="-1.59812">
        <ele>40.82444</ele>
        <time>2012-05-13T08:51:12Z</time>
      </trkpt>
      <trkpt lat="47.31459" lon="-1.59847">
        <ele>45.522575</ele>
        <time>2012-05-13T08:51:16Z</time>
      </trkpt>
      <trkpt lat="47.31455" lon="-1.59879">
        <ele>48.752914</ele>
        <time>2012-05-13T08:51:21Z</time>
      </trkpt>
      <trkpt lat="47.31451" lon="-1.59909">
        <ele>49.605415</ele>
        <time>2012-05-13T08:51:25Z</time>
      </trkpt>
      <trkpt lat="47.31438" lon="-1.5993">
        <ele>49.906364</ele>
        <time>2012-05-13T08:51:30Z</time>
      </trkpt>
      <trkpt lat="47.3142" lon="-1.59935">
        <ele>50.798496</ele>
        <time>2012-05-13T08:51:34Z</time>
      </trkpt>
      <trkpt lat="47.31398" lon="-1.59939">
        <ele>52.885464</ele>
        <time>2012-05-13T08:51:38Z</time>
      </trkpt>
      <trkpt lat="47.31378" lon="-1.59943">
        <ele>56.280167</ele>
        <time>2012-05-13T08:51:42Z</time>
      </trkpt>
      <trkpt lat="47.31361" lon="-1.59952">
        <ele>59.838646</ele>
        <time>2012-05-13T08:51:46Z</time>
      </trkpt>
      <trkpt lat="47.31341" lon="-1.59954">
        <ele>62.158714</ele>
        <time>2012-05-13T08:51:57Z</time>
      </trkpt>
      <trkpt lat="47.31337" lon="-1.59926">
        <ele>64.249916</ele>
        <time>2012-05-13T08:52:36Z</time>
      </trkpt>
      <trkpt lat="47.31343" lon="-1.599">
        <ele>65.14987</ele>
        <time>2012-05-13T08:52:43Z</time>
      </trkpt>
      <trkpt lat="47.31341" lon="-1.59873">
        <ele>66.75819</ele>
        <time>2012-05-13T08:52:52Z</time>
      </trkpt>
      <trkpt lat="47.31346" lon="-1.59845">
        <ele>67.8563</ele>
        <time>2012-05-13T08:53:03Z</time>
      </trkpt>
      <trkpt lat="47.31345" lon="-1.59817">
        <ele>67.993935</ele>
        <time>2012-05-13T08:53:14Z</time>
      </trkpt>
      <trkpt lat="47.31341" lon="-1.59789">
        <ele>67.99954</ele>
        <time>2012-05-13T08:53:23Z</time>
      </trkpt>
      <trkpt lat="47.31334" lon="-1.59759">
        <ele>67.13345</ele>
        <time>2012-05-13T08:53:32Z</time>
      </trkpt>
      <trkpt lat="47.31329" lon="-1.59731">
        <ele>66.25066</ele>
        <time>2012-05-13T08:53:40Z</time>
      </trkpt>
      <trkpt lat="47.31323" lon="-1.59699">
        <ele>66.78152</ele>
        <time>2012-05-13T08:53:49Z</time>
      </trkpt>
      <trkpt lat="47.31318" lon="-1.59669">
        <ele>66.9836</ele>
        <time>2012-05-13T08:53:58Z</time>
      </trkpt>
      <trkpt lat="47.31312" lon="-1.59639">
        <ele>66.99877</ele>
        <time>2012-05-13T08:54:07Z</time>
      </trkpt>
      <trkpt lat="47.31305" lon="-1.59609">
        <ele>66.99988</ele>
        <time>2012-05-13T08:54:15Z</time>
      </trkpt>
      <trkpt lat="47.31298" lon="-1.59581">
        <ele>67.89988</ele>
        <time>2012-05-13T08:54:25Z</time>
      </trkpt>
      <trkpt lat="47.3129" lon="-1.59551">
        <ele>67.99436</ele>
        <time>2012-05-13T08:54:35Z</time>
      </trkpt>
      <trkpt lat="47.31277" lon="-1.59529">
        <ele>67.99958</ele>
        <time>2012-05-13T08:54:44Z</time>
      </trkpt>
      <trkpt lat="47.31259" lon="-1.59521">
        <ele>67.316376</ele>
        <time>2012-05-13T08:54:53Z</time>
      </trkpt>
      <trkpt lat="47.3124" lon="-1.59518">
        <ele>67.04223</ele>
        <time>2012-05-13T08:55:00Z</time>
      </trkpt>
      <trkpt lat="47.3122" lon="-1.59518">
        <ele>66.18549</ele>
        <time>2012-05-13T08:55:06Z</time>
      </trkpt>
      <trkpt lat="47.31201" lon="-1.59527">
        <ele>65.34116</ele>
        <time>2012-05-13T08:55:13Z</time>
      </trkpt>
      <trkpt lat="47.31184" lon="-1.59542">
        <ele>64.45603</ele>
        <time>2012-05-13T08:55:21Z</time>
      </trkpt>
      <trkpt lat="47.3117" lon="-1.59559">
        <ele>63.342087</ele>
        <time>2012-05-13T08:55:31Z</time>
      </trkpt>
      <trkpt lat="47.31174" lon="-1.59585">
        <ele>62.00645</ele>
        <time>2012-05-13T08:55:52Z</time>
      </trkpt>
      <trkpt lat="47.31192" lon="-1.59581">
        <ele>62.866566</ele>
        <time>2012-05-13T08:56:09Z</time>
      </trkpt>
      <trkpt lat="47.31204" lon="-1.59559">
        <ele>62.992485</ele>
        <time>2012-05-13T08:56:19Z</time>
      </trkpt>
      <trkpt lat="47.31219" lon="-1.59542">
        <ele>63.82127</ele>
        <time>2012-05-13T08:56:27Z</time>
      </trkpt>
      <trkpt lat="47.31239" lon="-1.59534">
        <ele>63.398018</ele>
        <time>2012-05-13T08:56:34Z</time>
      </trkpt>
      <trkpt lat="47.31257" lon="-1.59542">
        <ele>62.34629</ele>
        <time>2012-05-13T08:56:43Z</time>
      </trkpt>
      <trkpt lat="47.31266" lon="-1.59566">
        <ele>62.01097</ele>
        <time>2012-05-13T08:56:55Z</time>
      </trkpt>
      <trkpt lat="47.31277" lon="-1.59589">
        <ele>62.000618</ele>
        <time>2012-05-13T08:57:05Z</time>
      </trkpt>
      <trkpt lat="47.31285" lon="-1.59617">
        <ele>62.00006</ele>
        <time>2012-05-13T08:57:13Z</time>
      </trkpt>
      <trkpt lat="47.31288" lon="-1.59645">
        <ele>62.000004</ele>
        <time>2012-05-13T08:57:22Z</time>
      </trkpt>
      <trkpt lat="47.31292" lon="-1.59671">
        <ele>62.25</ele>
        <time>2012-05-13T08:57:29Z</time>
      </trkpt>
      <trkpt lat="47.31301" lon="-1.59699">
        <ele>62.866516</ele>
        <time>2012-05-13T08:57:35Z</time>
      </trkpt>
      <trkpt lat="47.31309" lon="-1.59724">
        <ele>63.554367</ele>
        <time>2012-05-13T08:57:41Z</time>
      </trkpt>
      <trkpt lat="47.31314" lon="-1.59752">
        <ele>63.940514</ele>
        <time>2012-05-13T08:57:48Z</time>
      </trkpt>
      <trkpt lat="47.31314" lon="-1.5978">
        <ele>65.44018</ele>
        <time>2012-05-13T08:57:57Z</time>
      </trkpt>
      <trkpt lat="47.31317" lon="-1.59808">
        <ele>67.203476</ele>
        <time>2012-05-13T08:58:05Z</time>
      </trkpt>
      <trkpt lat="47.31319" lon="-1.59836">
        <ele>69.199715</ele>
        <time>2012-05-13T08:58:14Z</time>
      </trkpt>
      <trkpt lat="47.31322" lon="-1.59864">
        <ele>71.57305</ele>
        <time>2012-05-13T08:58:35Z</time>
      </trkpt>
      <trkpt lat="47.31317" lon="-1.5989">
        <ele>71.55489</ele>
        <time>2012-05-13T08:58:49Z</time>
      </trkpt>
      <trkpt lat="47.31313" lon="-1.59915">
        <ele>71.00031</ele>
        <time>2012-05-13T08:59:15Z</time>
      </trkpt>
      <trkpt lat="47.31314" lon="-1.59943">
        <ele>70.10012</ele>
        <time>2012-05-13T08:59:27Z</time>
      </trkpt>
      <trkpt lat="47.313" lon="-1.59961">
        <ele>70.00238</ele>
        <time>2012-05-13T08:59:40Z</time>
      </trkpt>
      <trkpt lat="47.31294" lon="-1.59935">
        <ele>69.00424</ele>
        <time>2012-05-13T08:59:59Z</time>
      </trkpt>
      <trkpt lat="47.31286" lon="-1.59911">
        <ele>69.000046</ele>
        <time>2012-05-13T09:00:15Z</time>
      </trkpt>
      <trkpt lat="47.31273" lon="-1.59892">
        <ele>69.866516</ele>
        <time>2012-05-13T09:00:28Z</time>
      </trkpt>
      <trkpt lat="47.31286" lon="-1.59873">
        <ele>70.97491</ele>
        <time>2012-05-13T09:00:44Z</time>
      </trkpt>
      <trkpt lat="47.31301" lon="-1.59858">
        <ele>70.99859</ele>
        <time>2012-05-13T09:00:54Z</time>
      </trkpt>
      <trkpt lat="47.31306" lon="-1.59832">
        <ele>71.6834</ele>
        <time>2012-05-13T09:01:01Z</time>
      </trkpt>
      <trkpt lat="47.31305" lon="-1.59804">
        <ele>72.39524</ele>
        <time>2012-05-13T09:01:08Z</time>
      </trkpt>
      <trkpt lat="47.31301" lon="-1.59776">
        <ele>73.329865</ele>
        <time>2012-05-13T09:01:14Z</time>
      </trkpt>
      <trkpt lat="47.31297" lon="-1.59746">
        <ele>73.84097</ele>
        <time>2012-05-13T09:01:19Z</time>
      </trkpt>
      <trkpt lat="47.31291" lon="-1.5972">
        <ele>73.949684</ele>
        <time>2012-05-13T09:01:23Z</time>
      </trkpt>
      <trkpt lat="47.31286" lon="-1.59694">
        <ele>74.67464</ele>
        <time>2012-05-13T09:01:29Z</time>
      </trkpt>
      <trkpt lat="47.3128" lon="-1.59669">
        <ele>75.394066</ele>
        <time>2012-05-13T09:01:36Z</time>
      </trkpt>
      <trkpt lat="47.31279" lon="-1.59641">
        <ele>76.392006</ele>
        <time>2012-05-13T09:01:45Z</time>
      </trkpt>
      <trkpt lat="47.3128" lon="-1.59613">
        <ele>76.93913</ele>
        <time>2012-05-13T09:01:53Z</time>
      </trkpt>
      <trkpt lat="47.31272" lon="-1.59587">
        <ele>76.17653</ele>
        <time>2012-05-13T09:02:06Z</time>
      </trkpt>
      <trkpt lat="47.3126" lon="-1.59566">
        <ele>75.18792</ele>
        <time>2012-05-13T09:02:16Z</time>
      </trkpt>
      <trkpt lat="47.31242" lon="-1.59564">
        <ele>75.01058</ele>
        <time>2012-05-13T09:02:26Z</time>
      </trkpt>
      <trkpt lat="47.31227" lon="-1.59579">
        <ele>75.00045</ele>
        <time>2012-05-13T09:02:37Z</time>
      </trkpt>
      <trkpt lat="47.31209" lon="-1.59589">
        <ele>74.23732</ele>
        <time>2012-05-13T09:02:49Z</time>
      </trkpt>
      <trkpt lat="47.3119" lon="-1.59596">
        <ele>73.34808</ele>
        <time>2012-05-13T09:02:56Z</time>
      </trkpt>
      <trkpt lat="47.31172" lon="-1.59602">
        <ele>72.20412</ele>
        <time>2012-05-13T09:03:05Z</time>
      </trkpt>
      <trkpt lat="47.31154" lon="-1.59606">
        <ele>71.52791</ele>
        <time>2012-05-13T09:03:14Z</time>
      </trkpt>
      <trkpt lat="47.31165" lon="-1.59581">
        <ele>71.952736</ele>
        <time>2012-05-13T09:03:22Z</time>
      </trkpt>
      <trkpt lat="47.31185" lon="-1.59555">
        <ele>72.56691</ele>
        <time>2012-05-13T09:03:27Z</time>
      </trkpt>
      <trkpt lat="47.31204" lon="-1.59542">
        <ele>73.44109</ele>
        <time>2012-05-13T09:03:31Z</time>
      </trkpt>
      <trkpt lat="47.31213" lon="-1.59518">
        <ele>74.70062</ele>
        <time>2012-05-13T09:03:43Z</time>
      </trkpt>
      <trkpt lat="47.31192" lon="-1.59508">
        <ele>73.84352</ele>
        <time>2012-05-13T09:03:50Z</time>
      </trkpt>
      <trkpt lat="47.31167" lon="-1.59512">
        <ele>71.84512</ele>
        <time>2012-05-13T09:04:03Z</time>
      </trkpt>
      <trkpt lat="47.31147" lon="-1.59523">
        <ele>70.22557</ele>
        <time>2012-05-13T09:04:13Z</time>
      </trkpt>
      <trkpt lat="47.31126" lon="-1.59529">
        <ele>69.10726</ele>
        <time>2012-05-13T09:04:25Z</time>
      </trkpt>
      <trkpt lat="47.311" lon="-1.59536">
        <ele>68.04414</ele>
        <time>2012-05-13T09:04:39Z</time>
      </trkpt>
      <trkpt lat="47.31076" lon="-1.59531">
        <ele>70.04283</ele>
        <time>2012-05-13T09:04:51Z</time>
      </trkpt>
      <trkpt lat="47.31057" lon="-1.59529">
        <ele>72.0862</ele>
        <time>2012-05-13T09:05:03Z</time>
      </trkpt>
      <trkpt lat="47.31035" lon="-1.59529">
        <ele>74.588684</ele>
        <time>2012-05-13T09:05:14Z</time>
      </trkpt>
      <trkpt lat="47.3101" lon="-1.59516">
        <ele>75.859184</ele>
        <time>2012-05-13T09:05:28Z</time>
      </trkpt>
      <trkpt lat="47.30991" lon="-1.59501">
        <ele>77.113174</ele>
        <time>2012-05-13T09:05:41Z</time>
      </trkpt>
      <trkpt lat="47.30974" lon="-1.59493">
        <ele>79.636116</ele>
        <time>2012-05-13T09:05:55Z</time>
      </trkpt>
      <trkpt lat="47.30955" lon="-1.5948">
        <ele>80.85499</ele>
        <time>2012-05-13T09:06:07Z</time>
      </trkpt>
      <trkpt lat="47.30939" lon="-1.59465">
        <ele>82.63792</ele>
        <time>2012-05-13T09:06:20Z</time>
      </trkpt>
      <trkpt lat="47.30944" lon="-1.59437">
        <ele>84.73621</ele>
        <time>2012-05-13T09:06:37Z</time>
      </trkpt>
      <trkpt lat="47.30961" lon="-1.59428">
        <ele>85.8185</ele>
        <time>2012-05-13T09:06:52Z</time>
      </trkpt>
      <trkpt lat="47.30968" lon="-1.59403">
        <ele>86.942665</ele>
        <time>2012-05-13T09:07:10Z</time>
      </trkpt>
      <trkpt lat="47.30982" lon="-1.5942">
        <ele>88.207756</ele>
        <time>2012-05-13T09:07:40Z</time>
      </trkpt>
      <trkpt lat="47.30993" lon="-1.59441">
        <ele>88.99554</ele>
        <time>2012-05-13T09:07:58Z</time>
      </trkpt>
      <trkpt lat="47.31001" lon="-1.59418">
        <ele>88.99997</ele>
        <time>2012-05-13T09:08:15Z</time>
      </trkpt>
      <trkpt lat="47.31006" lon="-1.59392">
        <ele>90.85315</ele>
        <time>2012-05-13T09:09:25Z</time>
      </trkpt>
      <trkpt lat="47.31015" lon="-1.59368">
        <ele>91.98888</ele>
        <time>2012-05-13T09:09:42Z</time>
      </trkpt>
      <trkpt lat="47.31018" lon="-1.5934">
        <ele>91.56248</ele>
        <time>2012-05-13T09:10:04Z</time>
      </trkpt>
      <trkpt lat="47.31026" lon="-1.59317">
        <ele>91.02376</ele>
        <time>2012-05-13T09:10:15Z</time>
      </trkpt>
      <trkpt lat="47.31018" lon="-1.59293">
        <ele>91.00101</ele>
        <time>2012-05-13T09:10:26Z</time>
      </trkpt>
      <trkpt lat="47.31008" lon="-1.5927">
        <ele>91.00005</ele>
        <time>2012-05-13T09:10:36Z</time>
      </trkpt>
      <trkpt lat="47.31" lon="-1.59242">
        <ele>91.00001</ele>
        <time>2012-05-13T09:10:44Z</time>
      </trkpt>
      <trkpt lat="47.30992" lon="-1.59216">
        <ele>91</ele>
        <time>2012-05-13T09:10:50Z</time>
      </trkpt>
      <trkpt lat="47.30976" lon="-1.59194">
        <ele>90.237305</ele>
        <time>2012-05-13T09:10:56Z</time>
      </trkpt>
      <trkpt lat="47.3096" lon="-1.59209">
        <ele>90.03168</ele>
        <time>2012-05-13T09:11:03Z</time>
      </trkpt>
      <trkpt lat="47.30944" lon="-1.59227">
        <ele>89.13666</ele>
        <time>2012-05-13T09:11:11Z</time>
      </trkpt>
      <trkpt lat="47.30929" lon="-1.59244">
        <ele>89.01026</ele>
        <time>2012-05-13T09:11:20Z</time>
      </trkpt>
      <trkpt lat="47.30917" lon="-1.59265">
        <ele>88.238335</ele>
        <time>2012-05-13T09:11:28Z</time>
      </trkpt>
      <trkpt lat="47.30903" lon="-1.59285">
        <ele>88.0179</ele>
        <time>2012-05-13T09:11:37Z</time>
      </trkpt>
      <trkpt lat="47.3089" lon="-1.59306">
        <ele>88.25179</ele>
        <time>2012-05-13T09:11:45Z</time>
      </trkpt>
      <trkpt lat="47.30886" lon="-1.59332">
        <ele>89.44496</ele>
        <time>2012-05-13T09:11:51Z</time>
      </trkpt>
      <trkpt lat="47.30887" lon="-1.59362">
        <ele>90.609505</ele>
        <time>2012-05-13T09:11:58Z</time>
      </trkpt>
      <trkpt lat="47.30883" lon="-1.5939">
        <ele>91.6445</ele>
        <time>2012-05-13T09:12:06Z</time>
      </trkpt>
      <trkpt lat="47.30864" lon="-1.59392">
        <ele>91.96441</ele>
        <time>2012-05-13T09:12:14Z</time>
      </trkpt>
      <trkpt lat="47.30845" lon="-1.59388">
        <ele>92.81727</ele>
        <time>2012-05-13T09:12:21Z</time>
      </trkpt>
      <trkpt lat="47.30827" lon="-1.59385">
        <ele>92.967476</ele>
        <time>2012-05-13T09:12:27Z</time>
      </trkpt>
      <trkpt lat="47.30808" lon="-1.59383">
        <ele>92.99566</ele>
        <time>2012-05-13T09:12:34Z</time>
      </trkpt>
      <trkpt lat="47.30789" lon="-1.59383">
        <ele>92.999565</ele>
        <time>2012-05-13T09:12:42Z</time>
      </trkpt>
      <trkpt lat="47.30769" lon="-1.5939">
        <ele>93.86647</ele>
        <time>2012-05-13T09:12:50Z</time>
      </trkpt>
      <trkpt lat="47.30748" lon="-1.59394">
        <ele>93.98663</ele>
        <time>2012-05-13T09:12:58Z</time>
      </trkpt>
      <trkpt lat="47.30729" lon="-1.59398">
        <ele>94.760315</ele>
        <time>2012-05-13T09:13:04Z</time>
      </trkpt>
      <trkpt lat="47.30709" lon="-1.59398">
        <ele>94.957344</ele>
        <time>2012-05-13T09:13:10Z</time>
      </trkpt>
      <trkpt lat="47.30688" lon="-1.59396">
        <ele>95.860825</ele>
        <time>2012-05-13T09:13:17Z</time>
      </trkpt>
      <trkpt lat="47.30668" lon="-1.5939">
        <ele>96.66273</ele>
        <time>2012-05-13T09:13:23Z</time>
      </trkpt>
      <trkpt lat="47.3065" lon="-1.59385">
        <ele>98.15501</ele>
        <time>2012-05-13T09:13:27Z</time>
      </trkpt>
      <trkpt lat="47.30628" lon="-1.59379">
        <ele>99.41623</ele>
        <time>2012-05-13T09:13:31Z</time>
      </trkpt>
      <trkpt lat="47.30609" lon="-1.59375">
        <ele>100.33185</ele>
        <time>2012-05-13T09:13:34Z</time>
      </trkpt>
      <trkpt lat="47.30588" lon="-1.5937">
        <ele>100.718124</ele>
        <time>2012-05-13T09:13:37Z</time>
      </trkpt>
      <trkpt lat="47.30568" lon="-1.59364">
        <ele>101.021706</ele>
        <time>2012-05-13T09:13:40Z</time>
      </trkpt>
      <trkpt lat="47.30547" lon="-1.5936">
        <ele>101.009155</ele>
        <time>2012-05-13T09:13:43Z</time>
      </trkpt>
      <trkpt lat="47.30526" lon="-1.59358">
        <ele>100.56636</ele>
        <time>2012-05-13T09:13:46Z</time>
      </trkpt>
      <trkpt lat="47.30508" lon="-1.5936">
        <ele>99.80144</ele>
        <time>2012-05-13T09:13:49Z</time>
      </trkpt>
      <trkpt lat="47.3049" lon="-1.5936">
        <ele>99.25358</ele>
        <time>2012-05-13T09:13:53Z</time>
      </trkpt>
      <trkpt lat="47.30484" lon="-1.5933">
        <ele>98.02116</ele>
        <time>2012-05-13T09:14:00Z</time>
      </trkpt>
      <trkpt lat="47.30485" lon="-1.59302">
        <ele>96.6642</ele>
        <time>2012-05-13T09:14:05Z</time>
      </trkpt>
      <trkpt lat="47.30488" lon="-1.59272">
        <ele>94.566795</ele>
        <time>2012-05-13T09:14:10Z</time>
      </trkpt>
      <trkpt lat="47.30491" lon="-1.59242">
        <ele>92.793686</ele>
        <time>2012-05-13T09:14:15Z</time>
      </trkpt>
      <trkpt lat="47.30496" lon="-1.59216">
        <ele>92.18835</ele>
        <time>2012-05-13T09:14:20Z</time>
      </trkpt>
      <trkpt lat="47.30507" lon="-1.59194">
        <ele>91.282</ele>
        <time>2012-05-13T09:14:25Z</time>
      </trkpt>
      <trkpt lat="47.3052" lon="-1.59173">
        <ele>90.23879</ele>
        <time>2012-05-13T09:14:30Z</time>
      </trkpt>
      <trkpt lat="47.30529" lon="-1.59149">
        <ele>88.813835</ele>
        <time>2012-05-13T09:14:34Z</time>
      </trkpt>
      <trkpt lat="47.30537" lon="-1.59124">
        <ele>87.136406</ele>
        <time>2012-05-13T09:14:38Z</time>
      </trkpt>
      <trkpt lat="47.30539" lon="-1.59096">
        <ele>86.16421</ele>
        <time>2012-05-13T09:14:43Z</time>
      </trkpt>
      <trkpt lat="47.30524" lon="-1.59079">
        <ele>85.58442</ele>
        <time>2012-05-13T09:14:50Z</time>
      </trkpt>
      <trkpt lat="47.30523" lon="-1.59051">
        <ele>85.07801</ele>
        <time>2012-05-13T09:14:57Z</time>
      </trkpt>
      <trkpt lat="47.30529" lon="-1.59023">
        <ele>84.31888</ele>
        <time>2012-05-13T09:15:09Z</time>
      </trkpt>
      <trkpt lat="47.30537" lon="-1.58991">
        <ele>83.08266</ele>
        <time>2012-05-13T09:15:22Z</time>
      </trkpt>
      <trkpt lat="47.30551" lon="-1.58971">
        <ele>82.23992</ele>
        <time>2012-05-13T09:15:34Z</time>
      </trkpt>
      <trkpt lat="47.30559" lon="-1.58941">
        <ele>80.94149</ele>
        <time>2012-05-13T09:15:44Z</time>
      </trkpt>
      <trkpt lat="47.3055" lon="-1.58913">
        <ele>78.750786</ele>
        <time>2012-05-13T09:16:13Z</time>
      </trkpt>
      <trkpt lat="47.30535" lon="-1.58894">
        <ele>78.13362</ele>
        <time>2012-05-13T09:16:19Z</time>
      </trkpt>
      <trkpt lat="47.30517" lon="-1.58905">
        <ele>78.000175</ele>
        <time>2012-05-13T09:16:42Z</time>
      </trkpt>
      <trkpt lat="47.30495" lon="-1.58926">
        <ele>77.17798</ele>
        <time>2012-05-13T09:17:00Z</time>
      </trkpt>
      <trkpt lat="47.30479" lon="-1.58913">
        <ele>79.16553</ele>
        <time>2012-05-13T09:17:50Z</time>
      </trkpt>
      <trkpt lat="47.30461" lon="-1.5892">
        <ele>79.98513</ele>
        <time>2012-05-13T09:18:04Z</time>
      </trkpt>
      <trkpt lat="47.30443" lon="-1.58924">
        <ele>79.02372</ele>
        <time>2012-05-13T09:18:25Z</time>
      </trkpt>
      <trkpt lat="47.30425" lon="-1.58933">
        <ele>78.0428</ele>
        <time>2012-05-13T09:18:38Z</time>
      </trkpt>
      <trkpt lat="47.30408" lon="-1.58946">
        <ele>78.00076</ele>
        <time>2012-05-13T09:18:52Z</time>
      </trkpt>
      <trkpt lat="47.3039" lon="-1.58954">
        <ele>78.76277</ele>
        <time>2012-05-13T09:19:00Z</time>
      </trkpt>
      <trkpt lat="47.30372" lon="-1.58961">
        <ele>80.31957</ele>
        <time>2012-05-13T09:19:09Z</time>
      </trkpt>
      <trkpt lat="47.30353" lon="-1.58965">
        <ele>81.63251</ele>
        <time>2012-05-13T09:19:18Z</time>
      </trkpt>
      <trkpt lat="47.30334" lon="-1.58969">
        <ele>82.83892</ele>
        <time>2012-05-13T09:19:27Z</time>
      </trkpt>
      <trkpt lat="47.30317" lon="-1.58978">
        <ele>84.32126</ele>
        <time>2012-05-13T09:19:35Z</time>
      </trkpt>
      <trkpt lat="47.30299" lon="-1.58988">
        <ele>85.3469</ele>
        <time>2012-05-13T09:19:42Z</time>
      </trkpt>
      <trkpt lat="47.30282" lon="-1.58997">
        <ele>85.88376</ele>
        <time>2012-05-13T09:19:48Z</time>
      </trkpt>
      <trkpt lat="47.30262" lon="-1.58999">
        <ele>86.80133</ele>
        <time>2012-05-13T09:19:54Z</time>
      </trkpt>
      <trkpt lat="47.30242" lon="-1.58995">
        <ele>87.657074</ele>
        <time>2012-05-13T09:20:01Z</time>
      </trkpt>
      <trkpt lat="47.30222" lon="-1.58988">
        <ele>88.20422</ele>
        <time>2012-05-13T09:20:08Z</time>
      </trkpt>
      <trkpt lat="47.30202" lon="-1.58984">
        <ele>89.82678</ele>
        <time>2012-05-13T09:20:13Z</time>
      </trkpt>
      <trkpt lat="47.30182" lon="-1.5898">
        <ele>91.40518</ele>
        <time>2012-05-13T09:20:18Z</time>
      </trkpt>
      <trkpt lat="47.30161" lon="-1.5898">
        <ele>92.43697</ele>
        <time>2012-05-13T09:20:23Z</time>
      </trkpt>
      <trkpt lat="47.30141" lon="-1.5898">
        <ele>92.866394</ele>
        <time>2012-05-13T09:20:28Z</time>
      </trkpt>
      <trkpt lat="47.30123" lon="-1.58978">
        <ele>92.96829</ele>
        <time>2012-05-13T09:20:33Z</time>
      </trkpt>
      <trkpt lat="47.30105" lon="-1.5898">
        <ele>92.99248</ele>
        <time>2012-05-13T09:20:38Z</time>
      </trkpt>
      <trkpt lat="47.30086" lon="-1.58986">
        <ele>92.23552</ele>
        <time>2012-05-13T09:20:43Z</time>
      </trkpt>
      <trkpt lat="47.30066" lon="-1.58995">
        <ele>91.268745</ele>
        <time>2012-05-13T09:20:50Z</time>
      </trkpt>
      <trkpt lat="47.3005" lon="-1.59008">
        <ele>90.34331</ele>
        <time>2012-05-13T09:20:58Z</time>
      </trkpt>
      <trkpt lat="47.30042" lon="-1.59034">
        <ele>90.0145</ele>
        <time>2012-05-13T09:21:09Z</time>
      </trkpt>
      <trkpt lat="47.3005" lon="-1.59059">
        <ele>90.00258</ele>
        <time>2012-05-13T09:21:15Z</time>
      </trkpt>
      <trkpt lat="47.30058" lon="-1.59087">
        <ele>90.76315</ele>
        <time>2012-05-13T09:21:21Z</time>
      </trkpt>
      <trkpt lat="47.30066" lon="-1.59113">
        <ele>91.790405</ele>
        <time>2012-05-13T09:21:28Z</time>
      </trkpt>
      <trkpt lat="47.30077" lon="-1.59139">
        <ele>93.08854</ele>
        <time>2012-05-13T09:21:35Z</time>
      </trkpt>
      <trkpt lat="47.30092" lon="-1.59162">
        <ele>94.337776</ele>
        <time>2012-05-13T09:21:41Z</time>
      </trkpt>
      <trkpt lat="47.30105" lon="-1.59188">
        <ele>98.06746</ele>
        <time>2012-05-13T09:21:46Z</time>
      </trkpt>
      <trkpt lat="47.30116" lon="-1.59209">
        <ele>100.07213</ele>
        <time>2012-05-13T09:21:50Z</time>
      </trkpt>
      <trkpt lat="47.30129" lon="-1.5924">
        <ele>101.14001</ele>
        <time>2012-05-13T09:21:54Z</time>
      </trkpt>
      <trkpt lat="47.30135" lon="-1.59265">
        <ele>101.63719</ele>
        <time>2012-05-13T09:21:57Z</time>
      </trkpt>
      <trkpt lat="47.3014" lon="-1.59291">
        <ele>101.018814</ele>
        <time>2012-05-13T09:22:00Z</time>
      </trkpt>
      <trkpt lat="47.30149" lon="-1.59323">
        <ele>99.45126</ele>
        <time>2012-05-13T09:22:04Z</time>
      </trkpt>
      <trkpt lat="47.30157" lon="-1.59351">
        <ele>98.56466</ele>
        <time>2012-05-13T09:22:08Z</time>
      </trkpt>
      <trkpt lat="47.30167" lon="-1.59377">
        <ele>98.133995</ele>
        <time>2012-05-13T09:22:13Z</time>
      </trkpt>
      <trkpt lat="47.30175" lon="-1.59403">
        <ele>98.0318</ele>
        <time>2012-05-13T09:22:18Z</time>
      </trkpt>
      <trkpt lat="47.30185" lon="-1.59428">
        <ele>97.57256</ele>
        <time>2012-05-13T09:22:22Z</time>
      </trkpt>
      <trkpt lat="47.30196" lon="-1.59454">
        <ele>97.18116</ele>
        <time>2012-05-13T09:22:26Z</time>
      </trkpt>
      <trkpt lat="47.30205" lon="-1.59486">
        <ele>97.05732</ele>
        <time>2012-05-13T09:22:30Z</time>
      </trkpt>
      <trkpt lat="47.30213" lon="-1.59512">
        <ele>97.024185</ele>
        <time>2012-05-13T09:22:33Z</time>
      </trkpt>
      <trkpt lat="47.30223" lon="-1.59542">
        <ele>97.691246</ele>
        <time>2012-05-13T09:22:37Z</time>
      </trkpt>
      <trkpt lat="47.30231" lon="-1.59568">
        <ele>98.5859</ele>
        <time>2012-05-13T09:22:41Z</time>
      </trkpt>
      <trkpt lat="47.30239" lon="-1.59596">
        <ele>99.15173</ele>
        <time>2012-05-13T09:22:46Z</time>
      </trkpt>
      <trkpt lat="47.30243" lon="-1.59624">
        <ele>99.84903</ele>
        <time>2012-05-13T09:22:52Z</time>
      </trkpt>
      <trkpt lat="47.30247" lon="-1.59649">
        <ele>99.96417</ele>
        <time>2012-05-13T09:22:57Z</time>
      </trkpt>
      <trkpt lat="47.3025" lon="-1.59684">
        <ele>99.1716</ele>
        <time>2012-05-13T09:23:03Z</time>
      </trkpt>
      <trkpt lat="47.30261" lon="-1.59712">
        <ele>98.47617</ele>
        <time>2012-05-13T09:23:07Z</time>
      </trkpt>
      <trkpt lat="47.30282" lon="-1.59729">
        <ele>98.588165</ele>
        <time>2012-05-13T09:23:11Z</time>
      </trkpt>
      <trkpt lat="47.30297" lon="-1.59744">
        <ele>98.86969</ele>
        <time>2012-05-13T09:23:15Z</time>
      </trkpt>
      <trkpt lat="47.30312" lon="-1.59767">
        <ele>98.285484</ele>
        <time>2012-05-13T09:23:20Z</time>
      </trkpt>
      <trkpt lat="47.30322" lon="-1.59791">
        <ele>97.36722</ele>
        <time>2012-05-13T09:23:26Z</time>
      </trkpt>
      <trkpt lat="47.30335" lon="-1.59815">
        <ele>97.04902</ele>
        <time>2012-05-13T09:23:33Z</time>
      </trkpt>
      <trkpt lat="47.3035" lon="-1.59832">
        <ele>97.006546</ele>
        <time>2012-05-13T09:23:40Z</time>
      </trkpt>
      <trkpt lat="47.30367" lon="-1.59845">
        <ele>97.00087</ele>
        <time>2012-05-13T09:23:47Z</time>
      </trkpt>
      <trkpt lat="47.30385" lon="-1.59855">
        <ele>97.68375</ele>
        <time>2012-05-13T09:23:53Z</time>
      </trkpt>
      <trkpt lat="47.30397" lon="-1.59877">
        <ele>97.96834</ele>
        <time>2012-05-13T09:24:01Z</time>
      </trkpt>
      <trkpt lat="47.304" lon="-1.59907">
        <ele>99.14751</ele>
        <time>2012-05-13T09:24:10Z</time>
      </trkpt>
      <trkpt lat="47.30407" lon="-1.59935">
        <ele>100.18599</ele>
        <time>2012-05-13T09:24:19Z</time>
      </trkpt>
      <trkpt lat="47.30416" lon="-1.59958">
        <ele>100.70677</ele>
        <time>2012-05-13T09:24:26Z</time>
      </trkpt>
      <trkpt lat="47.30428" lon="-1.59982">
        <ele>100.947815</ele>
        <time>2012-05-13T09:24:32Z</time>
      </trkpt>
      <trkpt lat="47.30443" lon="-1.59999">
        <ele>101.75031</ele>
        <time>2012-05-13T09:24:37Z</time>
      </trkpt>
      <trkpt lat="47.30463" lon="-1.60006">
        <ele>102.703445</ele>
        <time>2012-05-13T09:24:42Z</time>
      </trkpt>
      <trkpt lat="47.30483" lon="-1.60003">
        <ele>103.76924</ele>
        <time>2012-05-13T09:24:48Z</time>
      </trkpt>
      <trkpt lat="47.30502" lon="-1.60001">
        <ele>105.20793</ele>
        <time>2012-05-13T09:24:53Z</time>
      </trkpt>
      <trkpt lat="47.30521" lon="-1.60001">
        <ele>108.382195</ele>
        <time>2012-05-13T09:24:57Z</time>
      </trkpt>
      <trkpt lat="47.3054" lon="-1.60001">
        <ele>110.74984</ele>
        <time>2012-05-13T09:25:01Z</time>
      </trkpt>
      <trkpt lat="47.30561" lon="-1.59997">
        <ele>111.70333</ele>
        <time>2012-05-13T09:25:06Z</time>
      </trkpt>
      <trkpt lat="47.30582" lon="-1.59988">
        <ele>111.906136</ele>
        <time>2012-05-13T09:25:10Z</time>
      </trkpt>
      <trkpt lat="47.30602" lon="-1.5998">
        <ele>111.960396</ele>
        <time>2012-05-13T09:25:13Z</time>
      </trkpt>
      <trkpt lat="47.30623" lon="-1.59971">
        <ele>111.98329</ele>
        <time>2012-05-13T09:25:16Z</time>
      </trkpt>
      <trkpt lat="47.30643" lon="-1.59961">
        <ele>111.30545</ele>
        <time>2012-05-13T09:25:19Z</time>
      </trkpt>
      <trkpt lat="47.30661" lon="-1.59952">
        <ele>109.72261</ele>
        <time>2012-05-13T09:25:22Z</time>
      </trkpt>
      <trkpt lat="47.3068" lon="-1.59945">
        <ele>107.898605</ele>
        <time>2012-05-13T09:25:25Z</time>
      </trkpt>
      <trkpt lat="47.30701" lon="-1.59937">
        <ele>106.16323</ele>
        <time>2012-05-13T09:25:29Z</time>
      </trkpt>
      <trkpt lat="47.3072" lon="-1.59928">
        <ele>104.539925</ele>
        <time>2012-05-13T09:25:33Z</time>
      </trkpt>
      <trkpt lat="47.30739" lon="-1.5992">
        <ele>102.90912</ele>
        <time>2012-05-13T09:25:37Z</time>
      </trkpt>
      <trkpt lat="47.30757" lon="-1.59907">
        <ele>102.38354</ele>
        <time>2012-05-13T09:25:40Z</time>
      </trkpt>
      <trkpt lat="47.30776" lon="-1.59896">
        <ele>101.911804</ele>
        <time>2012-05-13T09:25:43Z</time>
      </trkpt>
      <trkpt lat="47.30798" lon="-1.59885">
        <ele>101.38467</ele>
        <time>2012-05-13T09:25:46Z</time>
      </trkpt>
      <trkpt lat="47.30821" lon="-1.59873">
        <ele>101.162285</ele>
        <time>2012-05-13T09:25:49Z</time>
      </trkpt>
      <trkpt lat="47.30839" lon="-1.59864">
        <ele>100.403786</ele>
        <time>2012-05-13T09:25:51Z</time>
      </trkpt>
      <trkpt lat="47.30857" lon="-1.59853">
        <ele>99.78963</ele>
        <time>2012-05-13T09:25:53Z</time>
      </trkpt>
      <trkpt lat="47.30877" lon="-1.59836">
        <ele>98.755</ele>
        <time>2012-05-13T09:25:56Z</time>
      </trkpt>
      <trkpt lat="47.30895" lon="-1.59825">
        <ele>97.98719</ele>
        <time>2012-05-13T09:25:58Z</time>
      </trkpt>
      <trkpt lat="47.30912" lon="-1.59815">
        <ele>96.86779</ele>
        <time>2012-05-13T09:26:00Z</time>
      </trkpt>
      <trkpt lat="47.30931" lon="-1.59806">
        <ele>95.36314</ele>
        <time>2012-05-13T09:26:02Z</time>
      </trkpt>
      <trkpt lat="47.30955" lon="-1.59795">
        <ele>93.16882</ele>
        <time>2012-05-13T09:26:05Z</time>
      </trkpt>
      <trkpt lat="47.30976" lon="-1.59782">
        <ele>91.22747</ele>
        <time>2012-05-13T09:26:08Z</time>
      </trkpt>
      <trkpt lat="47.30994" lon="-1.59772">
        <ele>88.26687</ele>
        <time>2012-05-13T09:26:13Z</time>
      </trkpt>
      <trkpt lat="47.30999" lon="-1.598">
        <ele>87.22548</ele>
        <time>2012-05-13T09:26:19Z</time>
      </trkpt>
      <trkpt lat="47.31003" lon="-1.59827">
        <ele>85.60331</ele>
        <time>2012-05-13T09:26:24Z</time>
      </trkpt>
      <trkpt lat="47.31006" lon="-1.59855">
        <ele>82.49668</ele>
        <time>2012-05-13T09:26:29Z</time>
      </trkpt>
      <trkpt lat="47.31005" lon="-1.59885">
        <ele>80.44436</ele>
        <time>2012-05-13T09:26:35Z</time>
      </trkpt>
      <trkpt lat="47.31008" lon="-1.59913">
        <ele>80.05931</ele>
        <time>2012-05-13T09:26:42Z</time>
      </trkpt>
      <trkpt lat="47.31012" lon="-1.59941">
        <ele>79.18854</ele>
        <time>2012-05-13T09:26:48Z</time>
      </trkpt>
      <trkpt lat="47.31015" lon="-1.59969">
        <ele>79.02517</ele>
        <time>2012-05-13T09:26:55Z</time>
      </trkpt>
      <trkpt lat="47.3102" lon="-1.59995">
        <ele>79.00448</ele>
        <time>2012-05-13T09:27:01Z</time>
      </trkpt>
      <trkpt lat="47.31024" lon="-1.60021">
        <ele>79.57872</ele>
        <time>2012-05-13T09:27:08Z</time>
      </trkpt>
      <trkpt lat="47.3103" lon="-1.60046">
        <ele>79.94376</ele>
        <time>2012-05-13T09:27:15Z</time>
      </trkpt>
      <trkpt lat="47.31041" lon="-1.60068">
        <ele>80.85901</ele>
        <time>2012-05-13T09:27:22Z</time>
      </trkpt>
      <trkpt lat="47.31053" lon="-1.60091">
        <ele>81.41241</ele>
        <time>2012-05-13T09:27:28Z</time>
      </trkpt>
      <trkpt lat="47.31067" lon="-1.60113">
        <ele>83.40104</ele>
        <time>2012-05-13T09:27:34Z</time>
      </trkpt>
      <trkpt lat="47.31082" lon="-1.6013">
        <ele>85.11958</ele>
        <time>2012-05-13T09:27:39Z</time>
      </trkpt>
      <trkpt lat="47.31092" lon="-1.60156">
        <ele>86.47466</ele>
        <time>2012-05-13T09:27:44Z</time>
      </trkpt>
      <trkpt lat="47.31102" lon="-1.60182">
        <ele>87.88803</ele>
        <time>2012-05-13T09:27:49Z</time>
      </trkpt>
      <trkpt lat="47.31112" lon="-1.60207">
        <ele>89.49882</ele>
        <time>2012-05-13T09:27:54Z</time>
      </trkpt>
      <trkpt lat="47.31121" lon="-1.60231">
        <ele>90.56466</ele>
        <time>2012-05-13T09:27:59Z</time>
      </trkpt>
      <trkpt lat="47.31129" lon="-1.60257">
        <ele>90.89669</ele>
        <time>2012-05-13T09:28:04Z</time>
      </trkpt>
      <trkpt lat="47.31139" lon="-1.60282">
        <ele>90.72549</ele>
        <time>2012-05-13T09:28:09Z</time>
      </trkpt>
      <trkpt lat="47.31148" lon="-1.60306">
        <ele>90.479546</ele>
        <time>2012-05-13T09:28:13Z</time>
      </trkpt>
      <trkpt lat="47.31158" lon="-1.6033">
        <ele>90.78043</ele>
        <time>2012-05-13T09:28:16Z</time>
      </trkpt>
      <trkpt lat="47.31169" lon="-1.60353">
        <ele>90.90737</ele>
        <time>2012-05-13T09:28:19Z</time>
      </trkpt>
      <trkpt lat="47.31181" lon="-1.60383">
        <ele>90.3828</ele>
        <time>2012-05-13T09:28:22Z</time>
      </trkpt>
      <trkpt lat="47.31192" lon="-1.60413">
        <ele>89.91149</ele>
        <time>2012-05-13T09:28:25Z</time>
      </trkpt>
      <trkpt lat="47.31204" lon="-1.60439">
        <ele>88.80641</ele>
        <time>2012-05-13T09:28:28Z</time>
      </trkpt>
      <trkpt lat="47.31219" lon="-1.60456">
        <ele>87.76208</ele>
        <time>2012-05-13T09:28:31Z</time>
      </trkpt>
      <trkpt lat="47.31241" lon="-1.60463">
        <ele>86.55753</ele>
        <time>2012-05-13T09:28:35Z</time>
      </trkpt>
      <trkpt lat="47.31262" lon="-1.60456">
        <ele>86.17641</ele>
        <time>2012-05-13T09:28:39Z</time>
      </trkpt>
      <trkpt lat="47.31283" lon="-1.60448">
        <ele>86.05582</ele>
        <time>2012-05-13T09:28:43Z</time>
      </trkpt>
      <trkpt lat="47.31303" lon="-1.60435">
        <ele>86.013245</ele>
        <time>2012-05-13T09:28:48Z</time>
      </trkpt>
      <trkpt lat="47.31323" lon="-1.60424">
        <ele>85.42502</ele>
        <time>2012-05-13T09:28:53Z</time>
      </trkpt>
      <trkpt lat="47.31342" lon="-1.6042">
        <ele>85.10086</ele>
        <time>2012-05-13T09:28:58Z</time>
      </trkpt>
      <trkpt lat="47.31361" lon="-1.6042">
        <ele>85.02393</ele>
        <time>2012-05-13T09:29:03Z</time>
      </trkpt>
      <trkpt lat="47.3138" lon="-1.60424">
        <ele>85.76837</ele>
        <time>2012-05-13T09:29:08Z</time>
      </trkpt>
      <trkpt lat="47.31403" lon="-1.60433">
        <ele>86.62863</ele>
        <time>2012-05-13T09:29:13Z</time>
      </trkpt>
      <trkpt lat="47.31425" lon="-1.60443">
        <ele>86.88249</ele>
        <time>2012-05-13T09:29:17Z</time>
      </trkpt>
      <trkpt lat="47.31446" lon="-1.60458">
        <ele>86.512924</ele>
        <time>2012-05-13T09:29:20Z</time>
      </trkpt>
      <trkpt lat="47.31466" lon="-1.60484">
        <ele>86.21639</ele>
        <time>2012-05-13T09:29:23Z</time>
      </trkpt>
      <trkpt lat="47.31481" lon="-1.60503">
        <ele>85.93422</ele>
        <time>2012-05-13T09:29:25Z</time>
      </trkpt>
      <trkpt lat="47.31497" lon="-1.60527">
        <ele>86.213</ele>
        <time>2012-05-13T09:29:27Z</time>
      </trkpt>
      <trkpt lat="47.31511" lon="-1.60551">
        <ele>86.55731</ele>
        <time>2012-05-13T09:29:29Z</time>
      </trkpt>
      <trkpt lat="47.31526" lon="-1.60576">
        <ele>86.750984</ele>
        <time>2012-05-13T09:29:31Z</time>
      </trkpt>
      <trkpt lat="47.31538" lon="-1.60602">
        <ele>86.42243</ele>
        <time>2012-05-13T09:29:33Z</time>
      </trkpt>
      <trkpt lat="47.31549" lon="-1.6063">
        <ele>85.740715</ele>
        <time>2012-05-13T09:29:36Z</time>
      </trkpt>
      <trkpt lat="47.31556" lon="-1.60658">
        <ele>84.25214</ele>
        <time>2012-05-13T09:29:44Z</time>
      </trkpt>
      <trkpt lat="47.31535" lon="-1.60651">
        <ele>83.76065</ele>
        <time>2012-05-13T09:29:55Z</time>
      </trkpt>
      <trkpt lat="47.31516" lon="-1.60654">
        <ele>83.96775</ele>
        <time>2012-05-13T09:30:05Z</time>
      </trkpt>
      <trkpt lat="47.31498" lon="-1.60647">
        <ele>83.99968</ele>
        <time>2012-05-13T09:30:21Z</time>
      </trkpt>
      <trkpt lat="47.31478" lon="-1.60632">
        <ele>84.25</ele>
        <time>2012-05-13T09:30:44Z</time>
      </trkpt>
      <trkpt lat="47.31457" lon="-1.6063">
        <ele>85.859</ele>
        <time>2012-05-13T09:31:00Z</time>
      </trkpt>
      <trkpt lat="47.31438" lon="-1.60632">
        <ele>85.99749</ele>
        <time>2012-05-13T09:31:14Z</time>
      </trkpt>
      <trkpt lat="47.3142" lon="-1.60639">
        <ele>85.1779</ele>
        <time>2012-05-13T09:31:26Z</time>
      </trkpt>
      <trkpt lat="47.31395" lon="-1.60651">
        <ele>84.00639</ele>
        <time>2012-05-13T09:31:45Z</time>
      </trkpt>
      <trkpt lat="47.31378" lon="-1.6066">
        <ele>83.75064</ele>
        <time>2012-05-13T09:31:53Z</time>
      </trkpt>
      <trkpt lat="47.31357" lon="-1.60671">
        <ele>83.835396</ele>
        <time>2012-05-13T09:32:07Z</time>
      </trkpt>
      <trkpt lat="47.31333" lon="-1.60677">
        <ele>85.90022</ele>
        <time>2012-05-13T09:32:16Z</time>
      </trkpt>
      <trkpt lat="47.31315" lon="-1.60686">
        <ele>87.632385</ele>
        <time>2012-05-13T09:32:22Z</time>
      </trkpt>
      <trkpt lat="47.31298" lon="-1.60694">
        <ele>88.92546</ele>
        <time>2012-05-13T09:32:27Z</time>
      </trkpt>
      <trkpt lat="47.3128" lon="-1.60703">
        <ele>89.808754</ele>
        <time>2012-05-13T09:32:33Z</time>
      </trkpt>
      <trkpt lat="47.31262" lon="-1.60716">
        <ele>90.743546</ele>
        <time>2012-05-13T09:32:41Z</time>
      </trkpt>
      <trkpt lat="47.31243" lon="-1.6072">
        <ele>90.95436</ele>
        <time>2012-05-13T09:32:47Z</time>
      </trkpt>
      <trkpt lat="47.31223" lon="-1.6072">
        <ele>90.991875</ele>
        <time>2012-05-13T09:32:53Z</time>
      </trkpt>
      <trkpt lat="47.31204" lon="-1.60714">
        <ele>90.99855</ele>
        <time>2012-05-13T09:32:59Z</time>
      </trkpt>
      <trkpt lat="47.31186" lon="-1.60705">
        <ele>90.99974</ele>
        <time>2012-05-13T09:33:05Z</time>
      </trkpt>
      <trkpt lat="47.31167" lon="-1.60705">
        <ele>90.74994</ele>
        <time>2012-05-13T09:33:10Z</time>
      </trkpt>
      <trkpt lat="47.31148" lon="-1.60705">
        <ele>89.79978</ele>
        <time>2012-05-13T09:33:14Z</time>
      </trkpt>
      <trkpt lat="47.31128" lon="-1.60709">
        <ele>89.69056</ele>
        <time>2012-05-13T09:33:18Z</time>
      </trkpt>
      <trkpt lat="47.31107" lon="-1.60716">
        <ele>89.90209</ele>
        <time>2012-05-13T09:33:22Z</time>
      </trkpt>
      <trkpt lat="47.31086" lon="-1.60722">
        <ele>90.54714</ele>
        <time>2012-05-13T09:33:26Z</time>
      </trkpt>
      <trkpt lat="47.31063" lon="-1.60731">
        <ele>91.10671</ele>
        <time>2012-05-13T09:33:30Z</time>
      </trkpt>
      <trkpt lat="47.31039" lon="-1.60739">
        <ele>91.71736</ele>
        <time>2012-05-13T09:33:34Z</time>
      </trkpt>
      <trkpt lat="47.31018" lon="-1.60746">
        <ele>92.13076</ele>
        <time>2012-05-13T09:33:37Z</time>
      </trkpt>
      <trkpt lat="47.30993" lon="-1.60748">
        <ele>92.63329</ele>
        <time>2012-05-13T09:33:40Z</time>
      </trkpt>
      <trkpt lat="47.30967" lon="-1.60752">
        <ele>92.59529</ele>
        <time>2012-05-13T09:33:43Z</time>
      </trkpt>
      <trkpt lat="47.30949" lon="-1.60754">
        <ele>91.897354</ele>
        <time>2012-05-13T09:33:45Z</time>
      </trkpt>
      <trkpt lat="47.3093" lon="-1.60761">
        <ele>90.81726</ele>
        <time>2012-05-13T09:33:47Z</time>
      </trkpt>
      <trkpt lat="47.30912" lon="-1.60774">
        <ele>89.77221</ele>
        <time>2012-05-13T09:33:49Z</time>
      </trkpt>
      <trkpt lat="47.3089" lon="-1.60789">
        <ele>88.49765</ele>
        <time>2012-05-13T09:33:52Z</time>
      </trkpt>
      <trkpt lat="47.30871" lon="-1.60804">
        <ele>87.63182</ele>
        <time>2012-05-13T09:33:55Z</time>
      </trkpt>
      <trkpt lat="47.30852" lon="-1.60817">
        <ele>86.43842</ele>
        <time>2012-05-13T09:33:58Z</time>
      </trkpt>
      <trkpt lat="47.30832" lon="-1.6083">
        <ele>84.627</ele>
        <time>2012-05-13T09:34:02Z</time>
      </trkpt>
      <trkpt lat="47.30814" lon="-1.60827">
        <ele>82.94859</ele>
        <time>2012-05-13T09:34:07Z</time>
      </trkpt>
      <trkpt lat="47.30807" lon="-1.60802">
        <ele>82.126625</ele>
        <time>2012-05-13T09:34:14Z</time>
      </trkpt>
      <trkpt lat="47.30801" lon="-1.60776">
        <ele>82.01268</ele>
        <time>2012-05-13T09:34:22Z</time>
      </trkpt>
      <trkpt lat="47.3079" lon="-1.60752">
        <ele>83.17545</ele>
        <time>2012-05-13T09:34:33Z</time>
      </trkpt>
      <trkpt lat="47.30774" lon="-1.60729">
        <ele>84.21517</ele>
        <time>2012-05-13T09:34:44Z</time>
      </trkpt>
      <trkpt lat="47.3076" lon="-1.60712">
        <ele>85.17143</ele>
        <time>2012-05-13T09:34:52Z</time>
      </trkpt>
      <trkpt lat="47.30738" lon="-1.60718">
        <ele>86.73645</ele>
        <time>2012-05-13T09:35:04Z</time>
      </trkpt>
      <trkpt lat="47.30721" lon="-1.60731">
        <ele>87.23021</ele>
        <time>2012-05-13T09:35:13Z</time>
      </trkpt>
      <trkpt lat="47.30706" lon="-1.60746">
        <ele>87.179504</ele>
        <time>2012-05-13T09:35:22Z</time>
      </trkpt>
      <trkpt lat="47.30686" lon="-1.60765">
        <ele>86.13775</ele>
        <time>2012-05-13T09:35:35Z</time>
      </trkpt>
      <trkpt lat="47.30669" lon="-1.6078">
        <ele>86.00776</ele>
        <time>2012-05-13T09:35:45Z</time>
      </trkpt>
      <trkpt lat="47.30645" lon="-1.60795">
        <ele>86.00018</ele>
        <time>2012-05-13T09:35:58Z</time>
      </trkpt>
      <trkpt lat="47.30626" lon="-1.60802">
        <ele>86.00002</ele>
        <time>2012-05-13T09:36:05Z</time>
      </trkpt>
      <trkpt lat="47.30608" lon="-1.60808">
        <ele>86.00001</ele>
        <time>2012-05-13T09:36:11Z</time>
      </trkpt>
      <trkpt lat="47.3059" lon="-1.60812">
        <ele>86.68359</ele>
        <time>2012-05-13T09:36:16Z</time>
      </trkpt>
      <trkpt lat="47.30571" lon="-1.60819">
        <ele>87.52181</ele>
        <time>2012-05-13T09:36:22Z</time>
      </trkpt>
      <trkpt lat="47.30551" lon="-1.60832">
        <ele>89.08061</ele>
        <time>2012-05-13T09:36:31Z</time>
      </trkpt>
      <trkpt lat="47.30529" lon="-1.60838">
        <ele>90.19823</ele>
        <time>2012-05-13T09:36:41Z</time>
      </trkpt>
      <trkpt lat="47.30512" lon="-1.60857">
        <ele>91.70249</ele>
        <time>2012-05-13T09:36:50Z</time>
      </trkpt>
      <trkpt lat="47.30514" lon="-1.60885">
        <ele>93.08673</ele>
        <time>2012-05-13T09:36:58Z</time>
      </trkpt>
      <trkpt lat="47.30517" lon="-1.60913">
        <ele>95.00345</ele>
        <time>2012-05-13T09:37:07Z</time>
      </trkpt>
      <trkpt lat="47.30515" lon="-1.60941">
        <ele>96.74719</ele>
        <time>2012-05-13T09:37:16Z</time>
      </trkpt>
      <trkpt lat="47.30517" lon="-1.60971">
        <ele>97.78828</ele>
        <time>2012-05-13T09:37:23Z</time>
      </trkpt>
      <trkpt lat="47.3052" lon="-1.61001">
        <ele>98.549866</ele>
        <time>2012-05-13T09:37:30Z</time>
      </trkpt>
      <trkpt lat="47.30522" lon="-1.61029">
        <ele>98.91988</ele>
        <time>2012-05-13T09:37:36Z</time>
      </trkpt>
      <trkpt lat="47.30522" lon="-1.61057">
        <ele>99.669334</ele>
        <time>2012-05-13T09:37:42Z</time>
      </trkpt>
      <trkpt lat="47.3052" lon="-1.61085">
        <ele>100.37865</ele>
        <time>2012-05-13T09:37:48Z</time>
      </trkpt>
      <trkpt lat="47.30517" lon="-1.61115">
        <ele>100.91706</ele>
        <time>2012-05-13T09:37:55Z</time>
      </trkpt>
      <trkpt lat="47.30514" lon="-1.61143">
        <ele>100.9917</ele>
        <time>2012-05-13T09:38:03Z</time>
      </trkpt>
      <trkpt lat="47.30504" lon="-1.61164">
        <ele>99.00033</ele>
        <time>2012-05-13T09:38:43Z</time>
      </trkpt>
      <trkpt lat="47.30484" lon="-1.61166">
        <ele>99.00002</ele>
        <time>2012-05-13T09:38:52Z</time>
      </trkpt>
      <trkpt lat="47.30465" lon="-1.61171">
        <ele>98.17798</ele>
        <time>2012-05-13T09:39:02Z</time>
      </trkpt>
      <trkpt lat="47.30461" lon="-1.61145">
        <ele>94.19864</ele>
        <time>2012-05-13T09:39:31Z</time>
      </trkpt>
      <trkpt lat="47.30471" lon="-1.61124">
        <ele>94.233635</ele>
        <time>2012-05-13T09:39:57Z</time>
      </trkpt>
      <trkpt lat="47.30489" lon="-1.61132">
        <ele>95.986206</ele>
        <time>2012-05-13T09:40:23Z</time>
      </trkpt>
      <trkpt lat="47.30481" lon="-1.61106">
        <ele>95.999954</ele>
        <time>2012-05-13T09:40:43Z</time>
      </trkpt>
      <trkpt lat="47.30477" lon="-1.61081">
        <ele>96.989975</ele>
        <time>2012-05-13T09:41:08Z</time>
      </trkpt>
      <trkpt lat="47.30471" lon="-1.61055">
        <ele>98.68283</ele>
        <time>2012-05-13T09:41:33Z</time>
      </trkpt>
      <trkpt lat="47.30459" lon="-1.61036">
        <ele>99.85898</ele>
        <time>2012-05-13T09:41:46Z</time>
      </trkpt>
      <trkpt lat="47.30439" lon="-1.61031">
        <ele>100.673004</ele>
        <time>2012-05-13T09:41:55Z</time>
      </trkpt>
      <trkpt lat="47.30421" lon="-1.61029">
        <ele>100.98158</ele>
        <time>2012-05-13T09:42:05Z</time>
      </trkpt>
      <trkpt lat="47.30403" lon="-1.61027">
        <ele>101.89911</ele>
        <time>2012-05-13T09:42:16Z</time>
      </trkpt>
      <trkpt lat="47.30417" lon="-1.6101">
        <ele>103.675896</ele>
        <time>2012-05-13T09:42:38Z</time>
      </trkpt>
      <trkpt lat="47.30432" lon="-1.60995">
        <ele>103.99818</ele>
        <time>2012-05-13T09:42:56Z</time>
      </trkpt>
      <trkpt lat="47.30414" lon="-1.6099">
        <ele>104.57808</ele>
        <time>2012-05-13T09:43:09Z</time>
      </trkpt>
      <trkpt lat="47.304" lon="-1.60973">
        <ele>105.43186</ele>
        <time>2012-05-13T09:43:24Z</time>
      </trkpt>
      <trkpt lat="47.30387" lon="-1.60954">
        <ele>105.976006</ele>
        <time>2012-05-13T09:43:35Z</time>
      </trkpt>
      <trkpt lat="47.30384" lon="-1.60982">
        <ele>106.86627</ele>
        <time>2012-05-13T09:43:51Z</time>
      </trkpt>
      <trkpt lat="47.30392" lon="-1.61008">
        <ele>106.98215</ele>
        <time>2012-05-13T09:43:58Z</time>
      </trkpt>
      <trkpt lat="47.30375" lon="-1.60999">
        <ele>107.76267</ele>
        <time>2012-05-13T09:44:21Z</time>
      </trkpt>
      <trkpt lat="47.3036" lon="-1.60984">
        <ele>107.40405</ele>
        <time>2012-05-13T09:44:30Z</time>
      </trkpt>
      <trkpt lat="47.3035" lon="-1.60958">
        <ele>107.0096</ele>
        <time>2012-05-13T09:44:43Z</time>
      </trkpt>
      <trkpt lat="47.30342" lon="-1.60933">
        <ele>107.000404</ele>
        <time>2012-05-13T09:44:54Z</time>
      </trkpt>
      <trkpt lat="47.30323" lon="-1.60926">
        <ele>107.00003</ele>
        <time>2012-05-13T09:45:03Z</time>
      </trkpt>
      <trkpt lat="47.30313" lon="-1.6095">
        <ele>107</ele>
        <time>2012-05-13T09:45:11Z</time>
      </trkpt>
      <trkpt lat="47.30312" lon="-1.60978">
        <ele>106.237305</ele>
        <time>2012-05-13T09:45:19Z</time>
      </trkpt>
      <trkpt lat="47.30309" lon="-1.61008">
        <ele>105.340164</ele>
        <time>2012-05-13T09:45:27Z</time>
      </trkpt>
      <trkpt lat="47.30306" lon="-1.61038">
        <ele>103.797844</ele>
        <time>2012-05-13T09:45:33Z</time>
      </trkpt>
      <trkpt lat="47.30306" lon="-1.61068">
        <ele>100.09781</ele>
        <time>2012-05-13T09:45:39Z</time>
      </trkpt>
      <trkpt lat="47.30305" lon="-1.61096">
        <ele>98.68239</ele>
        <time>2012-05-13T09:45:44Z</time>
      </trkpt>
      <trkpt lat="47.30308" lon="-1.61126">
        <ele>96.54098</ele>
        <time>2012-05-13T09:45:51Z</time>
      </trkpt>
      <trkpt lat="47.30325" lon="-1.61156">
        <ele>93.084435</ele>
        <time>2012-05-13T09:45:56Z</time>
      </trkpt>
      <trkpt lat="47.30343" lon="-1.61175">
        <ele>89.27672</ele>
        <time>2012-05-13T09:46:00Z</time>
      </trkpt>
      <trkpt lat="47.30359" lon="-1.61196">
        <ele>88.84146</ele>
        <time>2012-05-13T09:46:04Z</time>
      </trkpt>
      <trkpt lat="47.30378" lon="-1.61205">
        <ele>90.07093</ele>
        <time>2012-05-13T09:46:08Z</time>
      </trkpt>
      <trkpt lat="47.304" lon="-1.61201">
        <ele>90.83465</ele>
        <time>2012-05-13T09:46:14Z</time>
      </trkpt>
      <trkpt lat="47.30418" lon="-1.61201">
        <ele>90.96076</ele>
        <time>2012-05-13T09:46:19Z</time>
      </trkpt>
      <trkpt lat="47.30433" lon="-1.61222">
        <ele>89.86959</ele>
        <time>2012-05-13T09:46:24Z</time>
      </trkpt>
      <trkpt lat="47.30448" lon="-1.61239">
        <ele>89.15477</ele>
        <time>2012-05-13T09:46:30Z</time>
      </trkpt>
      <trkpt lat="47.30454" lon="-1.61276">
        <ele>87.76989</ele>
        <time>2012-05-13T09:46:45Z</time>
      </trkpt>
      <trkpt lat="47.30458" lon="-1.61306">
        <ele>85.97134</ele>
        <time>2012-05-13T09:46:55Z</time>
      </trkpt>
      <trkpt lat="47.30465" lon="-1.61334">
        <ele>84.00091</ele>
        <time>2012-05-13T09:47:04Z</time>
      </trkpt>
      <trkpt lat="47.30471" lon="-1.6136">
        <ele>81.867355</ele>
        <time>2012-05-13T09:47:15Z</time>
      </trkpt>
      <trkpt lat="47.30477" lon="-1.61387">
        <ele>80.2431</ele>
        <time>2012-05-13T09:47:24Z</time>
      </trkpt>
      <trkpt lat="47.30481" lon="-1.61413">
        <ele>80.27434</ele>
        <time>2012-05-13T09:47:32Z</time>
      </trkpt>
      <trkpt lat="47.30488" lon="-1.61443">
        <ele>81.958206</ele>
        <time>2012-05-13T09:47:41Z</time>
      </trkpt>
      <trkpt lat="47.30493" lon="-1.61475">
        <ele>83.60537</ele>
        <time>2012-05-13T09:47:50Z</time>
      </trkpt>
      <trkpt lat="47.30498" lon="-1.61503">
        <ele>84.82701</ele>
        <time>2012-05-13T09:47:58Z</time>
      </trkpt>
      <trkpt lat="47.30508" lon="-1.61533">
        <ele>86.83176</ele>
        <time>2012-05-13T09:48:12Z</time>
      </trkpt>
      <trkpt lat="47.30526" lon="-1.61529">
        <ele>87.99585</ele>
        <time>2012-05-13T09:48:20Z</time>
      </trkpt>
      <trkpt lat="47.30546" lon="-1.61523">
        <ele>89.07128</ele>
        <time>2012-05-13T09:48:26Z</time>
      </trkpt>
      <trkpt lat="47.30567" lon="-1.61518">
        <ele>93.17512</ele>
        <time>2012-05-13T09:48:31Z</time>
      </trkpt>
      <trkpt lat="47.30588" lon="-1.61512">
        <ele>96.47729</ele>
        <time>2012-05-13T09:48:35Z</time>
      </trkpt>
      <trkpt lat="47.3061" lon="-1.61503">
        <ele>99.02992</ele>
        <time>2012-05-13T09:48:39Z</time>
      </trkpt>
      <trkpt lat="47.30628" lon="-1.61497">
        <ele>100.376656</ele>
        <time>2012-05-13T09:48:43Z</time>
      </trkpt>
      <trkpt lat="47.30649" lon="-1.61488">
        <ele>101.09817</ele>
        <time>2012-05-13T09:48:48Z</time>
      </trkpt>
      <trkpt lat="47.30668" lon="-1.61484">
        <ele>101.456894</ele>
        <time>2012-05-13T09:48:53Z</time>
      </trkpt>
      <trkpt lat="47.30687" lon="-1.61486">
        <ele>101.14456</ele>
        <time>2012-05-13T09:48:57Z</time>
      </trkpt>
      <trkpt lat="47.30705" lon="-1.61488">
        <ele>100.362144</ele>
        <time>2012-05-13T09:49:01Z</time>
      </trkpt>
      <trkpt lat="47.30724" lon="-1.61493">
        <ele>100.552086</ele>
        <time>2012-05-13T09:49:05Z</time>
      </trkpt>
      <trkpt lat="47.30743" lon="-1.61501">
        <ele>100.89371</ele>
        <time>2012-05-13T09:49:10Z</time>
      </trkpt>
      <trkpt lat="47.30746" lon="-1.61531">
        <ele>100.98581</ele>
        <time>2012-05-13T09:49:17Z</time>
      </trkpt>
      <trkpt lat="47.30746" lon="-1.61563">
        <ele>100.7494</ele>
        <time>2012-05-13T09:49:28Z</time>
      </trkpt>
      <trkpt lat="47.30752" lon="-1.61593">
        <ele>99.76002</ele>
        <time>2012-05-13T09:49:43Z</time>
      </trkpt>
      <trkpt lat="47.30745" lon="-1.61623">
        <ele>99.50057</ele>
        <time>2012-05-13T09:50:08Z</time>
      </trkpt>
      <trkpt lat="47.30768" lon="-1.61647">
        <ele>101.81568</ele>
        <time>2012-05-13T09:50:27Z</time>
      </trkpt>
      <trkpt lat="47.30785" lon="-1.61671">
        <ele>100.10594</ele>
        <time>2012-05-13T09:51:00Z</time>
      </trkpt>
      <trkpt lat="47.30785" lon="-1.61699">
        <ele>98.18019</ele>
        <time>2012-05-13T09:51:11Z</time>
      </trkpt>
      <trkpt lat="47.30808" lon="-1.61707">
        <ele>98.00571</ele>
        <time>2012-05-13T09:51:23Z</time>
      </trkpt>
      <trkpt lat="47.3083" lon="-1.61709">
        <ele>98.001015</ele>
        <time>2012-05-13T09:51:29Z</time>
      </trkpt>
      <trkpt lat="47.30849" lon="-1.61716">
        <ele>96.3011</ele>
        <time>2012-05-13T09:51:33Z</time>
      </trkpt>
      <trkpt lat="47.3087" lon="-1.61722">
        <ele>95.308754</ele>
        <time>2012-05-13T09:51:38Z</time>
      </trkpt>
      <trkpt lat="47.30888" lon="-1.61731">
        <ele>95.07327</ele>
        <time>2012-05-13T09:51:43Z</time>
      </trkpt>
      <trkpt lat="47.30903" lon="-1.61746">
        <ele>95.26739</ele>
        <time>2012-05-13T09:51:48Z</time>
      </trkpt>
      <trkpt lat="47.30907" lon="-1.61774">
        <ele>95.86961</ele>
        <time>2012-05-13T09:51:54Z</time>
      </trkpt>
      <trkpt lat="47.30909" lon="-1.61804">
        <ele>95.97679</ele>
        <time>2012-05-13T09:52:00Z</time>
      </trkpt>
      <trkpt lat="47.30906" lon="-1.61832">
        <ele>95.998695</ele>
        <time>2012-05-13T09:52:10Z</time>
      </trkpt>
      <trkpt lat="47.30891" lon="-1.61847">
        <ele>99.34452</ele>
        <time>2012-05-13T09:52:53Z</time>
      </trkpt>
      <trkpt lat="47.30873" lon="-1.61849">
        <ele>100.7564</ele>
        <time>2012-05-13T09:53:01Z</time>
      </trkpt>
      <trkpt lat="47.30852" lon="-1.61847">
        <ele>102.02866</ele>
        <time>2012-05-13T09:53:07Z</time>
      </trkpt>
      <trkpt lat="47.30833" lon="-1.61847">
        <ele>103.264626</ele>
        <time>2012-05-13T09:53:13Z</time>
      </trkpt>
      <trkpt lat="47.30814" lon="-1.61847">
        <ele>104.30662</ele>
        <time>2012-05-13T09:53:19Z</time>
      </trkpt>
      <trkpt lat="47.30794" lon="-1.61844">
        <ele>104.876595</ele>
        <time>2012-05-13T09:53:25Z</time>
      </trkpt>
      <trkpt lat="47.30775" lon="-1.6184">
        <ele>105.80555</ele>
        <time>2012-05-13T09:53:32Z</time>
      </trkpt>
      <trkpt lat="47.30757" lon="-1.61847">
        <ele>105.974045</ele>
        <time>2012-05-13T09:53:39Z</time>
      </trkpt>
      <trkpt lat="47.30757" lon="-1.61877">
        <ele>105.99538</ele>
        <time>2012-05-13T09:53:45Z</time>
      </trkpt>
      <trkpt lat="47.30763" lon="-1.61902">
        <ele>106.7616</ele>
        <time>2012-05-13T09:53:50Z</time>
      </trkpt>
      <trkpt lat="47.30765" lon="-1.61935">
        <ele>106.95757</ele>
        <time>2012-05-13T09:53:56Z</time>
      </trkpt>
      <trkpt lat="47.3077" lon="-1.61967">
        <ele>106.55495</ele>
        <time>2012-05-13T09:54:02Z</time>
      </trkpt>
      <trkpt lat="47.30774" lon="-1.61995">
        <ele>105.368996</ele>
        <time>2012-05-13T09:54:07Z</time>
      </trkpt>
      <trkpt lat="47.30791" lon="-1.62005">
        <ele>105.049255</ele>
        <time>2012-05-13T09:54:14Z</time>
      </trkpt>
      <trkpt lat="47.30812" lon="-1.62001">
        <ele>105.01169</ele>
        <time>2012-05-13T09:54:19Z</time>
      </trkpt>
      <trkpt lat="47.3083" lon="-1.6199">
        <ele>104.42465</ele>
        <time>2012-05-13T09:54:24Z</time>
      </trkpt>
      <trkpt lat="47.30846" lon="-1.61978">
        <ele>104.10077</ele>
        <time>2012-05-13T09:54:29Z</time>
      </trkpt>
      <trkpt lat="47.30865" lon="-1.61971">
        <ele>104.01794</ele>
        <time>2012-05-13T09:54:35Z</time>
      </trkpt>
      <trkpt lat="47.3088" lon="-1.61988">
        <ele>104.00179</ele>
        <time>2012-05-13T09:54:43Z</time>
      </trkpt>
      <trkpt lat="47.30874" lon="-1.62016">
        <ele>104.00024</ele>
        <time>2012-05-13T09:54:50Z</time>
      </trkpt>
      <trkpt lat="47.30867" lon="-1.62042">
        <ele>104.000046</ele>
        <time>2012-05-13T09:54:56Z</time>
      </trkpt>
      <trkpt lat="47.30859" lon="-1.6207">
        <ele>104.00001</ele>
        <time>2012-05-13T09:55:02Z</time>
      </trkpt>
      <trkpt lat="47.30848" lon="-1.62096">
        <ele>103.17798</ele>
        <time>2012-05-13T09:55:08Z</time>
      </trkpt>
      <trkpt lat="47.30838" lon="-1.62121">
        <ele>103.04224</ele>
        <time>2012-05-13T09:55:13Z</time>
      </trkpt>
      <trkpt lat="47.30826" lon="-1.62147">
        <ele>103.010025</ele>
        <time>2012-05-13T09:55:18Z</time>
      </trkpt>
      <trkpt lat="47.30816" lon="-1.62171">
        <ele>103.68677</ele>
        <time>2012-05-13T09:55:22Z</time>
      </trkpt>
      <trkpt lat="47.30805" lon="-1.62196">
        <ele>104.50379</ele>
        <time>2012-05-13T09:55:27Z</time>
      </trkpt>
      <trkpt lat="47.30794" lon="-1.62218">
        <ele>104.88225</ele>
        <time>2012-05-13T09:55:32Z</time>
      </trkpt>
      <trkpt lat="47.30785" lon="-1.62241">
        <ele>105.73475</ele>
        <time>2012-05-13T09:55:37Z</time>
      </trkpt>
      <trkpt lat="47.30797" lon="-1.62267">
        <ele>108.61856</ele>
        <time>2012-05-13T09:55:43Z</time>
      </trkpt>
      <trkpt lat="47.30815" lon="-1.62287">
        <ele>111.75822</ele>
        <time>2012-05-13T09:55:47Z</time>
      </trkpt>
      <trkpt lat="47.30832" lon="-1.62306">
        <ele>113.29069</ele>
        <time>2012-05-13T09:55:51Z</time>
      </trkpt>
      <trkpt lat="47.30842" lon="-1.62336">
        <ele>113.775566</ele>
        <time>2012-05-13T09:55:55Z</time>
      </trkpt>
      <trkpt lat="47.30842" lon="-1.62364">
        <ele>113.491486</ele>
        <time>2012-05-13T09:55:59Z</time>
      </trkpt>
      <trkpt lat="47.30841" lon="-1.62394">
        <ele>113.065605</ele>
        <time>2012-05-13T09:56:06Z</time>
      </trkpt>
      <trkpt lat="47.30841" lon="-1.62424">
        <ele>112.14005</ele>
        <time>2012-05-13T09:56:14Z</time>
      </trkpt>
      <trkpt lat="47.30844" lon="-1.62454">
        <ele>109.53714</ele>
        <time>2012-05-13T09:56:19Z</time>
      </trkpt>
      <trkpt lat="47.30846" lon="-1.62484">
        <ele>105.39309</ele>
        <time>2012-05-13T09:56:24Z</time>
      </trkpt>
      <trkpt lat="47.3086" lon="-1.62505">
        <ele>103.31944</ele>
        <time>2012-05-13T09:56:31Z</time>
      </trkpt>
      <trkpt lat="47.30878" lon="-1.62503">
        <ele>102.27295</ele>
        <time>2012-05-13T09:56:35Z</time>
      </trkpt>
      <trkpt lat="47.309" lon="-1.62505">
        <ele>100.46918</ele>
        <time>2012-05-13T09:56:39Z</time>
      </trkpt>
      <trkpt lat="47.30918" lon="-1.62508">
        <ele>99.46486</ele>
        <time>2012-05-13T09:56:43Z</time>
      </trkpt>
      <trkpt lat="47.30937" lon="-1.62508">
        <ele>99.87301</ele>
        <time>2012-05-13T09:56:48Z</time>
      </trkpt>
      <trkpt lat="47.30956" lon="-1.62503">
        <ele>99.99699</ele>
        <time>2012-05-13T09:57:01Z</time>
      </trkpt>
      <trkpt lat="47.30975" lon="-1.62505">
        <ele>99.999695</ele>
        <time>2012-05-13T09:57:09Z</time>
      </trkpt>
      <trkpt lat="47.30993" lon="-1.62508">
        <ele>99.99993</ele>
        <time>2012-05-13T09:57:14Z</time>
      </trkpt>
      <trkpt lat="47.31011" lon="-1.62505">
        <ele>99.999985</ele>
        <time>2012-05-13T09:57:19Z</time>
      </trkpt>
      <trkpt lat="47.31032" lon="-1.62486">
        <ele>99.04224</ele>
        <time>2012-05-13T09:57:32Z</time>
      </trkpt>
      <trkpt lat="47.31042" lon="-1.62508">
        <ele>99.001785</ele>
        <time>2012-05-13T09:57:43Z</time>
      </trkpt>
      <trkpt lat="47.31044" lon="-1.62538">
        <ele>97.73846</ele>
        <time>2012-05-13T09:57:51Z</time>
      </trkpt>
      <trkpt lat="47.31045" lon="-1.62568">
        <ele>96.33588</ele>
        <time>2012-05-13T09:57:58Z</time>
      </trkpt>
      <trkpt lat="47.31037" lon="-1.62596">
        <ele>94.28403</ele>
        <time>2012-05-13T09:58:13Z</time>
      </trkpt>
      <trkpt lat="47.31026" lon="-1.62621">
        <ele>92.89023</ele>
        <time>2012-05-13T09:58:26Z</time>
      </trkpt>
      <trkpt lat="47.31043" lon="-1.62632">
        <ele>92.15844</ele>
        <time>2012-05-13T09:58:32Z</time>
      </trkpt>
      <trkpt lat="47.31063" lon="-1.62632">
        <ele>92.783844</ele>
        <time>2012-05-13T09:58:39Z</time>
      </trkpt>
      <trkpt lat="47.31078" lon="-1.62647">
        <ele>94.05661</ele>
        <time>2012-05-13T09:58:43Z</time>
      </trkpt>
      <trkpt lat="47.31094" lon="-1.6266">
        <ele>97.580414</ele>
        <time>2012-05-13T09:58:47Z</time>
      </trkpt>
      <trkpt lat="47.3111" lon="-1.62673">
        <ele>99.81255</ele>
        <time>2012-05-13T09:58:51Z</time>
      </trkpt>
      <trkpt lat="47.31127" lon="-1.6269">
        <ele>100.468216</ele>
        <time>2012-05-13T09:58:56Z</time>
      </trkpt>
      <trkpt lat="47.31137" lon="-1.62714">
        <ele>100.11111</ele>
        <time>2012-05-13T09:59:01Z</time>
      </trkpt>
      <trkpt lat="47.31146" lon="-1.62737">
        <ele>100.02637</ele>
        <time>2012-05-13T09:59:06Z</time>
      </trkpt>
      <trkpt lat="47.31153" lon="-1.62765">
        <ele>100.00469</ele>
        <time>2012-05-13T09:59:12Z</time>
      </trkpt>
      <trkpt lat="47.31153" lon="-1.62797">
        <ele>100.00027</ele>
        <time>2012-05-13T09:59:22Z</time>
      </trkpt>
      <trkpt lat="47.31162" lon="-1.62821">
        <ele>100.000046</ele>
        <time>2012-05-13T09:59:28Z</time>
      </trkpt>
      <trkpt lat="47.31173" lon="-1.62847">
        <ele>100</ele>
        <time>2012-05-13T09:59:38Z</time>
      </trkpt>
      <trkpt lat="47.31187" lon="-1.6287">
        <ele>99.133484</ele>
        <time>2012-05-13T09:59:47Z</time>
      </trkpt>
      <trkpt lat="47.312" lon="-1.62889">
        <ele>99.03168</ele>
        <time>2012-05-13T09:59:52Z</time>
      </trkpt>
      <trkpt lat="47.31214" lon="-1.62909">
        <ele>98.4319</ele>
        <time>2012-05-13T09:59:56Z</time>
      </trkpt>
      <trkpt lat="47.3123" lon="-1.62924">
        <ele>97.35408</ele>
        <time>2012-05-13T09:59:59Z</time>
      </trkpt>
      <trkpt lat="47.31241" lon="-1.62945">
        <ele>96.13375</ele>
        <time>2012-05-13T10:00:02Z</time>
      </trkpt>
      <trkpt lat="47.31248" lon="-1.62975">
        <ele>94.58545</ele>
        <time>2012-05-13T10:00:07Z</time>
      </trkpt>
      <trkpt lat="47.31269" lon="-1.62986">
        <ele>94.104195</ele>
        <time>2012-05-13T10:00:13Z</time>
      </trkpt>
      <trkpt lat="47.31287" lon="-1.62984">
        <ele>93.34937</ele>
        <time>2012-05-13T10:00:17Z</time>
      </trkpt>
      <trkpt lat="47.31304" lon="-1.62967">
        <ele>92.42695</ele>
        <time>2012-05-13T10:00:21Z</time>
      </trkpt>
      <trkpt lat="47.3132" lon="-1.62945">
        <ele>91.55696</ele>
        <time>2012-05-13T10:00:25Z</time>
      </trkpt>
      <trkpt lat="47.31333" lon="-1.6292">
        <ele>91.17622</ele>
        <time>2012-05-13T10:00:29Z</time>
      </trkpt>
      <trkpt lat="47.31337" lon="-1.62889">
        <ele>91.04182</ele>
        <time>2012-05-13T10:00:34Z</time>
      </trkpt>
      <trkpt lat="47.31334" lon="-1.62862">
        <ele>90.24723</ele>
        <time>2012-05-13T10:00:39Z</time>
      </trkpt>
      <trkpt lat="47.3133" lon="-1.62834">
        <ele>90.044</ele>
        <time>2012-05-13T10:00:45Z</time>
      </trkpt>
      <trkpt lat="47.31324" lon="-1.62804">
        <ele>90.00783</ele>
        <time>2012-05-13T10:00:51Z</time>
      </trkpt>
      <trkpt lat="47.31318" lon="-1.62774">
        <ele>90.685455</ele>
        <time>2012-05-13T10:00:56Z</time>
      </trkpt>
      <trkpt lat="47.31308" lon="-1.62744">
        <ele>91.83407</ele>
        <time>2012-05-13T10:01:00Z</time>
      </trkpt>
      <trkpt lat="47.31301" lon="-1.62711">
        <ele>92.631096</ele>
        <time>2012-05-13T10:01:04Z</time>
      </trkpt>
      <trkpt lat="47.31295" lon="-1.62679">
        <ele>93.56687</ele>
        <time>2012-05-13T10:01:08Z</time>
      </trkpt>
      <trkpt lat="47.31291" lon="-1.62649">
        <ele>94.30045</ele>
        <time>2012-05-13T10:01:12Z</time>
      </trkpt>
      <trkpt lat="47.31286" lon="-1.62619">
        <ele>94.778656</ele>
        <time>2012-05-13T10:01:16Z</time>
      </trkpt>
      <trkpt lat="47.3128" lon="-1.62589">
        <ele>94.67997</ele>
        <time>2012-05-13T10:01:20Z</time>
      </trkpt>
      <trkpt lat="47.31276" lon="-1.62557">
        <ele>93.96515</ele>
        <time>2012-05-13T10:01:24Z</time>
      </trkpt>
      <trkpt lat="47.31272" lon="-1.62527">
        <ele>93.30538</ele>
        <time>2012-05-13T10:01:28Z</time>
      </trkpt>
      <trkpt lat="47.31269" lon="-1.62499">
        <ele>93.34663</ele>
        <time>2012-05-13T10:01:32Z</time>
      </trkpt>
      <trkpt lat="47.31266" lon="-1.62467">
        <ele>93.35577</ele>
        <time>2012-05-13T10:01:36Z</time>
      </trkpt>
      <trkpt lat="47.31266" lon="-1.62439">
        <ele>91.44697</ele>
        <time>2012-05-13T10:01:39Z</time>
      </trkpt>
      <trkpt lat="47.31269" lon="-1.62409">
        <ele>90.03231</ele>
        <time>2012-05-13T10:01:42Z</time>
      </trkpt>
      <trkpt lat="47.31284" lon="-1.6239">
        <ele>89.32663</ele>
        <time>2012-05-13T10:01:46Z</time>
      </trkpt>
      <trkpt lat="47.31301" lon="-1.62374">
        <ele>89.10335</ele>
        <time>2012-05-13T10:01:50Z</time>
      </trkpt>
      <trkpt lat="47.31315" lon="-1.62357">
        <ele>89.0436</ele>
        <time>2012-05-13T10:01:53Z</time>
      </trkpt>
      <trkpt lat="47.31327" lon="-1.62336">
        <ele>89.018394</ele>
        <time>2012-05-13T10:01:56Z</time>
      </trkpt>
      <trkpt lat="47.31336" lon="-1.62312">
        <ele>89.585884</ele>
        <time>2012-05-13T10:01:59Z</time>
      </trkpt>
      <trkpt lat="47.31348" lon="-1.62287">
        <ele>90.075294</ele>
        <time>2012-05-13T10:02:02Z</time>
      </trkpt>
      <trkpt lat="47.31362" lon="-1.62263">
        <ele>90.60989</ele>
        <time>2012-05-13T10:02:05Z</time>
      </trkpt>
      <trkpt lat="47.31375" lon="-1.62241">
        <ele>90.83542</ele>
        <time>2012-05-13T10:02:08Z</time>
      </trkpt>
      <trkpt lat="47.31377" lon="-1.62209">
        <ele>89.139336</ele>
        <time>2012-05-13T10:02:12Z</time>
      </trkpt>
      <trkpt lat="47.31367" lon="-1.62186">
        <ele>85.14955</ele>
        <time>2012-05-13T10:02:16Z</time>
      </trkpt>
      <trkpt lat="47.31356" lon="-1.62158">
        <ele>80.86362</ele>
        <time>2012-05-13T10:02:21Z</time>
      </trkpt>
      <trkpt lat="47.31343" lon="-1.62132">
        <ele>78.67955</ele>
        <time>2012-05-13T10:02:26Z</time>
      </trkpt>
      <trkpt lat="47.31331" lon="-1.62108">
        <ele>78.94297</ele>
        <time>2012-05-13T10:02:32Z</time>
      </trkpt>
      <trkpt lat="47.31318" lon="-1.62085">
        <ele>78.99429</ele>
        <time>2012-05-13T10:02:40Z</time>
      </trkpt>
      <trkpt lat="47.31305" lon="-1.62061">
        <ele>78.99924</ele>
        <time>2012-05-13T10:02:47Z</time>
      </trkpt>
      <trkpt lat="47.31292" lon="-1.62038">
        <ele>78.99992</ele>
        <time>2012-05-13T10:02:55Z</time>
      </trkpt>
      <trkpt lat="47.31279" lon="-1.62014">
        <ele>78.99999</ele>
        <time>2012-05-13T10:03:02Z</time>
      </trkpt>
      <trkpt lat="47.31266" lon="-1.61993">
        <ele>79.68359</ele>
        <time>2012-05-13T10:03:09Z</time>
      </trkpt>
      <trkpt lat="47.31255" lon="-1.61971">
        <ele>80.56031</ele>
        <time>2012-05-13T10:03:19Z</time>
      </trkpt>
      <trkpt lat="47.31256" lon="-1.61941">
        <ele>81.56419</ele>
        <time>2012-05-13T10:03:31Z</time>
      </trkpt>
      <trkpt lat="47.31264" lon="-1.61917">
        <ele>82.21728</ele>
        <time>2012-05-13T10:03:40Z</time>
      </trkpt>
      <trkpt lat="47.31279" lon="-1.61898">
        <ele>82.860695</ele>
        <time>2012-05-13T10:03:46Z</time>
      </trkpt>
      <trkpt lat="47.31299" lon="-1.61883">
        <ele>83.519356</ele>
        <time>2012-05-13T10:03:49Z</time>
      </trkpt>
      <trkpt lat="47.31321" lon="-1.6187">
        <ele>83.2191</ele>
        <time>2012-05-13T10:03:52Z</time>
      </trkpt>
      <trkpt lat="47.31346" lon="-1.61866">
        <ele>82.84244</ele>
        <time>2012-05-13T10:03:55Z</time>
      </trkpt>
      <trkpt lat="47.31371" lon="-1.61864">
        <ele>81.9179</ele>
        <time>2012-05-13T10:03:58Z</time>
      </trkpt>
      <trkpt lat="47.31393" lon="-1.61864">
        <ele>81.38724</ele>
        <time>2012-05-13T10:04:01Z</time>
      </trkpt>
      <trkpt lat="47.31415" lon="-1.61864">
        <ele>80.58524</ele>
        <time>2012-05-13T10:04:04Z</time>
      </trkpt>
      <trkpt lat="47.31436" lon="-1.61864">
        <ele>80.2469</ele>
        <time>2012-05-13T10:04:07Z</time>
      </trkpt>
      <trkpt lat="47.31455" lon="-1.61853">
        <ele>80.541664</ele>
        <time>2012-05-13T10:04:10Z</time>
      </trkpt>
      <trkpt lat="47.31474" lon="-1.61847">
        <ele>80.228516</ele>
        <time>2012-05-13T10:04:13Z</time>
      </trkpt>
      <trkpt lat="47.31494" lon="-1.61844">
        <ele>80.283905</ele>
        <time>2012-05-13T10:04:16Z</time>
      </trkpt>
      <trkpt lat="47.31515" lon="-1.61847">
        <ele>80.119774</ele>
        <time>2012-05-13T10:04:19Z</time>
      </trkpt>
      <trkpt lat="47.31537" lon="-1.61849">
        <ele>80.05053</ele>
        <time>2012-05-13T10:04:22Z</time>
      </trkpt>
      <trkpt lat="47.31556" lon="-1.61849">
        <ele>80.02132</ele>
        <time>2012-05-13T10:04:25Z</time>
      </trkpt>
      <trkpt lat="47.31574" lon="-1.61851">
        <ele>80.58712</ele>
        <time>2012-05-13T10:04:28Z</time>
      </trkpt>
      <trkpt lat="47.31597" lon="-1.61855">
        <ele>80.86936</ele>
        <time>2012-05-13T10:04:32Z</time>
      </trkpt>
      <trkpt lat="47.31618" lon="-1.61855">
        <ele>80.969</ele>
        <time>2012-05-13T10:04:37Z</time>
      </trkpt>
      <trkpt lat="47.31634" lon="-1.61875">
        <ele>82.19284</ele>
        <time>2012-05-13T10:04:42Z</time>
      </trkpt>
      <trkpt lat="47.31646" lon="-1.61896">
        <ele>83.182106</ele>
        <time>2012-05-13T10:04:46Z</time>
      </trkpt>
      <trkpt lat="47.31661" lon="-1.61915">
        <ele>84.17871</ele>
        <time>2012-05-13T10:04:50Z</time>
      </trkpt>
      <trkpt lat="47.3168" lon="-1.6193">
        <ele>84.74014</ele>
        <time>2012-05-13T10:04:54Z</time>
      </trkpt>
      <trkpt lat="47.31699" lon="-1.61939">
        <ele>84.66778</ele>
        <time>2012-05-13T10:04:58Z</time>
      </trkpt>
      <trkpt lat="47.31717" lon="-1.61945">
        <ele>84.21129</ele>
        <time>2012-05-13T10:05:02Z</time>
      </trkpt>
      <trkpt lat="47.31739" lon="-1.61945">
        <ele>83.36655</ele>
        <time>2012-05-13T10:05:07Z</time>
      </trkpt>
      <trkpt lat="47.31759" lon="-1.61943">
        <ele>81.88679</ele>
        <time>2012-05-13T10:05:12Z</time>
      </trkpt>
      <trkpt lat="47.31778" lon="-1.61939">
        <ele>81.15783</ele>
        <time>2012-05-13T10:05:18Z</time>
      </trkpt>
      <trkpt lat="47.31801" lon="-1.6193">
        <ele>81.00889</ele>
        <time>2012-05-13T10:05:28Z</time>
      </trkpt>
      <trkpt lat="47.31819" lon="-1.61913">
        <ele>81.00021</ele>
        <time>2012-05-13T10:05:41Z</time>
      </trkpt>
      <trkpt lat="47.31802" lon="-1.61896">
        <ele>81</ele>
        <time>2012-05-13T10:06:37Z</time>
      </trkpt>
      <trkpt lat="47.31808" lon="-1.6187">
        <ele>81</ele>
        <time>2012-05-13T10:07:03Z</time>
      </trkpt>
      <trkpt lat="47.31827" lon="-1.61862">
        <ele>81</ele>
        <time>2012-05-13T10:07:18Z</time>
      </trkpt>
      <trkpt lat="47.31845" lon="-1.61847">
        <ele>81</ele>
        <time>2012-05-13T10:07:30Z</time>
      </trkpt>
      <trkpt lat="47.31856" lon="-1.61821">
        <ele>79.85011</ele>
        <time>2012-05-13T10:07:38Z</time>
      </trkpt>
      <trkpt lat="47.31867" lon="-1.61795">
        <ele>79.1513</ele>
        <time>2012-05-13T10:07:44Z</time>
      </trkpt>
      <trkpt lat="47.31878" lon="-1.61774">
        <ele>77.454124</ele>
        <time>2012-05-13T10:07:48Z</time>
      </trkpt>
      <trkpt lat="47.31889" lon="-1.61752">
        <ele>73.49525</ele>
        <time>2012-05-13T10:07:52Z</time>
      </trkpt>
      <trkpt lat="47.31898" lon="-1.61726">
        <ele>68.47311</ele>
        <time>2012-05-13T10:07:56Z</time>
      </trkpt>
      <trkpt lat="47.31907" lon="-1.61701">
        <ele>64.97782</ele>
        <time>2012-05-13T10:08:00Z</time>
      </trkpt>
      <trkpt lat="47.31918" lon="-1.61679">
        <ele>64.27189</ele>
        <time>2012-05-13T10:08:03Z</time>
      </trkpt>
      <trkpt lat="47.31933" lon="-1.61664">
        <ele>64.80221</ele>
        <time>2012-05-13T10:08:06Z</time>
      </trkpt>
      <trkpt lat="47.3195" lon="-1.61649">
        <ele>65.93218</ele>
        <time>2012-05-13T10:08:09Z</time>
      </trkpt>
      <trkpt lat="47.31969" lon="-1.61636">
        <ele>67.12764</ele>
        <time>2012-05-13T10:08:12Z</time>
      </trkpt>
      <trkpt lat="47.31992" lon="-1.61626">
        <ele>68.4601</ele>
        <time>2012-05-13T10:08:15Z</time>
      </trkpt>
      <trkpt lat="47.32014" lon="-1.61617">
        <ele>69.60036</ele>
        <time>2012-05-13T10:08:18Z</time>
      </trkpt>
      <trkpt lat="47.32035" lon="-1.61608">
        <ele>71.24074</ele>
        <time>2012-05-13T10:08:22Z</time>
      </trkpt>
      <trkpt lat="47.32055" lon="-1.61602">
        <ele>71.86487</ele>
        <time>2012-05-13T10:08:28Z</time>
      </trkpt>
      <trkpt lat="47.32074" lon="-1.61604">
        <ele>72.40543</ele>
        <time>2012-05-13T10:08:33Z</time>
      </trkpt>
      <trkpt lat="47.32092" lon="-1.61615">
        <ele>72.92063</ele>
        <time>2012-05-13T10:08:40Z</time>
      </trkpt>
      <trkpt lat="47.32105" lon="-1.61632">
        <ele>73.4269</ele>
        <time>2012-05-13T10:08:47Z</time>
      </trkpt>
      <trkpt lat="47.32122" lon="-1.61649">
        <ele>73.9235</ele>
        <time>2012-05-13T10:08:54Z</time>
      </trkpt>
      <trkpt lat="47.32138" lon="-1.61666">
        <ele>74.755035</ele>
        <time>2012-05-13T10:09:02Z</time>
      </trkpt>
      <trkpt lat="47.32153" lon="-1.61686">
        <ele>74.97548</ele>
        <time>2012-05-13T10:09:10Z</time>
      </trkpt>
      <trkpt lat="47.32171" lon="-1.61707">
        <ele>75.24862</ele>
        <time>2012-05-13T10:09:20Z</time>
      </trkpt>
      <trkpt lat="47.32191" lon="-1.61722">
        <ele>75.924774</ele>
        <time>2012-05-13T10:09:28Z</time>
      </trkpt>
      <trkpt lat="47.32208" lon="-1.61731">
        <ele>76.752655</ele>
        <time>2012-05-13T10:09:35Z</time>
      </trkpt>
      <trkpt lat="47.32226" lon="-1.61741">
        <ele>76.96698</ele>
        <time>2012-05-13T10:09:42Z</time>
      </trkpt>
      <trkpt lat="47.32235" lon="-1.61772">
        <ele>77.92306</ele>
        <time>2012-05-13T10:09:52Z</time>
      </trkpt>
      <trkpt lat="47.32239" lon="-1.61804">
        <ele>77.74675</ele>
        <time>2012-05-13T10:10:03Z</time>
      </trkpt>
      <trkpt lat="47.32239" lon="-1.61832">
        <ele>75.81962</ele>
        <time>2012-05-13T10:10:17Z</time>
      </trkpt>
      <trkpt lat="47.32243" lon="-1.61862">
        <ele>73.259224</ele>
        <time>2012-05-13T10:10:28Z</time>
      </trkpt>
      <trkpt lat="47.32258" lon="-1.61881">
        <ele>70.270805</ele>
        <time>2012-05-13T10:10:38Z</time>
      </trkpt>
      <trkpt lat="47.32277" lon="-1.61887">
        <ele>68.20505</ele>
        <time>2012-05-13T10:10:48Z</time>
      </trkpt>
      <trkpt lat="47.32293" lon="-1.61902">
        <ele>67.257835</ele>
        <time>2012-05-13T10:10:56Z</time>
      </trkpt>
      <trkpt lat="47.3231" lon="-1.61922">
        <ele>66.76452</ele>
        <time>2012-05-13T10:11:06Z</time>
      </trkpt>
      <trkpt lat="47.32325" lon="-1.61943">
        <ele>65.8074</ele>
        <time>2012-05-13T10:11:15Z</time>
      </trkpt>
      <trkpt lat="47.32345" lon="-1.61956">
        <ele>64.47345</ele>
        <time>2012-05-13T10:11:25Z</time>
      </trkpt>
      <trkpt lat="47.3236" lon="-1.61971">
        <ele>66.042366</ele>
        <time>2012-05-13T10:11:35Z</time>
      </trkpt>
      <trkpt lat="47.32377" lon="-1.61984">
        <ele>66.90413</ele>
        <time>2012-05-13T10:11:43Z</time>
      </trkpt>
      <trkpt lat="47.32394" lon="-1.61993">
        <ele>67.56533</ele>
        <time>2012-05-13T10:11:50Z</time>
      </trkpt>
      <trkpt lat="47.32413" lon="-1.61997">
        <ele>68.21736</ele>
        <time>2012-05-13T10:11:59Z</time>
      </trkpt>
      <trkpt lat="47.32432" lon="-1.62003">
        <ele>69.49977</ele>
        <time>2012-05-13T10:12:07Z</time>
      </trkpt>
      <trkpt lat="47.3245" lon="-1.6201">
        <ele>70.73453</ele>
        <time>2012-05-13T10:12:17Z</time>
      </trkpt>
      <trkpt lat="47.32469" lon="-1.62014">
        <ele>72.39053</ele>
        <time>2012-05-13T10:12:31Z</time>
      </trkpt>
      <trkpt lat="47.32487" lon="-1.62012">
        <ele>74.19205</ele>
        <time>2012-05-13T10:12:46Z</time>
      </trkpt>
      <trkpt lat="47.32506" lon="-1.62005">
        <ele>76.98739</ele>
        <time>2012-05-13T10:13:07Z</time>
      </trkpt>
      <trkpt lat="47.32492" lon="-1.61986">
        <ele>79.13974</ele>
        <time>2012-05-13T10:13:23Z</time>
      </trkpt>
      <trkpt lat="47.32479" lon="-1.61967">
        <ele>81.61578</ele>
        <time>2012-05-13T10:13:38Z</time>
      </trkpt>
      <trkpt lat="47.32461" lon="-1.61958">
        <ele>83.61511</ele>
        <time>2012-05-13T10:13:50Z</time>
      </trkpt>
      <trkpt lat="47.32442" lon="-1.61947">
        <ele>84.783485</ele>
        <time>2012-05-13T10:13:58Z</time>
      </trkpt>
      <trkpt lat="47.32423" lon="-1.61943">
        <ele>86.34616</ele>
        <time>2012-05-13T10:14:07Z</time>
      </trkpt>
      <trkpt lat="47.32406" lon="-1.61935">
        <ele>86.93454</ele>
        <time>2012-05-13T10:14:15Z</time>
      </trkpt>
      <trkpt lat="47.32387" lon="-1.61932">
        <ele>86.99509</ele>
        <time>2012-05-13T10:14:24Z</time>
      </trkpt>
      <trkpt lat="47.32388" lon="-1.61905">
        <ele>86.99999</ele>
        <time>2012-05-13T10:14:48Z</time>
      </trkpt>
      <trkpt lat="47.32404" lon="-1.61892">
        <ele>87</ele>
        <time>2012-05-13T10:15:04Z</time>
      </trkpt>
      <trkpt lat="47.32422" lon="-1.61881">
        <ele>87.94369</ele>
        <time>2012-05-13T10:15:24Z</time>
      </trkpt>
      <trkpt lat="47.32439" lon="-1.61892">
        <ele>87.99968</ele>
        <time>2012-05-13T10:15:42Z</time>
      </trkpt>
      <trkpt lat="47.32454" lon="-1.61907">
        <ele>87.99999</ele>
        <time>2012-05-13T10:15:56Z</time>
      </trkpt>
      <trkpt lat="47.32464" lon="-1.6193">
        <ele>88.4375</ele>
        <time>2012-05-13T10:16:10Z</time>
      </trkpt>
      <trkpt lat="47.32469" lon="-1.61958">
        <ele>88.95776</ele>
        <time>2012-05-13T10:16:19Z</time>
      </trkpt>
      <trkpt lat="47.3248" lon="-1.6198">
        <ele>88.17375</ele>
        <time>2012-05-13T10:16:27Z</time>
      </trkpt>
      <trkpt lat="47.32498" lon="-1.61993">
        <ele>87.32945</ele>
        <time>2012-05-13T10:16:36Z</time>
      </trkpt>
      <trkpt lat="47.32517" lon="-1.61997">
        <ele>87.05863</ele>
        <time>2012-05-13T10:16:42Z</time>
      </trkpt>
      <trkpt lat="47.32536" lon="-1.61999">
        <ele>87.013916</ele>
        <time>2012-05-13T10:16:47Z</time>
      </trkpt>
      <trkpt lat="47.32555" lon="-1.61997">
        <ele>87.00248</ele>
        <time>2012-05-13T10:16:53Z</time>
      </trkpt>
      <trkpt lat="47.32573" lon="-1.61995">
        <ele>88.36256</ele>
        <time>2012-05-13T10:17:03Z</time>
      </trkpt>
      <trkpt lat="47.32593" lon="-1.61993">
        <ele>89.97265</ele>
        <time>2012-05-13T10:17:21Z</time>
      </trkpt>
      <trkpt lat="47.32611" lon="-1.61993">
        <ele>91.62612</ele>
        <time>2012-05-13T10:17:32Z</time>
      </trkpt>
      <trkpt lat="47.32625" lon="-1.6201">
        <ele>92.77212</ele>
        <time>2012-05-13T10:17:39Z</time>
      </trkpt>
      <trkpt lat="47.32638" lon="-1.62033">
        <ele>93.73228</ele>
        <time>2012-05-13T10:17:46Z</time>
      </trkpt>
      <trkpt lat="47.32653" lon="-1.62048">
        <ele>93.964264</ele>
        <time>2012-05-13T10:17:53Z</time>
      </trkpt>
      <trkpt lat="47.32667" lon="-1.62066">
        <ele>94.678825</ele>
        <time>2012-05-13T10:18:00Z</time>
      </trkpt>
      <trkpt lat="47.32677" lon="-1.62091">
        <ele>95.40535</ele>
        <time>2012-05-13T10:18:08Z</time>
      </trkpt>
      <trkpt lat="47.32685" lon="-1.62117">
        <ele>95.95535</ele>
        <time>2012-05-13T10:18:17Z</time>
      </trkpt>
    </trkseg>
  </trk>
</gpx>